
Distance (Route):
Temperature : -14.9°C
Humidity : 91.6%
Pressure : 0hPa| Receiver | Frames | First received | Last received |
|---|---|---|---|
| DM0DOS-11 | 406 | 2026-09-01 00:02:52 | 2026-09-01 01:47:55 |
| BIOWL1-15 | 385 | 2026-09-01 00:05:11 | 2026-09-01 01:47:00 |
| DB0UT-7 | 84 | 2026-08-31 23:53:20 | 2026-09-01 02:10:03 |
| BIOWL9-15 | 64 | 2026-09-01 00:08:40 | 2026-09-01 01:46:59 |
| WEDDY | 42 | 2026-09-01 00:59:55 | 2026-09-01 01:29:20 |
| HTAHTA | 31 | 2026-09-01 00:23:53 | 2026-09-01 01:09:57 |
| DJ2DS-15 | 15 | 2026-09-01 00:36:48 | 2026-09-01 01:15:53 |
| BIOWL7-15 | 9 | 2026-09-01 00:09:14 | 2026-09-01 01:33:53 |
| Receiver | Date | Latitude | Longitude | Direction | Speed | Altitude | Climb | Temperature | Humidity | Pressure | Voltage | Killtimer | Uptime | BKT | XDATA |
|---|---|---|---|---|---|---|---|---|---|---|---|---|---|---|---|
| DB0UT-7 | 2026-09-01 02:10:03 | 51.09512 | 2.35491 | 80° | 75km/h | 5435m | -2.6m/s | -14.9°C | 91.6% | 0hPa | 2.7V | 00:00:00 | 03:19:54 | 00:00:00 | |
| DB0UT-7 | 2026-09-01 02:08:50 | 51.09210 | 2.33403 | 78° | 78km/h | 5625m | -3.1m/s | -16.6°C | 91.3% | 0hPa | 2.7V | 00:00:00 | 00:00:00 | 00:00:00 | |
| DB0UT-7 | 2026-09-01 02:08:20 | 51.09086 | 2.32474 | 80° | 73km/h | 5703m | -3.0m/s | -17.3°C | 92.5% | 0hPa | 2.7V | 00:00:00 | 03:18:11 | 00:00:00 | |
| DB0UT-7 | 2026-09-01 02:07:15 | 51.08950 | 2.30492 | 87° | 69km/h | 5876m | -2.8m/s | -18.2°C | 92.6% | 0hPa | 2.6V | 00:00:00 | 00:00:00 | 00:00:00 | |
| DB0UT-7 | 2026-09-01 02:03:41 | 51.08328 | 2.25212 | 73° | 71km/h | 6424m | -2.5m/s | -21.0°C | 86.2% | 0hPa | 2.6V | 00:00:00 | 03:13:32 | 00:00:00 | |
| DB0UT-7 | 2026-09-01 02:03:11 | 51.08174 | 2.24385 | 74° | 73km/h | 6500m | -2.5m/s | -21.5°C | 86.6% | 0hPa | 2.6V | 00:00:00 | 00:00:00 | 00:00:00 | |
| DB0UT-7 | 2026-09-01 02:02:38 | 51.08017 | 2.23449 | 78° | 71km/h | 6586m | -2.7m/s | -22.0°C | 85.8% | 0hPa | 2.5V | 07:22:00 | 03:12:29 | 00:00:00 | |
| DB0UT-7 | 2026-09-01 02:02:08 | 51.07917 | 2.22596 | 82° | 75km/h | 6667m | -2.5m/s | -22.1°C | 84.9% | 0hPa | 2.5V | 00:00:00 | 00:00:00 | 00:00:00 | |
| DB0UT-7 | 2026-09-01 02:01:38 | 51.07845 | 2.21706 | 85° | 73km/h | 6749m | -2.6m/s | -22.5°C | 84.7% | 0hPa | 2.5V | 00:00:00 | 03:11:29 | 00:00:00 | |
| DB0UT-7 | 2026-09-01 02:01:08 | 51.07809 | 2.20836 | 88° | 69km/h | 6829m | -2.7m/s | -22.9°C | 86.0% | 0hPa | 2.6V | 00:00:00 | 00:00:00 | 00:00:00 | |
| DB0UT-7 | 2026-09-01 02:00:38 | 51.07794 | 2.19994 | 88° | 66km/h | 6908m | -2.5m/s | -23.5°C | 85.6% | 0hPa | 2.6V | 00:00:00 | 03:10:29 | 00:00:00 | |
| DB0UT-7 | 2026-09-01 02:00:08 | 51.07771 | 2.19203 | 87° | 64km/h | 6987m | -2.7m/s | -24.1°C | 86.2% | 0hPa | 2.6V | 00:00:00 | 00:00:00 | 00:00:00 | |
| DB0UT-7 | 2026-09-01 01:59:38 | 51.07745 | 2.18439 | 87° | 62km/h | 7066m | -2.6m/s | -24.7°C | 85.8% | 0hPa | 2.5V | 00:00:00 | 03:09:29 | 00:00:00 | |
| DB0UT-7 | 2026-09-01 01:59:08 | 51.07712 | 2.17692 | 85° | 60km/h | 7146m | -2.7m/s | -25.3°C | 85.3% | 0hPa | 2.5V | 00:00:00 | 00:00:00 | 00:00:00 | |
| DB0UT-7 | 2026-09-01 01:58:34 | 51.07649 | 2.16863 | 81° | 58km/h | 7238m | -2.6m/s | -26.0°C | 83.2% | 0hPa | 2.5V | 07:26:00 | 03:08:25 | 00:00:00 | |
| DB0UT-7 | 2026-09-01 01:58:04 | 51.07585 | 2.16164 | 79° | 55km/h | 7322m | -2.7m/s | -26.5°C | 81.8% | 0hPa | 2.6V | 00:00:00 | 00:00:00 | 00:00:00 | |
| DB0UT-7 | 2026-09-01 01:56:52 | 51.07313 | 2.14580 | 71° | 58km/h | 7526m | -2.7m/s | -27.7°C | 78.7% | 0hPa | 2.6V | 00:00:00 | 03:06:43 | 00:00:00 | |
| DB0UT-7 | 2026-09-01 01:56:22 | 51.07163 | 2.13925 | 70° | 58km/h | 7610m | -2.8m/s | -28.3°C | 76.6% | 0hPa | 2.6V | 00:00:00 | 00:00:00 | 00:00:00 | |
| DB0UT-7 | 2026-09-01 01:55:09 | 51.06749 | 2.12409 | 64° | 62km/h | 7815m | -2.8m/s | -29.8°C | 76.0% | 0hPa | 2.5V | 00:00:00 | 03:05:00 | 00:00:00 | |
| DB0UT-7 | 2026-09-01 01:54:39 | 51.06542 | 2.11741 | 65° | 66km/h | 7900m | -2.9m/s | -30.4°C | 76.3% | 0hPa | 2.5V | 00:00:00 | 00:00:00 | 00:00:00 | |
| DB0UT-7 | 2026-09-01 01:53:26 | 51.05999 | 2.09913 | 67° | 75km/h | 8123m | -3.0m/s | -32.0°C | 74.4% | 0hPa | 2.5V | 00:00:00 | 00:00:00 | 00:00:00 | |
| DB0UT-7 | 2026-09-01 01:52:56 | 51.05769 | 2.09077 | 68° | 78km/h | 8213m | -3.0m/s | -32.6°C | 73.7% | 0hPa | 2.5V | 07:31:00 | 03:02:47 | 00:00:00 | |
| DB0UT-7 | 2026-09-01 01:51:44 | 51.05330 | 2.06902 | 79° | 82km/h | 8441m | -3.3m/s | -34.1°C | 76.3% | 0hPa | 2.5V | 00:00:00 | 00:00:00 | 00:00:00 | |
| DB0UT-7 | 2026-09-01 01:51:14 | 51.05215 | 2.05920 | 81° | 88km/h | 8533m | -3.0m/s | -34.8°C | 72.9% | 0hPa | 2.5V | 00:00:00 | 03:01:05 | 00:00:00 | |
| DB0UT-7 | 2026-09-01 01:50:01 | 51.04962 | 2.03396 | 81° | 89km/h | 8764m | -3.0m/s | -36.8°C | 69.8% | 0hPa | 2.5V | 00:00:00 | 00:00:00 | 00:00:00 | |
| DB0UT-7 | 2026-09-01 01:49:31 | 51.04849 | 2.02338 | 81° | 95km/h | 8856m | -3.0m/s | -37.6°C | 71.8% | 0hPa | 2.5V | 00:00:00 | 02:59:22 | 00:00:00 | |
| DM0DOS-11 | 2026-09-01 01:47:55 | 51.04562 | 1.98807 | 84° | 86km/h | 9168m | -3.1m/s | -40.5°C | 78.4% | 0hPa | 2.6V | 07:37:04 | 02:57:42 | 00:00:00 | |
| DM0DOS-11 | 2026-09-01 01:47:45 | 51.04543 | 1.98470 | 84° | 86km/h | 9199m | -3.3m/s | -40.7°C | 75.9% | 0hPa | 2.5V | 07:37:14 | 02:57:32 | 00:00:00 | |
| DM0DOS-11 | 2026-09-01 01:47:36 | 51.04524 | 1.98127 | 85° | 86km/h | 9231m | -3.3m/s | -41°C | 71.1% | 0hPa | 2.5V | 07:37:24 | 02:57:22 | 00:00:00 | |
| DM0DOS-11 | 2026-09-01 01:47:25 | 51.04506 | 1.97773 | 85° | 89km/h | 9265m | -3.5m/s | -41.3°C | 70% | 0hPa | 2.5V | 07:37:34 | 02:57:12 | 00:00:00 | |
| DM0DOS-11 | 2026-09-01 01:47:15 | 51.04485 | 1.97406 | 84° | 93km/h | 9299m | -3.4m/s | -41.5°C | 58.5% | 0hPa | 2.6V | 07:37:44 | 02:57:02 | 00:00:00 | |
| DM0DOS-11 | 2026-09-01 01:47:05 | 51.04458 | 1.97029 | 83° | 95km/h | 9331m | -3m/s | -41.5°C | 36.2% | 0hPa | 2.5V | 07:37:54 | 02:56:52 | 00:00:00 | |
| BIOWL1-15 | 2026-09-01 01:47:00 | 51.04455 | 1.96991 | 83° | 97km/h | 9334m | -3.2m/s | -41.5°C | 33.3% | 0hPa | 2.6V | 07:37:58 | 02:56:51 | 00:00:00 | |
| BIOWL9-15 | 2026-09-01 01:46:59 | 51.04445 | 1.96876 | 82° | 95km/h | 9343m | -3.1m/s | -41.5°C | 22.9% | -1.0hPa | 2.5V | 00:00:00 | 00:00:00 | 00:00:00 | |
| DM0DOS-11 | 2026-09-01 01:46:56 | 51.04426 | 1.96647 | 82° | 97km/h | 9361m | -3.1m/s | -41.4°C | 17.7% | 0hPa | 2.5V | 07:38:04 | 02:56:42 | 00:00:00 | |
| BIOWL1-15 | 2026-09-01 01:46:47 | 51.04404 | 1.96417 | 81° | 97km/h | 9380m | -3.2m/s | -41.5°C | 16.3% | 0hPa | 2.6V | 07:38:49 | 02:56:36 | 00:00:00 | |
| DM0DOS-11 | 2026-09-01 01:46:45 | 51.04388 | 1.96265 | 80° | 95km/h | 9392m | -3.4m/s | -41.5°C | 16% | 0hPa | 2.5V | 07:38:14 | 02:56:32 | 00:00:00 | |
| BIOWL1-15 | 2026-09-01 01:46:37 | 51.04372 | 1.96114 | 80° | 95km/h | 9406m | -3.1m/s | -41.5°C | 16.6% | 0hPa | 2.5V | 07:38:49 | 02:56:28 | 00:00:00 | |
| BIOWL1-15 | 2026-09-01 01:46:27 | 51.04328 | 1.95744 | 79° | 95km/h | 9436m | -3.1m/s | -41.7°C | 17.2% | 0hPa | 2.5V | 07:38:49 | 02:56:18 | 00:00:00 | |
| BIOWL1-15 | 2026-09-01 01:46:18 | 51.04276 | 1.95335 | 79° | 95km/h | 9471m | -3.2m/s | -42°C | 18% | 0hPa | 2.5V | 07:38:49 | 02:56:07 | 00:00:00 | |
| DM0DOS-11 | 2026-09-01 01:46:15 | 51.04252 | 1.95147 | 78° | 95km/h | 9487m | -3.3m/s | -42.1°C | 17.7% | 0hPa | 2.5V | 07:38:44 | 02:56:02 | 00:00:00 | |
| BIOWL1-15 | 2026-09-01 01:46:10 | 51.04228 | 1.94958 | 78° | 95km/h | 9503m | -3.2m/s | -42.2°C | 18.8% | 0hPa | 2.5V | 07:38:49 | 02:55:57 | 00:00:00 | |
| DB0UT-7 | 2026-09-01 01:46:06 | 51.04228 | 1.94958 | 78° | 89km/h | 9503m | -3.1m/s | -42.2°C | 18.1% | 0hPa | 2.5V | 00:00:00 | 02:55:57 | 00:00:00 | |
| DM0DOS-11 | 2026-09-01 01:46:05 | 51.04202 | 1.94774 | 77° | 93km/h | 9519m | -3.2m/s | -42.3°C | 18.6% | 0hPa | 2.5V | 07:38:54 | 02:55:52 | 00:00:00 | |
| BIOWL1-15 | 2026-09-01 01:45:57 | 51.04171 | 1.94558 | 77° | 91km/h | 9537m | -3m/s | -42.5°C | 19.9% | 0hPa | 2.6V | 07:39:40 | 02:55:46 | 00:00:00 | |
| DM0DOS-11 | 2026-09-01 01:45:55 | 51.04151 | 1.94417 | 77° | 89km/h | 9550m | -3.1m/s | -42.6°C | 20% | 0hPa | 2.5V | 07:39:04 | 02:55:42 | 00:00:00 | |
| BIOWL1-15 | 2026-09-01 01:45:45 | 51.04122 | 1.94206 | 78° | 89km/h | 9568m | -3m/s | -42.7°C | 21.9% | 0hPa | 2.6V | 07:39:40 | 02:55:36 | 00:00:00 | |
| BIOWL1-15 | 2026-09-01 01:45:36 | 51.04013 | 1.93411 | 78° | 88km/h | 9641m | -3.2m/s | -43.2°C | 29.8% | 0hPa | 2.5V | 07:39:40 | 02:55:13 | 00:00:00 | |
| BIOWL1-15 | 2026-09-01 01:45:30 | 51.04008 | 1.93376 | 77° | 88km/h | 9644m | -3.3m/s | -43.3°C | 29.9% | 0hPa | 2.5V | 07:39:40 | 02:55:12 | 00:00:00 | |
| DM0DOS-11 | 2026-09-01 01:45:25 | 51.04023 | 1.93480 | 77° | 88km/h | 9635m | -3.2m/s | -43.2°C | 28.9% | 0hPa | 2.5V | 07:39:31 | 02:55:15 | 00:00:00 | |
| DM0DOS-11 | 2026-09-01 01:45:16 | 51.03972 | 1.93134 | 76° | 88km/h | 9667m | -3.2m/s | -43.4°C | 30% | 0hPa | 2.5V | 07:39:41 | 02:55:05 | 00:00:00 | |
| BIOWL1-15 | 2026-09-01 01:45:12 | 51.03952 | 1.92996 | 77° | 88km/h | 9680m | -3.2m/s | -43.5°C | 31.1% | 0hPa | 2.5V | 07:41:22 | 02:55:01 | 00:00:00 | |
| DM0DOS-11 | 2026-09-01 01:45:05 | 51.03922 | 1.92792 | 76° | 88km/h | 9699m | -3.1m/s | -43.7°C | 30.9% | 0hPa | 2.5V | 07:39:51 | 02:54:55 | 00:00:00 | |
| BIOWL1-15 | 2026-09-01 01:45:03 | 51.03906 | 1.92689 | 76° | 88km/h | 9709m | -3.3m/s | -43.8°C | 31.5% | 0hPa | 2.5V | 07:41:22 | 02:54:52 | 00:00:00 | |
| DM0DOS-11 | 2026-09-01 01:44:55 | 51.03868 | 1.92450 | 75° | 88km/h | 9731m | -3.2m/s | -44°C | 30.7% | 0hPa | 2.5V | 07:40:01 | 02:54:45 | 00:00:00 | |
| BIOWL1-15 | 2026-09-01 01:44:51 | 51.03852 | 1.92348 | 76° | 88km/h | 9741m | -3.4m/s | -44.1°C | 31.3% | 0hPa | 2.5V | 07:41:22 | 02:54:42 | 00:00:00 | |
| BIOWL1-15 | 2026-09-01 01:44:38 | 51.03774 | 1.91845 | 76° | 84km/h | 9789m | -3.2m/s | -44.5°C | 31% | 0hPa | 2.5V | 07:41:22 | 02:54:27 | 00:00:00 | |
| DB0UT-7 | 2026-09-01 01:44:24 | 51.03712 | 1.91449 | 77° | 89km/h | 9829m | -3.3m/s | -44.8°C | 30.6% | 0hPa | 2.5V | 07:40:00 | 02:54:15 | 00:00:00 | |
| BIOWL1-15 | 2026-09-01 01:43:50 | 51.03568 | 1.90348 | 78° | 84km/h | 9938m | -3.2m/s | -45.8°C | 34% | 0hPa | 2.5V | 07:41:22 | 02:53:41 | 00:00:00 | |
| BIOWL1-15 | 2026-09-01 01:43:39 | 51.03518 | 1.89986 | 78° | 84km/h | 9974m | -3.3m/s | -46.1°C | 35.7% | 0hPa | 2.5V | 07:41:22 | 02:53:30 | 00:00:00 | |
| BIOWL1-15 | 2026-09-01 01:43:28 | 51.03464 | 1.89606 | 77° | 91km/h | 10009m | -3.2m/s | -46.5°C | 36.6% | 0hPa | 2.5V | 07:42:13 | 02:53:19 | 00:00:00 | |
| BIOWL1-15 | 2026-09-01 01:43:18 | 51.03414 | 1.89251 | 78° | 91km/h | 10041m | -3.2m/s | -46.7°C | 37% | 0hPa | 2.5V | 07:42:13 | 02:53:09 | 00:00:00 | |
| BIOWL1-15 | 2026-09-01 01:43:07 | 51.03343 | 1.88704 | 78° | 91km/h | 10090m | -3.3m/s | -47.2°C | 36.6% | 0hPa | 2.6V | 07:42:13 | 02:52:54 | 00:00:00 | |
| DM0DOS-11 | 2026-09-01 01:43:05 | 51.03334 | 1.88632 | 78° | 91km/h | 10097m | -3.3m/s | -47.2°C | 36.5% | 0hPa | 2.5V | 07:41:54 | 02:52:52 | 00:00:00 | |
| DM0DOS-11 | 2026-09-01 01:42:54 | 51.03280 | 1.88194 | 79° | 95km/h | 10136m | -3.3m/s | -47.6°C | 37.7% | 0hPa | 2.5V | 07:42:06 | 02:52:40 | 00:00:00 | |
| BIOWL1-15 | 2026-09-01 01:42:52 | 51.03293 | 1.88305 | 80° | 93km/h | 10126m | -3.5m/s | -47.5°C | 37.5% | 0hPa | 2.5V | 07:42:13 | 02:52:43 | 00:00:00 | |
| BIOWL1-15 | 2026-09-01 01:42:42 | 51.03225 | 1.87709 | 80° | 95km/h | 10180m | -3.3m/s | -48°C | 39.8% | 0hPa | 2.6V | 07:43:55 | 02:52:27 | 00:00:00 | |
| BIOWL1-15 | 2026-09-01 01:42:27 | 51.03191 | 1.87370 | 82° | 95km/h | 10209m | -3.3m/s | -48.2°C | 41.4% | 0hPa | 2.5V | 07:43:55 | 02:52:18 | 00:00:00 | |
| BIOWL1-15 | 2026-09-01 01:42:17 | 51.03159 | 1.86988 | 83° | 97km/h | 10242m | -3.2m/s | -48.4°C | 42.7% | 0hPa | 2.5V | 07:43:55 | 02:52:08 | 00:00:00 | |
| BIOWL1-15 | 2026-09-01 01:42:06 | 51.03127 | 1.86566 | 83° | 97km/h | 10278m | -3.3m/s | -48.7°C | 43% | 0hPa | 2.5V | 07:43:55 | 02:51:57 | 00:00:00 | |
| BIOWL1-15 | 2026-09-01 01:41:58 | 51.03097 | 1.86182 | 83° | 97km/h | 10311m | -3.4m/s | -48.9°C | 43.4% | 0hPa | 2.5V | 07:43:55 | 02:51:47 | 00:00:00 | |
| BIOWL9-15 | 2026-09-01 01:41:49 | 51.03075 | 1.85874 | 83° | 95km/h | 10337m | -3.3m/s | 0°C | -1.0% | -1.0hPa | 2.5V | 00:00:00 | 00:00:00 | 00:00:00 | |
| BIOWL1-15 | 2026-09-01 01:41:45 | 51.03063 | 1.85684 | 85° | 95km/h | 10353m | -3.2m/s | -49.2°C | 43.3% | 0hPa | 2.5V | 07:43:55 | 02:51:34 | 00:00:00 | |
| BIOWL1-15 | 2026-09-01 01:41:34 | 51.03043 | 1.85343 | 85° | 95km/h | 10383m | -3.1m/s | -49.5°C | 42.9% | 0hPa | 2.5V | 07:43:55 | 02:51:25 | 00:00:00 | |
| BIOWL1-15 | 2026-09-01 01:41:24 | 51.03016 | 1.84958 | 83° | 97km/h | 10415m | -3.3m/s | -49.7°C | 42.6% | 0hPa | 2.5V | 07:43:55 | 02:51:15 | 00:00:00 | |
| BIOWL1-15 | 2026-09-01 01:41:15 | 51.02987 | 1.84535 | 85° | 95km/h | 10452m | -3.4m/s | -50°C | 42% | 0hPa | 2.5V | 07:43:55 | 02:51:04 | 00:00:00 | |
| BIOWL1-15 | 2026-09-01 01:41:03 | 51.02965 | 1.84151 | 85° | 95km/h | 10484m | -3.2m/s | 0°C | 0% | 0hPa | 2.5V | 07:43:55 | 02:50:54 | 00:00:00 | |
| BIOWL1-15 | 2026-09-01 01:40:52 | 51.02945 | 1.83738 | 86° | 91km/h | 10519m | -3.3m/s | 0°C | 0% | 0hPa | 2.5V | 18:12:15 | 02:50:43 | 00:00:00 | |
| BIOWL1-15 | 2026-09-01 01:40:35 | 51.02920 | 1.83105 | 86° | 97km/h | 10574m | -3m/s | 0°C | 0% | 0hPa | 2.5V | 18:12:15 | 02:50:26 | 00:00:00 | |
| DM0DOS-11 | 2026-09-01 01:40:11 | 51.02849 | 1.81955 | 82° | 99km/h | 10668m | -3.4m/s | -51.5°C | 41% | 0hPa | 2.6V | 07:44:49 | 02:49:57 | 00:00:00 | |
| DM0DOS-11 | 2026-09-01 01:39:57 | 51.02822 | 1.81559 | 84° | 99km/h | 10701m | -3.5m/s | -51.6°C | 40% | 0hPa | 2.5V | 07:44:59 | 02:49:47 | 00:00:00 | |
| DM0DOS-11 | 2026-09-01 01:39:52 | 51.02795 | 1.81168 | 82° | 99km/h | 10734m | -3.8m/s | -51.8°C | 39.6% | 0hPa | 2.5V | 07:45:09 | 02:49:37 | 00:00:00 | |
| DB0UT-7 | 2026-09-01 01:39:45 | 51.02791 | 1.81129 | 82° | 95km/h | 10738m | -3.5m/s | -51.8°C | 39.8% | 0hPa | 2.5V | 00:00:00 | 00:00:00 | 00:00:00 | |
| DM0DOS-11 | 2026-09-01 01:39:38 | 51.02758 | 1.80781 | 81° | 97km/h | 10772m | -3.8m/s | -52.1°C | 38.2% | 0hPa | 2.5V | 07:45:19 | 02:49:27 | 00:00:00 | |
| DM0DOS-11 | 2026-09-01 01:39:31 | 51.02718 | 1.80402 | 79° | 93km/h | 10807m | -3.5m/s | -52.2°C | 35.3% | 0hPa | 2.5V | 07:45:29 | 02:49:17 | 00:00:00 | |
| DM0DOS-11 | 2026-09-01 01:39:17 | 51.02674 | 1.80046 | 79° | 88km/h | 10841m | -3.3m/s | -52.2°C | 33.5% | 0hPa | 2.6V | 07:45:39 | 02:49:07 | 00:00:00 | |
| DB0UT-7 | 2026-09-01 01:39:15 | 51.02670 | 1.80011 | 80° | 86km/h | 10845m | -3.4m/s | -52.2°C | 33.5% | 0hPa | 2.5V | 00:00:00 | 02:49:06 | 00:00:00 | |
| DM0DOS-11 | 2026-09-01 01:39:11 | 51.02641 | 1.79703 | 82° | 86km/h | 10876m | -3.5m/s | -52.3°C | 33.5% | 0hPa | 2.5V | 07:45:49 | 02:48:57 | 00:00:00 | |
| DM0DOS-11 | 2026-09-01 01:38:57 | 51.02616 | 1.79358 | 84° | 88km/h | 10912m | -3.5m/s | -52.3°C | 33.8% | 0hPa | 2.5V | 07:45:59 | 02:48:47 | 00:00:00 | |
| DM0DOS-11 | 2026-09-01 01:38:51 | 51.02596 | 1.79016 | 85° | 84km/h | 10947m | -3.7m/s | -52.5°C | 33.9% | 0hPa | 2.5V | 07:46:09 | 02:48:37 | 00:00:00 | |
| DM0DOS-11 | 2026-09-01 01:38:37 | 51.02581 | 1.78681 | 86° | 84km/h | 10984m | -3.6m/s | -52.8°C | 34% | 0hPa | 2.5V | 07:46:19 | 02:48:27 | 00:00:00 | |
| DM0DOS-11 | 2026-09-01 01:38:31 | 51.02571 | 1.78347 | 87° | 84km/h | 11017m | -3.3m/s | -53°C | 34% | 0hPa | 2.5V | 07:46:29 | 02:48:17 | 00:00:00 | |
| DM0DOS-11 | 2026-09-01 01:38:17 | 51.02565 | 1.78008 | 88° | 86km/h | 11050m | -3.3m/s | -53.2°C | 34.5% | 0hPa | 2.5V | 07:46:39 | 02:48:07 | 00:00:00 | |
| DM0DOS-11 | 2026-09-01 01:38:11 | 51.02561 | 1.77660 | 88° | 88km/h | 11083m | -3.4m/s | -53.2°C | 34.8% | 0hPa | 2.5V | 07:46:49 | 02:47:57 | 00:00:00 | |
| DB0UT-7 | 2026-09-01 01:38:04 | 51.02560 | 1.77589 | 89° | 93km/h | 11090m | -3.3m/s | -53.2°C | 35.0% | 0hPa | 2.6V | 00:00:00 | 00:00:00 | 00:00:00 | |
| DM0DOS-11 | 2026-09-01 01:37:57 | 51.02556 | 1.77301 | 88° | 93km/h | 11118m | -3.4m/s | -53.5°C | 35.5% | 0hPa | 2.6V | 07:46:59 | 02:47:47 | 00:00:00 | |
| DM0DOS-11 | 2026-09-01 01:37:51 | 51.02541 | 1.76922 | 84° | 97km/h | 11152m | -3.4m/s | -53.8°C | 36.2% | 0hPa | 2.6V | 07:47:09 | 02:47:37 | 00:00:00 | |
| DM0DOS-11 | 2026-09-01 01:37:37 | 51.02521 | 1.76537 | 86° | 97km/h | 11187m | -3.5m/s | -53.9°C | 36.8% | 0hPa | 2.5V | 07:47:19 | 02:47:27 | 00:00:00 | |
| DB0UT-7 | 2026-09-01 01:37:34 | 51.02517 | 1.76460 | 87° | 86km/h | 11194m | -3.5m/s | -53.9°C | 36.9% | 0hPa | 2.5V | 07:47:00 | 02:47:25 | 00:00:00 | |
| DM0DOS-11 | 2026-09-01 01:37:31 | 51.02507 | 1.76155 | 87° | 95km/h | 11221m | -3.4m/s | -54°C | 37% | 0hPa | 2.5V | 07:47:29 | 02:47:17 | 00:00:00 | |
| DM0DOS-11 | 2026-09-01 01:37:17 | 51.02504 | 1.75789 | 89° | 89km/h | 11256m | -3.4m/s | -54.2°C | 37.5% | 0hPa | 2.5V | 07:47:39 | 02:47:07 | 00:00:00 | |
| DM0DOS-11 | 2026-09-01 01:37:11 | 51.02502 | 1.75433 | 89° | 89km/h | 11290m | -3.4m/s | -54.5°C | 37.9% | 0hPa | 2.5V | 07:47:49 | 02:46:57 | 00:00:00 | |
| DM0DOS-11 | 2026-09-01 01:36:57 | 51.02501 | 1.75077 | 89° | 89km/h | 11324m | -3.3m/s | -54.5°C | 38.4% | 0hPa | 2.6V | 07:47:59 | 02:46:47 | 00:00:00 | |
| DM0DOS-11 | 2026-09-01 01:36:51 | 51.02501 | 1.74726 | 89° | 86km/h | 11357m | -3.4m/s | -54.7°C | 39.5% | 0hPa | 2.6V | 07:48:09 | 02:46:37 | 00:00:00 | |
| DM0DOS-11 | 2026-09-01 01:36:37 | 51.02497 | 1.74381 | 88° | 86km/h | 11390m | -3.3m/s | -55°C | 40.7% | 0hPa | 2.5V | 07:48:19 | 02:46:27 | 00:00:00 | |
| DM0DOS-11 | 2026-09-01 01:36:31 | 51.02491 | 1.74044 | 88° | 84km/h | 11424m | -3.4m/s | -55.3°C | 41.6% | 0hPa | 2.6V | 07:48:29 | 02:46:17 | 00:00:00 | |
| BIOWL1-15 | 2026-09-01 01:36:19 | 51.02479 | 1.73676 | 85° | 84km/h | 11460m | -3.5m/s | -55.6°C | 41.2% | 0hPa | 2.6V | 07:49:01 | 02:46:06 | 00:00:00 | |
| DM0DOS-11 | 2026-09-01 01:36:17 | 51.02480 | 1.73710 | 85° | 84km/h | 11457m | -3.4m/s | -55.6°C | 43% | 0hPa | 2.6V | 07:48:39 | 02:46:07 | 00:00:00 | |
| DM0DOS-11 | 2026-09-01 01:36:11 | 51.02459 | 1.73369 | 84° | 88km/h | 11490m | -3.3m/s | -55.8°C | 44.7% | 0hPa | 2.5V | 07:48:49 | 02:45:57 | 00:00:00 | |
| BIOWL1-15 | 2026-09-01 01:36:09 | 51.02462 | 1.73403 | 84° | 88km/h | 11487m | -3.6m/s | -55.8°C | 42% | 0hPa | 2.5V | 07:49:01 | 02:45:58 | 00:00:00 | |
| BIOWL9-15 | 2026-09-01 01:36:07 | 51.02462 | 1.73403 | 83° | 86km/h | 11487m | -3.6m/s | -55.8°C | 35.0% | -1.0hPa | 2.5V | 00:00:00 | 00:00:00 | 00:00:00 | |
| DM0DOS-11 | 2026-09-01 01:36:00 | 51.02438 | 1.72989 | 85° | 86km/h | 11527m | -3.3m/s | -56°C | 45% | 0hPa | 2.5V | 07:49:00 | 02:45:46 | 00:00:00 | |
| BIOWL1-15 | 2026-09-01 01:35:56 | 51.02436 | 1.72955 | 85° | 86km/h | 11530m | -3.3m/s | -56°C | 42.6% | 0hPa | 2.5V | 07:49:01 | 02:45:45 | 00:00:00 | |
| DM0DOS-11 | 2026-09-01 01:35:50 | 51.02422 | 1.72633 | 86° | 93km/h | 11560m | -3.3m/s | -56.2°C | 44.7% | 0hPa | 2.6V | 07:49:10 | 02:45:36 | 00:00:00 | |
| BIOWL1-15 | 2026-09-01 01:35:44 | 51.02420 | 1.72596 | 86° | 93km/h | 11563m | -3.4m/s | -56.2°C | 42.1% | 0hPa | 2.5V | 07:49:52 | 02:45:35 | 00:00:00 | |
| DM0DOS-11 | 2026-09-01 01:35:40 | 51.02408 | 1.72254 | 87° | 97km/h | 11596m | -3.7m/s | -56.5°C | 45.1% | 0hPa | 2.5V | 07:49:20 | 02:45:26 | 00:00:00 | |
| BIOWL1-15 | 2026-09-01 01:35:34 | 51.02407 | 1.72215 | 87° | 97km/h | 11599m | -3.7m/s | -56.5°C | 41.6% | 0hPa | 2.5V | 07:49:52 | 02:45:25 | 00:00:00 | |
| DM0DOS-11 | 2026-09-01 01:35:27 | 51.02393 | 1.71872 | 84° | 95km/h | 11631m | -3.4m/s | -56.4°C | 42.3% | 0hPa | 2.5V | 07:49:30 | 02:45:16 | 00:00:00 | |
| BIOWL1-15 | 2026-09-01 01:35:24 | 51.02390 | 1.71835 | 84° | 95km/h | 11635m | -3.7m/s | -56.4°C | 40.5% | 0hPa | 2.5V | 07:49:52 | 02:45:15 | 00:00:00 | |
| DM0DOS-11 | 2026-09-01 01:35:20 | 51.02382 | 1.71481 | 94° | 93km/h | 11665m | -2.7m/s | -56.5°C | 43.5% | 0hPa | 2.5V | 07:49:40 | 02:45:06 | 00:00:00 | |
| BIOWL1-15 | 2026-09-01 01:35:16 | 51.02384 | 1.71445 | 95° | 88km/h | 11668m | -3m/s | -56.5°C | 39.9% | 0hPa | 2.5V | 07:49:52 | 02:45:05 | 00:00:00 | |
| DM0DOS-11 | 2026-09-01 01:35:10 | 51.02371 | 1.71139 | 83° | 97km/h | 11699m | -3.3m/s | -56.6°C | 39.8% | 0hPa | 2.5V | 07:49:50 | 02:44:56 | 00:00:00 | |
| BIOWL1-15 | 2026-09-01 01:35:05 | 51.02366 | 1.71060 | 87° | 99km/h | 11705m | -3.1m/s | -56.6°C | 37.9% | 0hPa | 2.6V | 07:49:52 | 02:44:54 | 00:00:00 | |
| DM0DOS-11 | 2026-09-01 01:35:00 | 51.02354 | 1.70770 | 80° | 95km/h | 11731m | -3.3m/s | -56.6°C | 40% | 0hPa | 2.6V | 07:50:00 | 02:44:46 | 00:00:00 | |
| BIOWL1-15 | 2026-09-01 01:34:53 | 51.02347 | 1.70692 | 83° | 102km/h | 11737m | -3.4m/s | -56.6°C | 37.3% | 0hPa | 2.5V | 07:50:43 | 02:44:44 | 00:00:00 | |
| DM0DOS-11 | 2026-09-01 01:34:45 | 51.02345 | 1.70387 | 90° | 86km/h | 11763m | -3.4m/s | -56.8°C | 38.8% | 0hPa | 2.5V | 07:50:10 | 02:44:36 | 00:00:00 | |
| BIOWL1-15 | 2026-09-01 01:34:42 | 51.02343 | 1.70285 | 86° | 84km/h | 11774m | -3.5m/s | -56.9°C | 36.4% | 0hPa | 2.5V | 07:50:43 | 02:44:33 | 00:00:00 | |
| DM0DOS-11 | 2026-09-01 01:34:40 | 51.02321 | 1.70049 | 77° | 89km/h | 11799m | -3.6m/s | -56.8°C | 37.8% | 0hPa | 2.5V | 07:50:20 | 02:44:26 | 00:00:00 | |
| BIOWL1-15 | 2026-09-01 01:34:31 | 51.02290 | 1.69828 | 79° | 100km/h | 11820m | -3.3m/s | -56.8°C | 35.3% | 0hPa | 2.5V | 07:50:43 | 02:44:20 | 00:00:00 | |
| BIOWL1-15 | 2026-09-01 01:34:22 | 51.02267 | 1.69421 | 90° | 99km/h | 11854m | -3.5m/s | -57°C | 33.9% | 0hPa | 2.5V | 07:50:43 | 02:44:10 | 00:00:00 | |
| BIOWL1-15 | 2026-09-01 01:34:10 | 51.02270 | 1.69092 | 90° | 84km/h | 11887m | -3.6m/s | -57°C | 31.8% | 0hPa | 2.5V | 07:51:34 | 02:44:01 | 00:00:00 | |
| DM0DOS-11 | 2026-09-01 01:34:07 | 51.02267 | 1.68930 | 86° | 78km/h | 11906m | -3.7m/s | -57°C | 32.6% | 0hPa | 2.5V | 07:50:50 | 02:43:56 | 00:00:00 | |
| DB0UT-7 | 2026-09-01 01:34:07 | 51.02269 | 1.68993 | 88° | 75km/h | 11898m | -3.8m/s | -57.0°C | 33.3% | 0hPa | 2.5V | 00:00:00 | 02:43:58 | 00:00:00 | |
| BIOWL9-15 | 2026-09-01 01:34:03 | 51.02264 | 1.68867 | 85° | 77km/h | 11913m | -3.7m/s | -57.1°C | 23.9% | -1.0hPa | 2.5V | 00:00:00 | 00:00:00 | 00:00:00 | |
| DM0DOS-11 | 2026-09-01 01:34:01 | 51.02240 | 1.68613 | 78° | 86km/h | 11941m | -3.4m/s | -57.1°C | 30.8% | 0hPa | 2.5V | 07:51:00 | 02:43:46 | 00:00:00 | |
| BIOWL1-15 | 2026-09-01 01:34:00 | 51.02258 | 1.68773 | 82° | 78km/h | 11924m | -3.5m/s | -57°C | 28.8% | 0hPa | 2.6V | 07:51:34 | 02:43:51 | 00:00:00 | |
| BIOWL7-15 | 2026-09-01 01:33:53 | 51.02236 | 1.68579 | 80° | 88km/h | 11945m | -3.2m/s | 0°C | 0% | 0hPa | 2.6V | 00:00:00 | 00:00:00 | 00:00:00 | |
| DM0DOS-11 | 2026-09-01 01:33:50 | 51.02219 | 1.68247 | 90° | 89km/h | 11975m | -3.6m/s | -56.6°C | 27.5% | 0hPa | 2.6V | 07:51:10 | 02:43:36 | 00:00:00 | |
| BIOWL1-15 | 2026-09-01 01:33:49 | 51.02220 | 1.68395 | 87° | 95km/h | 11961m | -3.5m/s | -56.9°C | 26.7% | 0hPa | 2.5V | 07:51:34 | 02:43:40 | 00:00:00 | |
| DM0DOS-11 | 2026-09-01 01:33:40 | 51.02225 | 1.67920 | 89° | 71km/h | 12012m | -3.6m/s | -56.2°C | 26.3% | 0hPa | 2.5V | 07:51:20 | 02:43:26 | 00:00:00 | |
| BIOWL1-15 | 2026-09-01 01:33:39 | 51.02223 | 1.68042 | 93° | 80km/h | 11997m | -3.6m/s | -56.4°C | 25.1% | 0hPa | 2.6V | 07:51:34 | 02:43:30 | 00:00:00 | |
| BIOWL1-15 | 2026-09-01 01:33:31 | 51.02216 | 1.67752 | 80° | 71km/h | 12034m | -3.7m/s | -56.1°C | 24.5% | 0hPa | 2.6V | 07:51:34 | 02:43:20 | 00:00:00 | |
| DM0DOS-11 | 2026-09-01 01:33:27 | 51.02201 | 1.67634 | 77° | 78km/h | 12048m | -3.5m/s | -56.1°C | 25.9% | 0hPa | 2.5V | 07:51:30 | 02:43:16 | 00:00:00 | |
| DM0DOS-11 | 2026-09-01 01:33:20 | 51.02172 | 1.67291 | 88° | 88km/h | 12083m | -3.6m/s | -56.3°C | 25.1% | 0hPa | 2.5V | 07:51:40 | 02:43:06 | 00:00:00 | |
| BIOWL1-15 | 2026-09-01 01:33:18 | 51.02176 | 1.67398 | 85° | 89km/h | 12073m | -3.5m/s | -56.2°C | 23.9% | 0hPa | 2.6V | 07:52:25 | 02:43:09 | 00:00:00 | |
| BIOWL1-15 | 2026-09-01 01:33:08 | 51.02181 | 1.66962 | 95° | 75km/h | 12121m | -3.8m/s | -56.2°C | 22.6% | 0hPa | 2.5V | 07:52:25 | 02:42:56 | 00:00:00 | |
| DM0DOS-11 | 2026-09-01 01:33:06 | 51.02181 | 1.66962 | 94° | 75km/h | 12121m | -3.8m/s | -56.2°C | 23.9% | 0hPa | 2.5V | 07:51:50 | 02:42:56 | 00:00:00 | |
| BIOWL9-15 | 2026-09-01 01:33:01 | 51.02187 | 1.66848 | 92° | 68km/h | 12136m | -3.7m/s | -56.2°C | 17.0% | -1.0hPa | 2.6V | 00:00:00 | 00:00:00 | 00:00:00 | |
| DM0DOS-11 | 2026-09-01 01:33:00 | 51.02181 | 1.66689 | 81° | 69km/h | 12158m | -3.4m/s | -56.1°C | 22.6% | 0hPa | 2.6V | 07:52:00 | 02:42:46 | 00:00:00 | |
| BIOWL1-15 | 2026-09-01 01:32:56 | 51.02184 | 1.66716 | 83° | 68km/h | 12154m | -3.4m/s | -56.1°C | 21.6% | 0hPa | 2.6V | 07:52:25 | 02:42:47 | 00:00:00 | |
| DB0UT-7 | 2026-09-01 01:32:55 | 51.02181 | 1.66688 | 82° | 77km/h | 12158m | -3.4m/s | -56.0°C | 22.6% | 0hPa | 2.5V | 00:00:00 | 00:00:00 | 00:00:00 | |
| BIOWL7-15 | 2026-09-01 01:32:52 | 51.02175 | 1.66631 | 81° | 75km/h | 12165m | -3.4m/s | 0°C | 0% | 0hPa | 2.5V | 00:00:00 | 00:00:00 | 00:00:00 | |
| DM0DOS-11 | 2026-09-01 01:32:46 | 51.02155 | 1.66372 | 86° | 86km/h | 12194m | -3.6m/s | -56°C | 21.1% | 0hPa | 2.5V | 07:52:10 | 02:42:36 | 00:00:00 | |
| BIOWL1-15 | 2026-09-01 01:32:46 | 51.02156 | 1.66406 | 85° | 86km/h | 12190m | -3.7m/s | -56°C | 20.1% | 0hPa | 2.6V | 07:52:25 | 02:42:37 | 00:00:00 | |
| DM0DOS-11 | 2026-09-01 01:32:40 | 51.02165 | 1.66039 | 97° | 77km/h | 12230m | -3.7m/s | -56.1°C | 19.8% | 0hPa | 2.5V | 07:52:20 | 02:42:26 | 00:00:00 | |
| BIOWL1-15 | 2026-09-01 01:32:35 | 51.02174 | 1.65926 | 95° | 68km/h | 12245m | -3.8m/s | -56°C | 17.7% | 0hPa | 2.6V | 07:52:25 | 02:42:22 | 00:00:00 | |
| DM0DOS-11 | 2026-09-01 01:32:30 | 51.02179 | 1.65771 | 89° | 62km/h | 12268m | -3.8m/s | -56.1°C | 18.1% | 0hPa | 2.6V | 07:52:30 | 02:42:16 | 00:00:00 | |
| BIOWL1-15 | 2026-09-01 01:32:23 | 51.02174 | 1.65668 | 83° | 66km/h | 12283m | -3.7m/s | -56.1°C | 16.5% | 0hPa | 2.5V | 07:53:16 | 02:42:12 | 00:00:00 | |
| DM0DOS-11 | 2026-09-01 01:32:20 | 51.02158 | 1.65495 | 81° | 78km/h | 12306m | -3.9m/s | -56.2°C | 17.2% | 0hPa | 2.5V | 07:52:40 | 02:42:06 | 00:00:00 | |
| BIOWL1-15 | 2026-09-01 01:32:11 | 51.02147 | 1.65367 | 84° | 82km/h | 12321m | -3.8m/s | -56.3°C | 15.7% | 0hPa | 2.6V | 07:53:16 | 02:42:02 | 00:00:00 | |
| DM0DOS-11 | 2026-09-01 01:32:10 | 51.02141 | 1.65163 | 89° | 86km/h | 12345m | -3.7m/s | -56.3°C | 16.3% | 0hPa | 2.5V | 07:52:50 | 02:41:56 | 00:00:00 | |
| BIOWL1-15 | 2026-09-01 01:32:00 | 51.02154 | 1.64863 | 98° | 78km/h | 12379m | -3.7m/s | -56.6°C | 14.1% | 0hPa | 2.6V | 07:53:16 | 02:41:47 | 00:00:00 | |
| BIOWL7-15 | 2026-09-01 01:31:59 | 51.02147 | 1.64959 | 97° | 82km/h | 12368m | -3.7m/s | 0°C | 0% | 0hPa | 2.5V | 00:00:00 | 00:00:00 | 00:00:00 | |
| DM0DOS-11 | 2026-09-01 01:31:57 | 51.02160 | 1.64803 | 98° | 75km/h | 12386m | -3.8m/s | -56.6°C | 15.6% | 0hPa | 2.5V | 07:53:01 | 02:41:45 | 00:00:00 | |
| BIOWL1-15 | 2026-09-01 01:31:48 | 51.02181 | 1.64552 | 98° | 68km/h | 12421m | -4m/s | -56.7°C | 12.3% | 0hPa | 2.5V | 07:53:16 | 02:41:36 | 00:00:00 | |
| DM0DOS-11 | 2026-09-01 01:31:46 | 51.02184 | 1.64526 | 97° | 68km/h | 12425m | -4.1m/s | -56.7°C | 14.3% | 0hPa | 2.5V | 07:53:11 | 02:41:35 | 00:00:00 | |
| DM0DOS-11 | 2026-09-01 01:31:36 | 51.02200 | 1.64271 | 91° | 60km/h | 12465m | -3.6m/s | -56.6°C | 12.8% | 0hPa | 2.6V | 07:53:21 | 02:41:25 | 00:00:00 | |
| BIOWL1-15 | 2026-09-01 01:31:34 | 51.02200 | 1.64271 | 92° | 60km/h | 12465m | -3.6m/s | -56.6°C | 10.4% | 0hPa | 2.6V | 07:54:07 | 02:41:25 | 00:00:00 | |
| BIOWL9-15 | 2026-09-01 01:31:28 | 51.02195 | 1.64130 | 83° | 58km/h | 12488m | -4.0m/s | -56.4°C | 7.6% | -1.0hPa | 2.5V | 00:00:00 | 00:00:00 | 00:00:00 | |
| DM0DOS-11 | 2026-09-01 01:31:26 | 51.02187 | 1.64036 | 80° | 58km/h | 12503m | -3.9m/s | -56.3°C | 12% | 0hPa | 2.5V | 07:53:31 | 02:41:15 | 00:00:00 | |
| BIOWL1-15 | 2026-09-01 01:31:23 | 51.02184 | 1.64013 | 80° | 58km/h | 12507m | -3.9m/s | -56.3°C | 9.3% | 0hPa | 2.5V | 07:54:07 | 02:41:14 | 00:00:00 | |
| DM0DOS-11 | 2026-09-01 01:31:16 | 51.02154 | 1.63801 | 74° | 62km/h | 12544m | -4.1m/s | -55.5°C | 10.3% | 0hPa | 2.6V | 07:53:41 | 02:41:05 | 00:00:00 | |
| BIOWL1-15 | 2026-09-01 01:31:12 | 51.02145 | 1.63753 | 73° | 64km/h | 12552m | -3.9m/s | -55.5°C | 8% | 0hPa | 2.5V | 07:54:07 | 02:41:03 | 00:00:00 | |
| DB0UT-7 | 2026-09-01 01:31:12 | 51.02145 | 1.63753 | 73° | 77km/h | 12552m | -3.8m/s | -55.4°C | 10.2% | 0hPa | 2.5V | 00:00:00 | 00:00:00 | 00:00:00 | |
| BIOWL7-15 | 2026-09-01 01:31:09 | 51.02135 | 1.63703 | 73° | 66km/h | 12560m | -4.1m/s | 0°C | 0% | 0hPa | 2.5V | 00:00:00 | 00:00:00 | 00:00:00 | |
| DM0DOS-11 | 2026-09-01 01:31:06 | 51.02101 | 1.63544 | 70° | 73km/h | 12584m | -4m/s | -55.5°C | 9.7% | 0hPa | 2.5V | 07:53:51 | 02:40:55 | 00:00:00 | |
| BIOWL1-15 | 2026-09-01 01:31:01 | 51.02083 | 1.63461 | 70° | 73km/h | 12596m | -4m/s | -55.4°C | 7% | 0hPa | 2.5V | 07:54:07 | 02:40:52 | 00:00:00 | |
| BIOWL9-15 | 2026-09-01 01:30:57 | 51.02057 | 1.63350 | 69° | 73km/h | 12612m | -3.9m/s | -55.3°C | 5.3% | -1.0hPa | 2.5V | 00:00:00 | 00:00:00 | 00:00:00 | |
| DM0DOS-11 | 2026-09-01 01:30:56 | 51.02037 | 1.63264 | 69° | 77km/h | 12624m | -4m/s | -55.2°C | 9.1% | 0hPa | 2.5V | 07:54:01 | 02:40:45 | 00:00:00 | |
| BIOWL1-15 | 2026-09-01 01:30:51 | 51.02017 | 1.63175 | 71° | 80km/h | 12636m | -4.2m/s | -55.1°C | 6.3% | 0hPa | 2.5V | 07:54:07 | 02:40:42 | 00:00:00 | |
| DM0DOS-11 | 2026-09-01 01:30:45 | 51.01970 | 1.62949 | 73° | 89km/h | 12665m | -4.2m/s | -54.7°C | 8.2% | 0hPa | 2.5V | 07:54:11 | 02:40:35 | 00:00:00 | |
| BIOWL1-15 | 2026-09-01 01:30:40 | 51.01946 | 1.62808 | 77° | 93km/h | 12682m | -4.3m/s | -54.6°C | 5.6% | 0hPa | 2.5V | 07:54:58 | 02:40:31 | 00:00:00 | |
| DM0DOS-11 | 2026-09-01 01:30:37 | 51.01923 | 1.62589 | 83° | 91km/h | 12707m | -4.2m/s | -54.7°C | 7.9% | 0hPa | 2.5V | 07:54:21 | 02:40:25 | 00:00:00 | |
| BIOWL1-15 | 2026-09-01 01:30:30 | 51.01916 | 1.62447 | 88° | 86km/h | 12724m | -4.3m/s | -54.7°C | 5.2% | 0hPa | 2.5V | 07:54:58 | 02:40:21 | 00:00:00 | |
| DM0DOS-11 | 2026-09-01 01:30:26 | 51.01912 | 1.62254 | 86° | 75km/h | 12750m | -4.3m/s | -54.8°C | 7.7% | 0hPa | 2.6V | 07:54:31 | 02:40:15 | 00:00:00 | |
| BIOWL1-15 | 2026-09-01 01:30:20 | 51.01905 | 1.62137 | 82° | 71km/h | 12767m | -4.2m/s | -54.8°C | 4.8% | 0hPa | 2.5V | 07:54:58 | 02:40:11 | 00:00:00 | |
| DM0DOS-11 | 2026-09-01 01:30:19 | 51.01881 | 1.61967 | 72° | 77km/h | 12793m | -4.2m/s | -54.6°C | 7.2% | 0hPa | 2.5V | 07:54:41 | 02:40:05 | 00:00:00 | |
| BIOWL1-15 | 2026-09-01 01:30:10 | 51.01856 | 1.61842 | 73° | 86km/h | 12810m | -4.3m/s | -54.5°C | 4.2% | 0hPa | 2.6V | 07:54:58 | 02:40:01 | 00:00:00 | |
| BIOWL7-15 | 2026-09-01 01:30:09 | 51.01856 | 1.61842 | 74° | 86km/h | 12810m | -4.3m/s | 0°C | 0% | 0hPa | 2.6V | 00:00:00 | 00:00:00 | 00:00:00 | |
| DM0DOS-11 | 2026-09-01 01:30:06 | 51.01823 | 1.61630 | 79° | 93km/h | 12836m | -4.2m/s | -54.6°C | 6.9% | 0hPa | 2.6V | 07:54:51 | 02:39:55 | 00:00:00 | |
| BIOWL1-15 | 2026-09-01 01:30:00 | 51.01806 | 1.61411 | 86° | 89km/h | 12861m | -4.2m/s | -54.5°C | 3.6% | 0hPa | 2.6V | 07:54:58 | 02:39:49 | 00:00:00 | |
| DM0DOS-11 | 2026-09-01 01:29:55 | 51.01801 | 1.61268 | 87° | 88km/h | 12878m | -4.1m/s | -54.4°C | 6.4% | 0hPa | 2.5V | 07:55:01 | 02:39:45 | 00:00:00 | |
| BIOWL1-15 | 2026-09-01 01:29:50 | 51.01797 | 1.61065 | 90° | 80km/h | 12903m | -4.3m/s | -54.3°C | 2.9% | 0hPa | 2.5V | 07:55:49 | 02:39:39 | 00:00:00 | |
| DM0DOS-11 | 2026-09-01 01:29:49 | 51.01796 | 1.60942 | 88° | 73km/h | 12920m | -4m/s | -54.1°C | 5.9% | 0hPa | 2.6V | 07:55:11 | 02:39:35 | 00:00:00 | |
| BIOWL1-15 | 2026-09-01 01:29:38 | 51.01789 | 1.60772 | 83° | 69km/h | 12946m | -4.2m/s | -54.2°C | 2.8% | 0hPa | 2.5V | 07:55:49 | 02:39:29 | 00:00:00 | |
| DM0DOS-11 | 2026-09-01 01:29:37 | 51.01779 | 1.60663 | 81° | 68km/h | 12962m | -4.4m/s | -54°C | 5.8% | 0hPa | 2.5V | 07:55:21 | 02:39:25 | 00:00:00 | |
| BIOWL1-15 | 2026-09-01 01:29:29 | 51.01759 | 1.60479 | 76° | 66km/h | 12994m | -4.5m/s | -53.7°C | 2.3% | 0hPa | 2.5V | 07:55:49 | 02:39:18 | 00:00:00 | |
| DB0UT-7 | 2026-09-01 01:29:29 | 51.01766 | 1.60531 | 80° | 75km/h | 12984m | -4.5m/s | -53.7°C | 5.5% | 0hPa | 2.6V | 00:00:00 | 00:00:00 | 00:00:00 | |
| DM0DOS-11 | 2026-09-01 01:29:27 | 51.01744 | 1.60401 | 70° | 71km/h | 13007m | -4.2m/s | -53.5°C | 5.2% | 0hPa | 2.6V | 07:55:31 | 02:39:15 | 00:00:00 | |
| BIOWL9-15 | 2026-09-01 01:29:24 | 51.01738 | 1.60373 | 70° | 75km/h | 13011m | -4.0m/s | -53.5°C | 2.3% | -1.0hPa | 2.5V | 00:00:00 | 00:00:00 | 00:00:00 | |
| WEDDY | 2026-09-01 01:29:20 | 51.01725 | 1.60313 | 73° | 84km/h | 13019m | -3.6m/s | -53.5°C | 2.5% | 0hPa | 2.5V | 00:00:00 | 00:00:00 | 00:00:00 | |
| DM0DOS-11 | 2026-09-01 01:29:17 | 51.01696 | 1.60075 | 84° | 84km/h | 13048m | -4.3m/s | -53.6°C | 5.2% | 0hPa | 2.5V | 07:55:41 | 02:39:05 | 00:00:00 | |
| BIOWL1-15 | 2026-09-01 01:29:17 | 51.01704 | 1.60178 | 80° | 88km/h | 13035m | -4.4m/s | -53.6°C | 2% | 0hPa | 2.6V | 07:55:49 | 02:39:08 | 00:00:00 | |
| DM0DOS-11 | 2026-09-01 01:29:07 | 51.01680 | 1.59787 | 77° | 64km/h | 13090m | -4.1m/s | -53.5°C | 5.1% | 0hPa | 2.5V | 07:55:51 | 02:38:55 | 00:00:00 | |
| BIOWL1-15 | 2026-09-01 01:29:07 | 51.01687 | 1.59863 | 85° | 66km/h | 13078m | -4.1m/s | -53.5°C | 2% | 0hPa | 2.5V | 07:55:49 | 02:38:58 | 00:00:00 | |
| DB0UT-7 | 2026-09-01 01:28:59 | 51.01656 | 1.59657 | 71° | 64km/h | 13111m | -4.0m/s | -53.3°C | 5.0% | 0hPa | 2.5V | 00:00:00 | 02:38:50 | 00:00:00 | |
| DM0DOS-11 | 2026-09-01 01:28:57 | 51.01624 | 1.59510 | 71° | 80km/h | 13131m | -4.3m/s | -53.4°C | 5% | 0hPa | 2.5V | 07:56:01 | 02:38:45 | 00:00:00 | |
| BIOWL1-15 | 2026-09-01 01:28:56 | 51.01637 | 1.59571 | 71° | 78km/h | 13123m | -4.2m/s | -53.4°C | 1.8% | 0hPa | 2.6V | 07:57:31 | 02:38:47 | 00:00:00 | |
| DM0DOS-11 | 2026-09-01 01:28:47 | 51.01571 | 1.59175 | 81° | 89km/h | 13173m | -4m/s | -53.6°C | 5% | 0hPa | 2.6V | 07:56:11 | 02:38:35 | 00:00:00 | |
| WEDDY | 2026-09-01 01:28:40 | 51.01559 | 1.59032 | 85° | 91km/h | 13189m | -4.2m/s | -53.6°C | 2.3% | 0hPa | 2.5V | 07:56:00 | 00:00:00 | 00:00:00 | |
| BIOWL1-15 | 2026-09-01 01:28:13 | 51.01566 | 1.58179 | 91° | 64km/h | 13304m | -4.2m/s | -53.9°C | 1.5% | 0hPa | 2.5V | 07:57:31 | 02:38:04 | 00:00:00 | |
| BIOWL1-15 | 2026-09-01 01:28:03 | 51.01551 | 1.57843 | 80° | 60km/h | 13363m | -4m/s | -53.7°C | 1.3% | 0hPa | 2.5V | 07:57:31 | 02:37:50 | 00:00:00 | |
| BIOWL9-15 | 2026-09-01 01:27:51 | 51.01517 | 1.57625 | 72° | 64km/h | 13400m | -4.2m/s | -53.5°C | 1.7% | -1.0hPa | 2.6V | 00:00:00 | 00:00:00 | 00:00:00 | |
| BIOWL1-15 | 2026-09-01 01:27:46 | 51.01485 | 1.57478 | 70° | 68km/h | 13425m | -4.1m/s | -53.5°C | 1% | 0hPa | 2.6V | 07:57:31 | 02:37:35 | 00:00:00 | |
| BIOWL1-15 | 2026-09-01 01:27:32 | 51.01403 | 1.57137 | 69° | 84km/h | 13476m | -4.3m/s | -53.3°C | 0.8% | 0hPa | 2.5V | 07:57:31 | 02:37:23 | 00:00:00 | |
| BIOWL1-15 | 2026-09-01 01:27:22 | 51.01334 | 1.56796 | 77° | 93km/h | 13520m | -4.4m/s | -53.5°C | 0.9% | 0hPa | 2.5V | 07:58:22 | 02:37:13 | 00:00:00 | |
| BIOWL1-15 | 2026-09-01 01:27:14 | 51.01298 | 1.56426 | 85° | 93km/h | 13565m | -4.8m/s | -53.4°C | 0.8% | 0hPa | 2.5V | 07:58:22 | 02:37:03 | 00:00:00 | |
| BIOWL1-15 | 2026-09-01 01:27:02 | 51.01281 | 1.56071 | 76° | 75km/h | 13611m | -4.3m/s | -53.5°C | 0.9% | 0hPa | 2.5V | 07:58:22 | 02:36:52 | 00:00:00 | |
| DM0DOS-11 | 2026-09-01 01:27:02 | 51.01259 | 1.55946 | 75° | 88km/h | 13628m | -4.1m/s | -53.4°C | 4.4% | 0hPa | 2.6V | 07:57:58 | 02:36:48 | 00:00:00 | |
| WEDDY | 2026-09-01 01:26:53 | 51.01244 | 1.55839 | 81° | 95km/h | 13640m | -3.9m/s | -53.3°C | 1.7% | 0hPa | 2.5V | 00:00:00 | 00:00:00 | 00:00:00 | |
| DM0DOS-11 | 2026-09-01 01:26:51 | 51.01233 | 1.55579 | 90° | 89km/h | 13668m | -4.2m/s | -53.1°C | 4.2% | 0hPa | 2.5V | 07:58:08 | 02:36:38 | 00:00:00 | |
| BIOWL1-15 | 2026-09-01 01:26:50 | 51.01235 | 1.55689 | 87° | 93km/h | 13655m | -4.1m/s | -53.2°C | 0.8% | 0hPa | 2.6V | 07:58:22 | 02:36:41 | 00:00:00 | |
| BIOWL9-15 | 2026-09-01 01:26:48 | 51.01233 | 1.55615 | 89° | 89km/h | 13664m | -4.2m/s | -53.2°C | 1.5% | -1.0hPa | 2.6V | 00:00:00 | 00:00:00 | 00:00:00 | |
| DM0DOS-11 | 2026-09-01 01:26:41 | 51.01242 | 1.55238 | 94° | 78km/h | 13710m | -4.2m/s | -52.9°C | 4.2% | 0hPa | 2.6V | 07:58:18 | 02:36:28 | 00:00:00 | |
| BIOWL1-15 | 2026-09-01 01:26:39 | 51.01239 | 1.55303 | 94° | 82km/h | 13702m | -4.4m/s | -53°C | 0.7% | 0hPa | 2.5V | 07:58:22 | 02:36:30 | 00:00:00 | |
| WEDDY | 2026-09-01 01:26:33 | 51.01248 | 1.55145 | 97° | 75km/h | 13724m | -4.4m/s | -52.9°C | 1.6% | 0hPa | 2.5V | 00:00:00 | 00:00:00 | 00:00:00 | |
| DM0DOS-11 | 2026-09-01 01:26:31 | 51.01261 | 1.54946 | 95° | 68km/h | 13754m | -4.6m/s | -53.1°C | 4.2% | 0hPa | 2.5V | 07:58:28 | 02:36:18 | 00:00:00 | |
| BIOWL1-15 | 2026-09-01 01:26:31 | 51.01257 | 1.55001 | 96° | 69km/h | 13745m | -4.4m/s | -53.1°C | 0.7% | 0hPa | 2.6V | 07:59:13 | 02:36:20 | 00:00:00 | |
| BIOWL1-15 | 2026-09-01 01:26:22 | 51.01259 | 1.54632 | 78° | 62km/h | 13810m | -4.3m/s | -53.5°C | 0.8% | 0hPa | 2.5V | 07:59:13 | 02:36:05 | 00:00:00 | |
| DM0DOS-11 | 2026-09-01 01:26:21 | 51.01267 | 1.54703 | 83° | 58km/h | 13797m | -4.1m/s | -53.4°C | 4.3% | 0hPa | 2.6V | 07:58:38 | 02:36:08 | 00:00:00 | |
| BIOWL9-15 | 2026-09-01 01:26:17 | 51.01267 | 1.54703 | 83° | 57km/h | 13797m | -4.1m/s | -53.4°C | 1.5% | -1.0hPa | 2.5V | 00:00:00 | 00:00:00 | 00:00:00 | |
| WEDDY | 2026-09-01 01:26:12 | 51.01256 | 1.54608 | 78° | 62km/h | 13814m | -4.3m/s | -53.5°C | 1.7% | 0hPa | 2.5V | 07:59:00 | 00:00:00 | 00:00:00 | |
| DM0DOS-11 | 2026-09-01 01:26:11 | 51.01231 | 1.54452 | 74° | 71km/h | 13840m | -4.5m/s | -53.5°C | 4.3% | 0hPa | 2.5V | 07:58:48 | 02:35:58 | 00:00:00 | |
| BIOWL1-15 | 2026-09-01 01:26:04 | 51.01203 | 1.54273 | 79° | 82km/h | 13867m | -4.4m/s | -53.4°C | 0.7% | 0hPa | 2.5V | 07:59:13 | 02:35:52 | 00:00:00 | |
| DM0DOS-11 | 2026-09-01 01:26:01 | 51.01191 | 1.54141 | 83° | 86km/h | 13884m | -4.4m/s | -53.4°C | 4.3% | 0hPa | 2.6V | 07:58:58 | 02:35:48 | 00:00:00 | |
| BIOWL1-15 | 2026-09-01 01:25:57 | 51.01186 | 1.53939 | 92° | 80km/h | 13910m | -4.4m/s | -53.5°C | 0.7% | 0hPa | 2.6V | 07:59:13 | 02:35:42 | 00:00:00 | |
| DM0DOS-11 | 2026-09-01 01:25:51 | 51.01192 | 1.53818 | 95° | 71km/h | 13928m | -4.6m/s | -53.5°C | 4.4% | 0hPa | 2.5V | 07:59:08 | 02:35:38 | 00:00:00 | |
| BIOWL9-15 | 2026-09-01 01:25:46 | 51.01193 | 1.53791 | 94° | 68km/h | 13933m | -4.5m/s | -53.5°C | 1.5% | -1.0hPa | 2.6V | 00:00:00 | 00:00:00 | 00:00:00 | |
| BIOWL1-15 | 2026-09-01 01:25:45 | 51.01196 | 1.53713 | 92° | 62km/h | 13946m | -4.5m/s | -53.4°C | 0.8% | 0hPa | 2.6V | 07:59:13 | 02:35:34 | 00:00:00 | |
| DM0DOS-11 | 2026-09-01 01:25:41 | 51.01192 | 1.53572 | 82° | 58km/h | 13974m | -4.8m/s | -53.4°C | 4.3% | 0hPa | 2.6V | 07:59:18 | 02:35:28 | 00:00:00 | |
| BIOWL1-15 | 2026-09-01 01:25:33 | 51.01147 | 1.53289 | 76° | 78km/h | 14024m | -4.4m/s | -53.1°C | 0.7% | 0hPa | 2.6V | 08:00:55 | 02:35:17 | 00:00:00 | |
| DM0DOS-11 | 2026-09-01 01:25:31 | 51.01152 | 1.53319 | 74° | 75km/h | 14020m | -4.5m/s | -53.1°C | 4.3% | 0hPa | 2.5V | 07:59:28 | 02:35:18 | 00:00:00 | |
| WEDDY | 2026-09-01 01:25:30 | 51.01172 | 1.53428 | 75° | 66km/h | 14002m | -4.4m/s | -53.3°C | 1.6% | 0hPa | 2.6V | 00:00:00 | 00:00:00 | 00:00:00 | |
| DM0DOS-11 | 2026-09-01 01:25:21 | 51.01131 | 1.53012 | 91° | 68km/h | 14063m | -4.2m/s | -52.8°C | 4.2% | 0hPa | 2.6V | 07:59:38 | 02:35:08 | 00:00:00 | |
| BIOWL1-15 | 2026-09-01 01:25:18 | 51.01131 | 1.53012 | 91° | 68km/h | 14063m | -4.2m/s | -52.8°C | 0.7% | 0hPa | 2.6V | 08:00:55 | 02:35:08 | 00:00:00 | |
| BIOWL9-15 | 2026-09-01 01:25:15 | 51.01131 | 1.52960 | 89° | 60km/h | 14071m | -4.5m/s | -52.8°C | 1.4% | -1.0hPa | 2.5V | 00:00:00 | 00:00:00 | 00:00:00 | |
| DM0DOS-11 | 2026-09-01 01:25:11 | 51.01112 | 1.52780 | 70° | 60km/h | 14107m | -4.5m/s | -52.6°C | 4.2% | 0hPa | 2.5V | 07:59:48 | 02:34:58 | 00:00:00 | |
| BIOWL1-15 | 2026-09-01 01:25:08 | 51.01107 | 1.52757 | 70° | 62km/h | 14112m | -4.4m/s | -52.6°C | 0.6% | 0hPa | 2.5V | 08:00:55 | 02:34:57 | 00:00:00 | |
| DM0DOS-11 | 2026-09-01 01:25:01 | 51.01056 | 1.52497 | 78° | 84km/h | 14152m | -4.8m/s | -52.2°C | 4% | 0hPa | 2.6V | 07:59:58 | 02:34:48 | 00:00:00 | |
| BIOWL1-15 | 2026-09-01 01:25:00 | 51.01061 | 1.52530 | 77° | 84km/h | 14147m | -4.6m/s | -52.2°C | 0.6% | 0hPa | 2.6V | 08:00:55 | 02:34:49 | 00:00:00 | |
| BIOWL1-15 | 2026-09-01 01:24:48 | 51.01044 | 1.52207 | 92° | 71km/h | 14194m | -4.4m/s | -52.1°C | 0.6% | 0hPa | 2.5V | 08:00:55 | 02:34:39 | 00:00:00 | |
| DM0DOS-11 | 2026-09-01 01:24:46 | 51.01046 | 1.52126 | 92° | 64km/h | 14207m | -4.7m/s | -52.1°C | 3.9% | 0hPa | 2.5V | 08:00:10 | 02:34:36 | 00:00:00 | |
| BIOWL9-15 | 2026-09-01 01:24:45 | 51.01046 | 1.52101 | 90° | 60km/h | 14212m | -4.6m/s | -52.1°C | 1.3% | -1.0hPa | 2.5V | 00:00:00 | 00:00:00 | 00:00:00 | |
| DM0DOS-11 | 2026-09-01 01:24:36 | 51.01027 | 1.51891 | 73° | 62km/h | 14254m | -4.6m/s | -52°C | 3.9% | 0hPa | 2.5V | 08:00:20 | 02:34:26 | 00:00:00 | |
| WEDDY | 2026-09-01 01:24:29 | 51.00999 | 1.51761 | 72° | 75km/h | 14277m | -4.6m/s | -52.1°C | 1.5% | 0hPa | 2.6V | 08:00:00 | 00:00:00 | 00:00:00 | |
| DM0DOS-11 | 2026-09-01 01:24:26 | 51.00966 | 1.51577 | 78° | 84km/h | 14305m | -4.7m/s | -52.2°C | 3.9% | 0hPa | 2.6V | 08:00:31 | 02:34:15 | 00:00:00 | |
| BIOWL1-15 | 2026-09-01 01:24:18 | 51.00955 | 1.51297 | 90° | 66km/h | 14346m | -4.7m/s | -52.5°C | 0.6% | 0hPa | 2.5V | 08:00:55 | 02:34:06 | 00:00:00 | |
| DM0DOS-11 | 2026-09-01 01:24:16 | 51.00952 | 1.51199 | 81° | 58km/h | 14364m | -4.6m/s | -52.6°C | 4% | 0hPa | 2.6V | 08:00:44 | 02:34:02 | 00:00:00 | |
| BIOWL1-15 | 2026-09-01 01:24:10 | 51.00941 | 1.51130 | 73° | 62km/h | 14378m | -4.5m/s | -52.6°C | 0.6% | 0hPa | 2.5V | 08:00:55 | 02:33:59 | 00:00:00 | |
| BIOWL1-15 | 2026-09-01 01:23:57 | 51.00873 | 1.50815 | 75° | 86km/h | 14430m | -4.8m/s | 0°C | 0% | 0hPa | 2.6V | 08:01:46 | 02:33:48 | 00:00:00 | |
| DM0DOS-11 | 2026-09-01 01:23:56 | 51.00848 | 1.50610 | 82° | 88km/h | 14458m | -4.7m/s | -52.5°C | 4.1% | 0hPa | 2.6V | 08:01:04 | 02:33:42 | 00:00:00 | |
| BIOWL1-15 | 2026-09-01 01:23:47 | 51.00840 | 1.50471 | 86° | 88km/h | 14477m | -5m/s | 0°C | 0% | 0hPa | 2.5V | 08:01:46 | 02:33:38 | 00:00:00 | |
| DM0DOS-11 | 2026-09-01 01:23:41 | 51.00838 | 1.50267 | 92° | 80km/h | 14506m | -4.7m/s | -52.6°C | 4.1% | 0hPa | 2.5V | 08:01:14 | 02:33:32 | 00:00:00 | |
| BIOWL1-15 | 2026-09-01 01:23:37 | 51.00846 | 1.50040 | 90° | 62km/h | 14544m | -4.7m/s | 0°C | 0% | 0hPa | 2.5V | 08:01:46 | 02:33:24 | 00:00:00 | |
| DM0DOS-11 | 2026-09-01 01:23:36 | 51.00845 | 1.49991 | 84° | 62km/h | 14554m | -4.9m/s | -52.3°C | 4% | 0hPa | 2.6V | 08:01:24 | 02:33:22 | 00:00:00 | |
| WEDDY | 2026-09-01 01:23:28 | 51.00837 | 1.49916 | 79° | 66km/h | 14568m | -4.6m/s | -52.3°C | 1.5% | 0hPa | 2.5V | 08:01:00 | 00:00:00 | 00:00:00 | |
| DM0DOS-11 | 2026-09-01 01:23:26 | 51.00811 | 1.49705 | 84° | 86km/h | 14599m | -4.5m/s | -52.4°C | 4% | 0hPa | 2.5V | 08:01:34 | 02:33:12 | 00:00:00 | |
| BIOWL1-15 | 2026-09-01 01:23:25 | 51.00825 | 1.49833 | 77° | 77km/h | 14581m | -4.4m/s | 0°C | 0% | 0hPa | 2.6V | 08:01:46 | 02:33:16 | 00:00:00 | |
| DM0DOS-11 | 2026-09-01 01:23:16 | 51.00818 | 1.49371 | 98° | 75km/h | 14646m | -4.6m/s | -52.4°C | 4.1% | 0hPa | 2.6V | 08:01:44 | 02:33:02 | 00:00:00 | |
| BIOWL1-15 | 2026-09-01 01:23:15 | 51.00809 | 1.49499 | 94° | 84km/h | 14627m | -4.8m/s | 0°C | 0% | 0hPa | 2.5V | 08:01:46 | 02:33:06 | 00:00:00 | |
| BIOWL1-15 | 2026-09-01 01:23:08 | 51.00839 | 1.49186 | 100° | 60km/h | 14679m | -4.9m/s | 0°C | 0% | 0hPa | 2.6V | 18:12:15 | 02:32:55 | 00:00:00 | |
| WEDDY | 2026-09-01 01:23:07 | 51.00827 | 1.49286 | 101° | 68km/h | 14660m | -4.6m/s | -52.3°C | 1.4% | 0hPa | 2.5V | 08:02:00 | 00:00:00 | 00:00:00 | |
| DM0DOS-11 | 2026-09-01 01:23:06 | 51.00844 | 1.49117 | 94° | 57km/h | 14694m | -4.8m/s | -52.1°C | 4% | 0hPa | 2.5V | 08:01:54 | 02:32:52 | 00:00:00 | |
| DM0DOS-11 | 2026-09-01 01:22:56 | 51.00827 | 1.48880 | 78° | 69km/h | 14741m | -4.6m/s | -52°C | 3.9% | 0hPa | 2.6V | 08:02:04 | 02:32:42 | 00:00:00 | |
| BIOWL1-15 | 2026-09-01 01:22:53 | 51.00834 | 1.48933 | 79° | 66km/h | 14731m | -4.6m/s | 0°C | 0% | 0hPa | 2.5V | 18:12:15 | 02:32:44 | 00:00:00 | |
| DM0DOS-11 | 2026-09-01 01:22:46 | 51.00814 | 1.48565 | 95° | 82km/h | 14788m | -4.6m/s | -52.1°C | 3.9% | 0hPa | 2.5V | 08:02:14 | 02:32:32 | 00:00:00 | |
| DB0UT-7 | 2026-09-01 01:22:41 | 51.00814 | 1.48565 | 96° | 71km/h | 14788m | -4.6m/s | -52.1°C | 3.9% | 0hPa | 2.5V | 00:00:00 | 00:00:00 | 00:00:00 | |
| BIOWL9-15 | 2026-09-01 01:22:40 | 51.00826 | 1.48439 | 102° | 75km/h | 14807m | -4.5m/s | -52.3°C | 1.3% | -1.0hPa | 2.5V | 00:00:00 | 00:00:00 | 00:00:00 | |
| DM0DOS-11 | 2026-09-01 01:22:31 | 51.00847 | 1.48218 | 86° | 58km/h | 14849m | -4.8m/s | -52.6°C | 4.1% | 0hPa | 2.5V | 08:02:27 | 02:32:19 | 00:00:00 | |
| WEDDY | 2026-09-01 01:22:25 | 51.00844 | 1.48170 | 84° | 62km/h | 14858m | -4.8m/s | -52.6°C | 1.5% | 0hPa | 2.6V | 08:02:00 | 00:00:00 | 00:00:00 | |
| DM0DOS-11 | 2026-09-01 01:22:21 | 51.00829 | 1.47939 | 89° | 82km/h | 14895m | -4.6m/s | -52.8°C | 4.1% | 0hPa | 2.6V | 08:02:37 | 02:32:09 | 00:00:00 | |
| DM0DOS-11 | 2026-09-01 01:22:11 | 51.00865 | 1.47566 | 106° | 73km/h | 14950m | -4.7m/s | -52.9°C | 4.2% | 0hPa | 2.5V | 08:02:49 | 02:31:57 | 00:00:00 | |
| DB0UT-7 | 2026-09-01 01:22:11 | 51.00843 | 1.47714 | 101° | 58km/h | 14927m | -4.6m/s | -52.9°C | 4.2% | 0hPa | 2.6V | 00:00:00 | 02:32:02 | 00:00:00 | |
| WEDDY | 2026-09-01 01:22:03 | 51.00875 | 1.47512 | 109° | 68km/h | 14960m | -4.9m/s | -52.9°C | 1.5% | 0hPa | 2.5V | 08:03:00 | 00:00:00 | 00:00:00 | |
| DM0DOS-11 | 2026-09-01 01:22:01 | 51.00912 | 1.47314 | 98° | 49km/h | 15003m | -4.8m/s | -53°C | 4.1% | 0hPa | 2.5V | 08:03:00 | 02:31:46 | 00:00:00 | |
| DM0DOS-11 | 2026-09-01 01:21:50 | 51.00906 | 1.47108 | 80° | 58km/h | 15051m | -4.7m/s | -53.2°C | 4.2% | 0hPa | 2.6V | 08:03:10 | 02:31:36 | 00:00:00 | |
| WEDDY | 2026-09-01 01:21:40 | 51.00897 | 1.47007 | 85° | 68km/h | 15070m | -4.6m/s | -53.3°C | 1.5% | 0hPa | 2.5V | 08:03:00 | 00:00:00 | 00:00:00 | |
| DM0DOS-11 | 2026-09-01 01:21:39 | 51.00893 | 1.46835 | 91° | 75km/h | 15098m | -4.7m/s | -53.5°C | 4.4% | 0hPa | 2.5V | 08:03:20 | 02:31:26 | 00:00:00 | |
| DM0DOS-11 | 2026-09-01 01:21:29 | 51.00923 | 1.46546 | 107° | 69km/h | 15146m | -4.9m/s | -53.5°C | 4.3% | 0hPa | 2.6V | 08:03:30 | 02:31:16 | 00:00:00 | |
| WEDDY | 2026-09-01 01:21:20 | 51.00945 | 1.46448 | 112° | 60km/h | 15166m | -4.9m/s | -53.4°C | 1.6% | 0hPa | 2.5V | 08:04:00 | 00:00:00 | 00:00:00 | |
| DM0DOS-11 | 2026-09-01 01:21:19 | 51.00973 | 1.46329 | 108° | 47km/h | 15194m | -4.8m/s | -53.4°C | 4.3% | 0hPa | 2.5V | 08:03:40 | 02:31:06 | 00:00:00 | |
| DM0DOS-11 | 2026-09-01 01:21:09 | 51.00985 | 1.46154 | 82° | 49km/h | 15244m | -4.9m/s | -53.5°C | 4.2% | 0hPa | 2.6V | 08:03:50 | 02:30:56 | 00:00:00 | |
| WEDDY | 2026-09-01 01:21:00 | 51.00978 | 1.46065 | 86° | 62km/h | 15263m | -4.6m/s | -53.6°C | 1.5% | 0hPa | 2.5V | 08:04:00 | 00:00:00 | 00:00:00 | |
| DM0DOS-11 | 2026-09-01 01:20:59 | 51.00980 | 1.45905 | 96° | 69km/h | 15292m | -5m/s | -53.8°C | 4.3% | 0hPa | 2.5V | 08:04:00 | 02:30:46 | 00:00:00 | |
| DB0UT-7 | 2026-09-01 01:20:57 | 51.00977 | 1.45960 | 93° | 53km/h | 15283m | -4.7m/s | -53.7°C | 4.3% | 0hPa | 2.5V | 00:00:00 | 00:00:00 | 00:00:00 | |
| DM0DOS-11 | 2026-09-01 01:20:49 | 51.01022 | 1.45673 | 111° | 47km/h | 15341m | -5m/s | -53.9°C | 4.3% | 0hPa | 2.5V | 08:04:10 | 02:30:36 | 00:00:00 | |
| BIOWL1-15 | 2026-09-01 01:20:38 | 51.01042 | 1.45560 | 95° | 38km/h | 15376m | -4.9m/s | -53.9°C | 0.7% | 0hPa | 2.5V | 08:05:10 | 02:30:29 | 00:00:00 | |
| BIOWL1-15 | 2026-09-01 01:20:24 | 51.01020 | 1.45271 | 89° | 68km/h | 15446m | -4.9m/s | -54.2°C | 0.7% | 0hPa | 2.5V | 08:05:10 | 02:30:15 | 00:00:00 | |
| BIOWL1-15 | 2026-09-01 01:20:12 | 51.01081 | 1.44873 | 99° | 38km/h | 15535m | -4.8m/s | -54.3°C | 0.7% | 0hPa | 2.5V | 08:05:10 | 02:29:57 | 00:00:00 | |
| BIOWL9-15 | 2026-09-01 01:20:05 | 51.01082 | 1.44842 | 88° | 38km/h | 15545m | -4.9m/s | -54.3°C | 1.3% | -1.0hPa | 2.6V | 00:00:00 | 00:00:00 | 00:00:00 | |
| BIOWL1-15 | 2026-09-01 01:19:45 | 51.01089 | 1.44385 | 109° | 58km/h | 15645m | -5.2m/s | -54.1°C | 0.6% | 0hPa | 2.6V | 18:12:15 | 02:29:35 | 00:00:00 | |
| BIOWL1-15 | 2026-09-01 01:19:34 | 51.01131 | 1.44200 | 105° | 37km/h | 15696m | -5m/s | -54°C | 0.6% | 0hPa | 2.5V | 18:12:15 | 02:29:25 | 00:00:00 | |
| BIOWL9-15 | 2026-09-01 01:19:34 | 51.01133 | 1.44186 | 101° | 35km/h | 15701m | -4.9m/s | -54.0°C | 1.3% | -1.0hPa | 2.5V | 00:00:00 | 00:00:00 | 00:00:00 | |
| DM0DOS-11 | 2026-09-01 01:19:29 | 51.01134 | 1.44119 | 81° | 35km/h | 15727m | -5.4m/s | -54°C | 4.2% | 0hPa | 2.5V | 08:05:27 | 02:29:19 | 00:00:00 | |
| BIOWL1-15 | 2026-09-01 01:19:23 | 51.01122 | 1.44036 | 77° | 51km/h | 15752m | -4.8m/s | -54.1°C | 0.6% | 0hPa | 2.5V | 18:12:15 | 02:29:14 | 00:00:00 | |
| DM0DOS-11 | 2026-09-01 01:19:19 | 51.01114 | 1.43921 | 89° | 60km/h | 15777m | -5m/s | -54.1°C | 4.2% | 0hPa | 2.5V | 08:05:37 | 02:29:09 | 00:00:00 | |
| DB0UT-7 | 2026-09-01 01:19:16 | 51.01114 | 1.43872 | 94° | 46km/h | 15787m | -5.2m/s | -54.1°C | 4.3% | 0hPa | 2.5V | 00:00:00 | 00:00:00 | 00:00:00 | |
| DM0DOS-11 | 2026-09-01 01:19:13 | 51.01140 | 1.43692 | 113° | 51km/h | 15829m | -5.3m/s | -54.1°C | 4.2% | 0hPa | 2.6V | 08:05:47 | 02:28:59 | 00:00:00 | |
| BIOWL1-15 | 2026-09-01 01:19:12 | 51.01127 | 1.43754 | 106° | 57km/h | 15813m | -5.4m/s | -54.3°C | 0.6% | 0hPa | 2.5V | 18:12:15 | 02:29:02 | 00:00:00 | |
| BIOWL1-15 | 2026-09-01 01:19:02 | 51.01170 | 1.43601 | 113° | 33km/h | 15860m | -5.1m/s | -54.2°C | 0.6% | 0hPa | 2.6V | 18:12:15 | 02:28:53 | 00:00:00 | |
| DM0DOS-11 | 2026-09-01 01:18:59 | 51.01175 | 1.43554 | 86° | 29km/h | 15880m | -5.2m/s | -54.3°C | 4.3% | 0hPa | 2.5V | 08:05:57 | 02:28:49 | 00:00:00 | |
| WEDDY | 2026-09-01 01:18:57 | 51.01175 | 1.43554 | 88° | 31km/h | 15880m | -5.3m/s | -54.3°C | 1.4% | 0hPa | 2.5V | 08:06:00 | 00:00:00 | 00:00:00 | |
| DM0DOS-11 | 2026-09-01 01:18:53 | 51.01155 | 1.43394 | 83° | 55km/h | 15933m | -5m/s | -54.1°C | 4.2% | 0hPa | 2.5V | 08:06:07 | 02:28:39 | 00:00:00 | |
| BIOWL1-15 | 2026-09-01 01:18:51 | 51.01162 | 1.43454 | 77° | 46km/h | 15918m | -5.1m/s | 0°C | 0% | 0hPa | 2.6V | 18:12:15 | 02:28:42 | 00:00:00 | |
| DB0UT-7 | 2026-09-01 01:18:46 | 51.01154 | 1.43349 | 91° | 37km/h | 15944m | -5.1m/s | -54.1°C | 4.3% | 0hPa | 2.6V | 00:00:00 | 02:28:37 | 00:00:00 | |
| DM0DOS-11 | 2026-09-01 01:18:39 | 51.01181 | 1.43182 | 116° | 44km/h | 15986m | -5.3m/s | -54.3°C | 4.3% | 0hPa | 2.6V | 08:06:17 | 02:28:29 | 00:00:00 | |
| WEDDY | 2026-09-01 01:18:36 | 51.01185 | 1.43167 | 118° | 38km/h | 15991m | -5.2m/s | -54.3°C | 1.4% | 0hPa | 2.5V | 08:06:00 | 00:00:00 | 00:00:00 | |
| DM0DOS-11 | 2026-09-01 01:18:33 | 51.01195 | 1.43068 | 73° | 35km/h | 16041m | -5.2m/s | -54°C | 4.2% | 0hPa | 2.5V | 08:06:27 | 02:28:19 | 00:00:00 | |
| DM0DOS-11 | 2026-09-01 01:18:22 | 51.01214 | 1.42884 | 118° | 40km/h | 16090m | -5.2m/s | -53.8°C | 4.2% | 0hPa | 2.5V | 08:06:37 | 02:28:09 | 00:00:00 | |
| WEDDY | 2026-09-01 01:18:16 | 51.01219 | 1.42871 | 120° | 37km/h | 16096m | -5.3m/s | -53.9°C | 1.4% | 0hPa | 2.6V | 08:06:00 | 00:00:00 | 00:00:00 | |
| DM0DOS-11 | 2026-09-01 01:18:11 | 51.01229 | 1.42779 | 72° | 27km/h | 16143m | -5.5m/s | -53.9°C | 4.2% | 0hPa | 2.6V | 08:06:47 | 02:27:59 | 00:00:00 | |
| DM0DOS-11 | 2026-09-01 01:17:59 | 51.01195 | 1.42623 | 78° | 53km/h | 16196m | -5.2m/s | -54°C | 4.3% | 0hPa | 2.6V | 08:06:57 | 02:27:49 | 00:00:00 | |
| WEDDY | 2026-09-01 01:17:55 | 51.01191 | 1.42579 | 86° | 57km/h | 16207m | -5.2m/s | -54.0°C | 1.4% | 0hPa | 2.5V | 08:07:00 | 00:00:00 | 00:00:00 | |
| DM0DOS-11 | 2026-09-01 01:17:51 | 51.01203 | 1.42406 | 108° | 51km/h | 16250m | -5.5m/s | -53.9°C | 4.2% | 0hPa | 2.5V | 08:07:07 | 02:27:39 | 00:00:00 | |
| DM0DOS-11 | 2026-09-01 01:17:39 | 51.01234 | 1.42273 | 85° | 24km/h | 16303m | -5.4m/s | -53.7°C | 4.2% | 0hPa | 2.5V | 08:07:17 | 02:27:29 | 00:00:00 | |
| WEDDY | 2026-09-01 01:17:35 | 51.01232 | 1.42253 | 77° | 27km/h | 16315m | -5.5m/s | -53.7°C | 1.3% | 0hPa | 2.6V | 08:07:00 | 00:00:00 | 00:00:00 | |
| DM0DOS-11 | 2026-09-01 01:17:33 | 51.01207 | 1.42148 | 68° | 44km/h | 16360m | -5.6m/s | -53.3°C | 4% | 0hPa | 2.6V | 08:07:27 | 02:27:19 | 00:00:00 | |
| DB0UT-7 | 2026-09-01 01:17:31 | 51.01218 | 1.42193 | 68° | 42km/h | 16343m | -5.6m/s | -53.6°C | 4.1% | 0hPa | 2.5V | 00:00:00 | 00:00:00 | 00:00:00 | |
| WEDDY | 2026-09-01 01:17:13 | 51.01187 | 1.41866 | 98° | 37km/h | 16436m | -5.2m/s | -53.1°C | 1.3% | 0hPa | 2.5V | 08:07:00 | 00:00:00 | 00:00:00 | |
| DB0UT-7 | 2026-09-01 01:17:01 | 51.01146 | 1.41709 | 50° | 60km/h | 16509m | -5.7m/s | -53.0°C | 3.9% | 0hPa | 2.5V | 08:07:00 | 02:26:52 | 00:00:00 | |
| DM0DOS-11 | 2026-09-01 01:16:55 | 51.01090 | 1.41479 | 86° | 46km/h | 16567m | -5.3m/s | -53.4°C | 4% | 0hPa | 2.5V | 08:08:05 | 02:26:41 | 00:00:00 | |
| WEDDY | 2026-09-01 01:16:53 | 51.01098 | 1.41566 | 77° | 62km/h | 16546m | -5.6m/s | -53.3°C | 1.3% | 0hPa | 2.5V | 08:08:00 | 00:00:00 | 00:00:00 | |
| DM0DOS-11 | 2026-09-01 01:16:44 | 51.01048 | 1.41336 | 47° | 46km/h | 16627m | -5.4m/s | -53.6°C | 4.2% | 0hPa | 2.5V | 08:08:16 | 02:26:30 | 00:00:00 | |
| DM0DOS-11 | 2026-09-01 01:16:34 | 51.00966 | 1.41143 | 64° | 68km/h | 16683m | -5.8m/s | -53.5°C | 4.1% | 0hPa | 2.5V | 08:08:26 | 02:26:20 | 00:00:00 | |
| WEDDY | 2026-09-01 01:16:33 | 51.01006 | 1.41253 | 56° | 58km/h | 16655m | -5.5m/s | -53.6°C | 1.3% | 0hPa | 2.5V | 08:08:00 | 00:00:00 | 00:00:00 | |
| DM0DOS-11 | 2026-09-01 01:16:24 | 51.00934 | 1.40881 | 93° | 60km/h | 16742m | -5.9m/s | -53°C | 3.9% | 0hPa | 2.5V | 08:08:36 | 02:26:10 | 00:00:00 | |
| DM0DOS-11 | 2026-09-01 01:16:14 | 51.00924 | 1.40704 | 61° | 47km/h | 16800m | -5.5m/s | -53.1°C | 4% | 0hPa | 2.5V | 08:08:46 | 02:26:00 | 00:00:00 | |
| WEDDY | 2026-09-01 01:16:12 | 51.00938 | 1.40764 | 85° | 38km/h | 16777m | -5.6m/s | -53.0°C | 1.2% | 0hPa | 2.5V | 08:09:00 | 00:00:00 | 00:00:00 | |
| DJ2DS-15 | 2026-09-01 01:15:53 | 51.00895 | 1.40281 | 106° | 55km/h | 16898m | -5.8m/s | -52.6°C | 1.0% | -1.0hPa | 2.5V | 00:00:00 | 00:00:00 | 00:00:00 | |
| BIOWL1-15 | 2026-09-01 01:15:44 | 51.00910 | 1.40153 | 77° | 37km/h | 16944m | -5.8m/s | -52.7°C | 0.3% | 0hPa | 2.5V | 08:09:25 | 02:25:35 | 00:00:00 | |
| DM0DOS-11 | 2026-09-01 01:15:44 | 51.00891 | 1.40070 | 69° | 53km/h | 16973m | -6.3m/s | -52.8°C | 3.9% | 0hPa | 2.6V | 08:09:16 | 02:25:30 | 00:00:00 | |
| BIOWL1-15 | 2026-09-01 01:15:34 | 51.00875 | 1.39949 | 88° | 68km/h | 17002m | -5.6m/s | -52.6°C | 0.2% | 0hPa | 2.6V | 08:09:25 | 02:25:25 | 00:00:00 | |
| DM0DOS-11 | 2026-09-01 01:15:34 | 51.00887 | 1.39822 | 106° | 57km/h | 17031m | -5.9m/s | -52.6°C | 3.9% | 0hPa | 2.6V | 08:09:26 | 02:25:20 | 00:00:00 | |
| WEDDY | 2026-09-01 01:15:32 | 51.00877 | 1.39895 | 98° | 68km/h | 17014m | -5.8m/s | -52.6°C | 1.2% | 0hPa | 2.6V | 08:09:00 | 00:00:00 | 00:00:00 | |
| BIOWL9-15 | 2026-09-01 01:15:25 | 51.00900 | 1.39751 | 102° | 37km/h | 17054m | -5.5m/s | -52.6°C | 1.0% | -1.0hPa | 2.6V | 00:00:00 | 00:00:00 | 00:00:00 | |
| DM0DOS-11 | 2026-09-01 01:15:24 | 51.00900 | 1.39668 | 78° | 35km/h | 17089m | -5.8m/s | -52.2°C | 3.9% | 0hPa | 2.6V | 08:09:36 | 02:25:10 | 00:00:00 | |
| BIOWL1-15 | 2026-09-01 01:15:23 | 51.00901 | 1.39682 | 81° | 35km/h | 17083m | -5.9m/s | -52.3°C | 0.3% | 0hPa | 2.5V | 08:11:07 | 02:25:11 | 00:00:00 | |
| BIOWL1-15 | 2026-09-01 01:15:16 | 51.00882 | 1.39589 | 63° | 38km/h | 17125m | -6.2m/s | -51.9°C | 0.2% | 0hPa | 2.5V | 08:11:07 | 02:25:04 | 00:00:00 | |
| DM0DOS-11 | 2026-09-01 01:15:14 | 51.00860 | 1.39526 | 62° | 53km/h | 17149m | -5.4m/s | -51.8°C | 3.7% | 0hPa | 2.5V | 08:09:46 | 02:25:00 | 00:00:00 | |
| WEDDY | 2026-09-01 01:15:11 | 51.00877 | 1.39575 | 62° | 40km/h | 17132m | -6.2m/s | -51.9°C | 1.1% | 0hPa | 2.5V | 08:10:00 | 00:00:00 | 00:00:00 | |
| DM0DOS-11 | 2026-09-01 01:15:04 | 51.00815 | 1.39277 | 84° | 68km/h | 17207m | -6.1m/s | -51.6°C | 3.7% | 0hPa | 2.5V | 08:09:56 | 02:24:50 | 00:00:00 | |
| BIOWL1-15 | 2026-09-01 01:15:03 | 51.00827 | 1.39384 | 75° | 68km/h | 17182m | -5.9m/s | -51.8°C | 0.2% | 0hPa | 2.5V | 08:11:07 | 02:24:54 | 00:00:00 | |
| DM0DOS-11 | 2026-09-01 01:14:54 | 51.00824 | 1.39067 | 93° | 37km/h | 17266m | -6.1m/s | -51.1°C | 3.6% | 0hPa | 2.6V | 08:10:06 | 02:24:40 | 00:00:00 | |
| BIOWL1-15 | 2026-09-01 01:14:54 | 51.00820 | 1.39116 | 99° | 46km/h | 17248m | -6m/s | -51.2°C | 0.1% | 0hPa | 2.5V | 08:11:07 | 02:24:43 | 00:00:00 | |
| BIOWL1-15 | 2026-09-01 01:14:45 | 51.00795 | 1.38948 | 59° | 55km/h | 17314m | -6.1m/s | -50.8°C | 0.1% | 0hPa | 2.5V | 08:11:07 | 02:24:32 | 00:00:00 | |
| DM0DOS-11 | 2026-09-01 01:14:44 | 51.00780 | 1.38907 | 63° | 62km/h | 17327m | -6.3m/s | -50.8°C | 3.5% | 0hPa | 2.6V | 08:10:16 | 02:24:30 | 00:00:00 | |
| DM0DOS-11 | 2026-09-01 01:14:34 | 51.00756 | 1.38656 | 94° | 49km/h | 17386m | -5.5m/s | -50.8°C | 3.5% | 0hPa | 2.6V | 08:10:26 | 02:24:20 | 00:00:00 | |
| BIOWL1-15 | 2026-09-01 01:14:28 | 51.00757 | 1.38638 | 93° | 44km/h | 17392m | -5.5m/s | -50.9°C | 0.1% | 0hPa | 2.6V | 08:11:07 | 02:24:19 | 00:00:00 | |
| BIOWL1-15 | 2026-09-01 01:14:19 | 51.00710 | 1.38473 | 52° | 55km/h | 17457m | -6m/s | -51°C | 0% | 0hPa | 2.5V | 08:11:07 | 02:24:08 | 00:00:00 | |
| DM0DOS-11 | 2026-09-01 01:14:11 | 51.00637 | 1.38294 | 64° | 75km/h | 17505m | -5.8m/s | -51.1°C | 3.6% | 0hPa | 2.5V | 08:10:46 | 02:24:00 | 00:00:00 | |
| BIOWL1-15 | 2026-09-01 01:14:06 | 51.00604 | 1.38154 | 73° | 75km/h | 17534m | -5.9m/s | -51.1°C | 0.1% | 0hPa | 2.5V | 08:11:07 | 02:23:55 | 00:00:00 | |
| DB0UT-7 | 2026-09-01 01:14:05 | 51.00609 | 1.38183 | 72° | 60km/h | 17528m | -6.0m/s | -51.1°C | 3.6% | 0hPa | 2.6V | 00:00:00 | 00:00:00 | 00:00:00 | |
| DM0DOS-11 | 2026-09-01 01:14:01 | 51.00580 | 1.38009 | 77° | 75km/h | 17564m | -6.1m/s | -51.2°C | 3.7% | 0hPa | 2.6V | 08:10:56 | 02:23:50 | 00:00:00 | |
| BIOWL1-15 | 2026-09-01 01:13:54 | 51.00567 | 1.37782 | 95° | 64km/h | 17613m | -6.3m/s | -50.8°C | 0% | 0hPa | 2.5V | 08:11:07 | 02:23:42 | 00:00:00 | |
| BIOWL9-15 | 2026-09-01 01:13:52 | 51.00566 | 1.37809 | 91° | 66km/h | 17607m | -6.4m/s | -50.8°C | 0.9% | -1.0hPa | 2.5V | 00:00:00 | 00:00:00 | 00:00:00 | |
| DM0DOS-11 | 2026-09-01 01:13:51 | 51.00571 | 1.37734 | 98° | 57km/h | 17627m | -6.6m/s | -50.7°C | 3.4% | 0hPa | 2.5V | 08:11:06 | 02:23:40 | 00:00:00 | |
| BIOWL1-15 | 2026-09-01 01:13:42 | 51.00573 | 1.37615 | 69° | 38km/h | 17670m | -6m/s | -50.9°C | 0.1% | 0hPa | 2.6V | 08:13:40 | 02:23:33 | 00:00:00 | |
| DM0DOS-11 | 2026-09-01 01:13:41 | 51.00558 | 1.37568 | 61° | 51km/h | 17688m | -6.3m/s | -50.9°C | 3.6% | 0hPa | 2.5V | 08:11:16 | 02:23:30 | 00:00:00 | |
| DB0UT-7 | 2026-09-01 01:13:35 | 51.00535 | 1.37478 | 79° | 35km/h | 17713m | -5.8m/s | -50.8°C | 3.6% | 0hPa | 2.5V | 00:00:00 | 02:23:26 | 00:00:00 | |
| DM0DOS-11 | 2026-09-01 01:13:31 | 51.00542 | 1.37328 | 104° | 57km/h | 17748m | -6.5m/s | -50.8°C | 3.5% | 0hPa | 2.5V | 08:11:26 | 02:23:20 | 00:00:00 | |
| BIOWL1-15 | 2026-09-01 01:13:31 | 51.00539 | 1.37351 | 103° | 58km/h | 17741m | -6.2m/s | -50.8°C | 0.1% | 0hPa | 2.6V | 08:13:40 | 02:23:21 | 00:00:00 | |
| BIOWL1-15 | 2026-09-01 01:13:21 | 51.00576 | 1.37176 | 99° | 24km/h | 17811m | -6.4m/s | -50.8°C | 0.1% | 0hPa | 2.6V | 08:13:40 | 02:23:10 | 00:00:00 | |
| DM0DOS-11 | 2026-09-01 01:13:21 | 51.00576 | 1.37176 | 98° | 24km/h | 17811m | -6.4m/s | -50.8°C | 3.5% | 0hPa | 2.6V | 08:11:36 | 02:23:10 | 00:00:00 | |
| DM0DOS-11 | 2026-09-01 01:13:11 | 51.00545 | 1.37076 | 57° | 44km/h | 17877m | -6.3m/s | -51°C | 3.5% | 0hPa | 2.6V | 08:11:46 | 02:23:00 | 00:00:00 | |
| BIOWL1-15 | 2026-09-01 01:13:10 | 51.00551 | 1.37090 | 54° | 40km/h | 17871m | -6.6m/s | -50.9°C | 0.1% | 0hPa | 2.5V | 08:13:40 | 02:23:01 | 00:00:00 | |
| WEDDY | 2026-09-01 01:13:06 | 51.00533 | 1.37042 | 67° | 51km/h | 17890m | -6.3m/s | -50.9°C | 1.0% | 0hPa | 2.5V | 08:11:00 | 00:00:00 | 00:00:00 | |
| DM0DOS-11 | 2026-09-01 01:13:00 | 51.00531 | 1.36893 | 109° | 31km/h | 17938m | -6.1m/s | -50.8°C | 3.5% | 0hPa | 2.5V | 08:11:56 | 02:22:50 | 00:00:00 | |
| BIOWL1-15 | 2026-09-01 01:12:59 | 51.00533 | 1.36882 | 109° | 26km/h | 17944m | -6.5m/s | -50.8°C | 0% | 0hPa | 2.5V | 08:13:40 | 02:22:49 | 00:00:00 | |
| DM0DOS-11 | 2026-09-01 01:12:55 | 51.00508 | 1.36824 | 36° | 38km/h | 18003m | -6.8m/s | -50.8°C | 3.5% | 0hPa | 2.5V | 08:12:06 | 02:22:40 | 00:00:00 | |
| DJ2DS-15 | 2026-09-01 01:12:52 | 51.00528 | 1.36845 | 35° | 22km/h | 17984m | -6.5m/s | -50.8°C | 0.9% | -1.0hPa | 2.6V | 00:00:00 | 00:00:00 | 00:00:00 | |
| DM0DOS-11 | 2026-09-01 01:12:44 | 51.00463 | 1.36664 | 98° | 40km/h | 18066m | -6.7m/s | -50.7°C | 3.5% | 0hPa | 2.6V | 08:12:16 | 02:22:30 | 00:00:00 | |
| WEDDY | 2026-09-01 01:12:43 | 51.00470 | 1.36754 | 65° | 51km/h | 18037m | -6.0m/s | -50.8°C | 1.0% | 0hPa | 2.6V | 08:12:00 | 00:00:00 | 00:00:00 | |
| DM0DOS-11 | 2026-09-01 01:12:34 | 51.00463 | 1.36584 | 31° | 24km/h | 18132m | -6.1m/s | -50.7°C | 3.5% | 0hPa | 2.6V | 08:12:26 | 02:22:20 | 00:00:00 | |
| DM0DOS-11 | 2026-09-01 01:12:24 | 51.00401 | 1.36449 | 76° | 53km/h | 18197m | -7m/s | -50.8°C | 3.5% | 0hPa | 2.5V | 08:12:36 | 02:22:10 | 00:00:00 | |
| WEDDY | 2026-09-01 01:12:23 | 51.00421 | 1.36523 | 56° | 47km/h | 18171m | -6.4m/s | -50.8°C | 1.0% | 0hPa | 2.5V | 08:12:00 | 00:00:00 | 00:00:00 | |
| DM0DOS-11 | 2026-09-01 01:12:14 | 51.00412 | 1.36284 | 102° | 20km/h | 18263m | -6.3m/s | -50.7°C | 3.5% | 0hPa | 2.5V | 08:12:46 | 02:22:00 | 00:00:00 | |
| BIOWL1-15 | 2026-09-01 01:12:07 | 51.00412 | 1.36269 | 72° | 18km/h | 18276m | -6.3m/s | -50.7°C | 0.1% | 0hPa | 2.5V | 08:13:40 | 02:21:58 | 00:00:00 | |
| DM0DOS-11 | 2026-09-01 01:12:04 | 51.00372 | 1.36179 | 59° | 49km/h | 18329m | -6.9m/s | -51°C | 3.6% | 0hPa | 2.6V | 08:12:56 | 02:21:50 | 00:00:00 | |
| BIOWL1-15 | 2026-09-01 01:11:59 | 51.00360 | 1.36142 | 67° | 55km/h | 18342m | -6.6m/s | -51.1°C | 0.2% | 0hPa | 2.5V | 08:13:40 | 02:21:48 | 00:00:00 | |
| DM0DOS-11 | 2026-09-01 01:11:54 | 51.00343 | 1.35961 | 95° | 55km/h | 18394m | -6.7m/s | -51.2°C | 3.7% | 0hPa | 2.5V | 08:13:06 | 02:21:40 | 00:00:00 | |
| BIOWL1-15 | 2026-09-01 01:11:46 | 51.00350 | 1.35900 | 105° | 47km/h | 18415m | -6.9m/s | -51.1°C | 0.2% | 0hPa | 2.5V | 08:13:40 | 02:21:37 | 00:00:00 | |
| DM0DOS-11 | 2026-09-01 01:11:44 | 51.00373 | 1.35807 | 117° | 22km/h | 18463m | -6.9m/s | -50.5°C | 3.5% | 0hPa | 2.5V | 08:13:16 | 02:21:30 | 00:00:00 | |
| BIOWL1-15 | 2026-09-01 01:11:35 | 51.00376 | 1.35784 | 67° | 13km/h | 18490m | -6.5m/s | -50.6°C | 0.1% | 0hPa | 2.6V | 08:13:40 | 02:21:26 | 00:00:00 | |
| BIOWL1-15 | 2026-09-01 01:11:25 | 51.00324 | 1.35703 | 53° | 47km/h | 18558m | -7.1m/s | -50.9°C | 0.2% | 0hPa | 2.6V | 08:13:40 | 02:21:16 | 00:00:00 | |
| DM0DOS-11 | 2026-09-01 01:11:24 | 51.00296 | 1.35594 | 86° | 49km/h | 18598m | -6.3m/s | -50.8°C | 3.5% | 0hPa | 2.6V | 08:13:36 | 02:21:10 | 00:00:00 | |
| BIOWL1-15 | 2026-09-01 01:11:14 | 51.00302 | 1.35509 | 106° | 35km/h | 18632m | -6.7m/s | -50.9°C | 0.1% | 0hPa | 2.6V | 08:14:31 | 02:21:05 | 00:00:00 | |
| DM0DOS-11 | 2026-09-01 01:11:11 | 51.00310 | 1.35466 | 91° | 13km/h | 18667m | -7m/s | -51.1°C | 3.7% | 0hPa | 2.5V | 08:13:46 | 02:21:00 | 00:00:00 | |
| BIOWL1-15 | 2026-09-01 01:11:03 | 51.00293 | 1.35442 | 26° | 26km/h | 18710m | -7.2m/s | -51.1°C | 0.2% | 0hPa | 2.5V | 08:14:31 | 02:20:54 | 00:00:00 | |
| DM0DOS-11 | 2026-09-01 01:10:59 | 51.00263 | 1.35413 | 39° | 42km/h | 18738m | -6.4m/s | -51°C | 3.5% | 0hPa | 2.5V | 08:13:56 | 02:20:50 | 00:00:00 | |
| WEDDY | 2026-09-01 01:10:58 | 51.00263 | 1.35413 | 40° | 42km/h | 18738m | -6.4m/s | -51.0°C | 1.0% | 0hPa | 2.6V | 08:14:00 | 00:00:00 | 00:00:00 | |
| DM0DOS-11 | 2026-09-01 01:10:54 | 51.00227 | 1.35275 | 96° | 24km/h | 18804m | -6.9m/s | -51.1°C | 3.5% | 0hPa | 2.6V | 08:14:06 | 02:20:40 | 00:00:00 | |
| BIOWL1-15 | 2026-09-01 01:10:53 | 51.00229 | 1.35325 | 77° | 38km/h | 18777m | -6.9m/s | -51°C | 0.1% | 0hPa | 2.5V | 08:14:31 | 02:20:44 | 00:00:00 | |
| BIOWL9-15 | 2026-09-01 01:10:46 | 51.00229 | 1.35252 | 104° | 13km/h | 18825m | -7.0m/s | -51.3°C | 0.9% | -1.0hPa | 2.6V | 00:00:00 | 00:00:00 | 00:00:00 | |
| DM0DOS-11 | 2026-09-01 01:10:44 | 51.00224 | 1.35246 | 339° | 15km/h | 18873m | -6.9m/s | -51.7°C | 3.6% | 0hPa | 2.6V | 08:14:16 | 02:20:30 | 00:00:00 | |
| BIOWL1-15 | 2026-09-01 01:10:43 | 51.00231 | 1.35243 | 73° | 4km/h | 18845m | -7m/s | -51.5°C | 0.1% | 0hPa | 2.6V | 08:14:31 | 02:20:34 | 00:00:00 | |
| BIOWL1-15 | 2026-09-01 01:10:32 | 51.00136 | 1.35221 | 33° | 44km/h | 18947m | -7.1m/s | -52.1°C | 0.3% | 0hPa | 2.6V | 08:14:31 | 02:20:19 | 00:00:00 | |
| DM0DOS-11 | 2026-09-01 01:10:31 | 51.00146 | 1.35230 | 28° | 44km/h | 18940m | -7m/s | -52.1°C | 3.8% | 0hPa | 2.5V | 08:14:26 | 02:20:20 | 00:00:00 | |
| BIOWL1-15 | 2026-09-01 01:10:20 | 51.00084 | 1.35062 | 99° | 33km/h | 19025m | -7m/s | -52.4°C | 0.3% | 0hPa | 2.5V | 08:15:22 | 02:20:08 | 00:00:00 | |
| DM0DOS-11 | 2026-09-01 01:10:19 | 51.00084 | 1.35090 | 86° | 38km/h | 19011m | -6.8m/s | -52.3°C | 3.8% | 0hPa | 2.5V | 08:14:36 | 02:20:10 | 00:00:00 | |
| WEDDY | 2026-09-01 01:10:17 | 51.00084 | 1.35062 | 100° | 33km/h | 19025m | -7.0m/s | -52.4°C | 1.1% | 0hPa | 2.5V | 08:15:00 | 00:00:00 | 00:00:00 | |
| BIOWL9-15 | 2026-09-01 01:10:15 | 51.00088 | 1.35040 | 107° | 22km/h | 19039m | -7.1m/s | -52.4°C | 1.0% | -1.0hPa | 2.5V | 00:00:00 | 00:00:00 | 00:00:00 | |
| DM0DOS-11 | 2026-09-01 01:10:14 | 51.00084 | 1.35014 | 17° | 20km/h | 19080m | -6.5m/s | -52.5°C | 3.9% | 0hPa | 2.5V | 08:14:46 | 02:20:00 | 00:00:00 | |
| BIOWL1-15 | 2026-09-01 01:10:09 | 51.00079 | 1.35012 | 18° | 27km/h | 19087m | -6.5m/s | -52.4°C | 0.3% | 0hPa | 2.5V | 08:15:22 | 02:19:59 | 00:00:00 | |
| DM0DOS-11 | 2026-09-01 01:10:03 | 51.00015 | 1.34894 | 79° | 49km/h | 19150m | -6.7m/s | -52.5°C | 3.9% | 0hPa | 2.5V | 08:14:56 | 02:19:50 | 00:00:00 | |
| BIOWL1-15 | 2026-09-01 01:09:59 | 51.00015 | 1.34894 | 80° | 49km/h | 19150m | -6.7m/s | -52.5°C | 0.3% | 0hPa | 2.5V | 08:15:22 | 02:19:50 | 00:00:00 | |
| HTAHTA | 2026-09-01 01:09:57 | 51.00016 | 1.34841 | 102° | 37km/h | 19171m | -7.1m/s | -52.4°C | 1.0% | -1.0hPa | 2.5V | 00:00:00 | 00:00:00 | 00:00:00 | |
| WEDDY | 2026-09-01 01:09:54 | 51.00018 | 1.34827 | 109° | 33km/h | 19178m | -7.3m/s | -52.4°C | 1.1% | 0hPa | 2.5V | 08:15:00 | 00:00:00 | 00:00:00 | |
| DM0DOS-11 | 2026-09-01 01:09:53 | 51.00027 | 1.34790 | 42° | 7km/h | 19222m | -7m/s | -52.4°C | 3.9% | 0hPa | 2.5V | 08:15:06 | 02:19:40 | 00:00:00 | |
| BIOWL1-15 | 2026-09-01 01:09:48 | 51.00025 | 1.34789 | 24° | 13km/h | 19229m | -6.9m/s | -52.4°C | 0.3% | 0hPa | 2.6V | 08:15:22 | 02:19:39 | 00:00:00 | |
| BIOWL1-15 | 2026-09-01 01:09:37 | 50.99965 | 1.34654 | 78° | 51km/h | 19304m | -7.3m/s | -52.5°C | 0.3% | 0hPa | 2.6V | 08:15:22 | 02:19:28 | 00:00:00 | |
| BIOWL1-15 | 2026-09-01 01:09:26 | 51.00001 | 1.34447 | 133° | 29km/h | 19395m | -7m/s | -52.7°C | 0.4% | 0hPa | 2.6V | 08:16:13 | 02:19:15 | 00:00:00 | |
| DM0DOS-11 | 2026-09-01 01:09:23 | 51.00006 | 1.34439 | 136° | 26km/h | 19402m | -7.3m/s | -52.7°C | 4% | 0hPa | 2.5V | 08:15:32 | 02:19:14 | 00:00:00 | |
| BIOWL1-15 | 2026-09-01 01:09:16 | 51.00020 | 1.34413 | 40° | 9km/h | 19452m | -6.8m/s | -52.5°C | 0.3% | 0hPa | 2.5V | 08:16:13 | 02:19:07 | 00:00:00 | |
| DM0DOS-11 | 2026-09-01 01:09:15 | 51.00008 | 1.34402 | 33° | 24km/h | 19473m | -7.2m/s | -52.5°C | 3.8% | 0hPa | 2.5V | 08:15:42 | 02:19:04 | 00:00:00 | |
| BIOWL1-15 | 2026-09-01 01:09:06 | 50.99967 | 1.34253 | 101° | 42km/h | 19551m | -7.1m/s | -52.6°C | 0.4% | 0hPa | 2.6V | 08:16:13 | 02:18:53 | 00:00:00 | |
| DM0DOS-11 | 2026-09-01 01:09:04 | 50.99965 | 1.34270 | 94° | 44km/h | 19544m | -6.9m/s | -52.5°C | 3.9% | 0hPa | 2.5V | 08:15:52 | 02:18:54 | 00:00:00 | |
| HTAHTA | 2026-09-01 01:08:55 | 50.99999 | 1.34174 | 2° | 11km/h | 19644m | -7.2m/s | -52.6°C | 1.0% | -1.0hPa | 2.5V | 00:00:00 | 00:00:00 | 00:00:00 | |
| DM0DOS-11 | 2026-09-01 01:08:54 | 51.00001 | 1.34174 | 158° | 9km/h | 19616m | -6.7m/s | -52.7°C | 4% | 0hPa | 2.5V | 08:16:02 | 02:18:44 | 00:00:00 | |
| BIOWL1-15 | 2026-09-01 01:08:54 | 50.99999 | 1.34176 | 151° | 15km/h | 19610m | -7m/s | -52.7°C | 0.4% | 0hPa | 2.5V | 08:16:13 | 02:18:45 | 00:00:00 | |
| BIOWL1-15 | 2026-09-01 01:08:43 | 50.99955 | 1.34123 | 62° | 42km/h | 19704m | -6.8m/s | -52.3°C | 0.3% | 0hPa | 2.6V | 08:19:37 | 02:18:32 | 00:00:00 | |
| DM0DOS-11 | 2026-09-01 01:08:43 | 50.99967 | 1.34148 | 44° | 37km/h | 19690m | -7.5m/s | -52.4°C | 3.8% | 0hPa | 2.5V | 08:16:12 | 02:18:34 | 00:00:00 | |
| BIOWL9-15 | 2026-09-01 01:08:42 | 50.99961 | 1.34137 | 52° | 38km/h | 19697m | -7.0m/s | -52.4°C | 1.0% | -1.0hPa | 2.5V | 00:00:00 | 00:00:00 | 00:00:00 | |
| DJ2DS-15 | 2026-09-01 01:08:40 | 50.99948 | 1.34090 | 79° | 44km/h | 19718m | -7.3m/s | -52.1°C | 0.9% | -1.0hPa | 2.5V | 00:00:00 | 00:00:00 | 00:00:00 | |
| DM0DOS-11 | 2026-09-01 01:08:38 | 50.99957 | 1.34011 | 124° | 18km/h | 19761m | -7.1m/s | -52.2°C | 3.8% | 0hPa | 2.5V | 08:16:22 | 02:18:24 | 00:00:00 | |
| BIOWL1-15 | 2026-09-01 01:08:32 | 50.99960 | 1.34006 | 130° | 11km/h | 19768m | -6.7m/s | -52.2°C | 0.2% | 0hPa | 2.5V | 08:19:37 | 02:18:23 | 00:00:00 | |
| WEDDY | 2026-09-01 01:08:31 | 50.99960 | 1.34006 | 131° | 11km/h | 19768m | -6.7m/s | -52.2°C | 1.0% | 0hPa | 2.6V | 08:17:00 | 00:00:00 | 00:00:00 | |
| DB0UT-7 | 2026-09-01 01:08:27 | 50.99953 | 1.34004 | 356° | 38km/h | 19803m | -7.1m/s | -52.4°C | 3.8% | 0hPa | 2.6V | 00:00:00 | 02:18:18 | 00:00:00 | |
| DM0DOS-11 | 2026-09-01 01:08:25 | 50.99927 | 1.34001 | 12° | 35km/h | 19832m | -7.2m/s | -52.6°C | 3.9% | 0hPa | 2.6V | 08:16:32 | 02:18:14 | 00:00:00 | |
| BIOWL1-15 | 2026-09-01 01:08:21 | 50.99908 | 1.33991 | 23° | 42km/h | 19847m | -7.3m/s | -52.7°C | 0.3% | 0hPa | 2.5V | 08:19:37 | 02:18:12 | 00:00:00 | |
| DM0DOS-11 | 2026-09-01 01:08:14 | 50.99837 | 1.33882 | 64° | 53km/h | 19905m | -7.3m/s | -53°C | 4% | 0hPa | 2.6V | 08:16:42 | 02:18:04 | 00:00:00 | |
| BIOWL1-15 | 2026-09-01 01:08:11 | 50.99828 | 1.33843 | 75° | 49km/h | 19920m | -7.1m/s | -53°C | 0.4% | 0hPa | 2.5V | 08:19:37 | 02:18:02 | 00:00:00 | |
| WEDDY | 2026-09-01 01:08:10 | 50.99828 | 1.33843 | 76° | 49km/h | 19920m | -7.1m/s | -53.0°C | 1.1% | 0hPa | 2.6V | 08:17:00 | 00:00:00 | 00:00:00 | |
| DM0DOS-11 | 2026-09-01 01:08:04 | 50.99829 | 1.33728 | 106° | 18km/h | 19979m | -7.3m/s | -53.1°C | 4% | 0hPa | 2.6V | 08:16:52 | 02:17:54 | 00:00:00 | |
| BIOWL1-15 | 2026-09-01 01:08:01 | 50.99791 | 1.33680 | 39° | 40km/h | 20051m | -7.2m/s | -53°C | 0.5% | 0hPa | 2.5V | 08:19:37 | 02:17:44 | 00:00:00 | |
| DM0DOS-11 | 2026-09-01 01:07:54 | 50.99791 | 1.33680 | 39° | 40km/h | 20051m | -7.2m/s | -53°C | 4.1% | 0hPa | 2.5V | 08:17:02 | 02:17:44 | 00:00:00 | |
| BIOWL1-15 | 2026-09-01 01:07:50 | 50.99768 | 1.33641 | 53° | 49km/h | 20072m | -7.2m/s | -52.9°C | 0.4% | 0hPa | 2.6V | 08:19:37 | 02:17:41 | 00:00:00 | |
| DM0DOS-11 | 2026-09-01 01:07:44 | 50.99731 | 1.33503 | 83° | 60km/h | 20124m | -7.8m/s | -52.5°C | 4% | 0hPa | 2.5V | 08:17:12 | 02:17:34 | 00:00:00 | |
| DM0DOS-11 | 2026-09-01 01:07:34 | 50.99760 | 1.33330 | 120° | 20km/h | 20199m | -7.8m/s | -52.4°C | 3.9% | 0hPa | 2.5V | 08:17:22 | 02:17:24 | 00:00:00 | |
| WEDDY | 2026-09-01 01:07:29 | 50.99762 | 1.33312 | 65° | 15km/h | 20223m | -7.9m/s | -52.4°C | 1.1% | 0hPa | 2.6V | 08:17:00 | 00:00:00 | 00:00:00 | |
| DM0DOS-11 | 2026-09-01 01:07:28 | 50.99728 | 1.33227 | 71° | 55km/h | 20275m | -7.4m/s | -52.3°C | 3.9% | 0hPa | 2.6V | 08:17:32 | 02:17:14 | 00:00:00 | |
| DJ2DS-15 | 2026-09-01 01:07:28 | 50.99751 | 1.33290 | 49° | 33km/h | 20246m | -7.5m/s | -52.4°C | 0.9% | -1.0hPa | 2.6V | 00:00:00 | 00:00:00 | 00:00:00 | |
| DM0DOS-11 | 2026-09-01 01:07:17 | 50.99750 | 1.33058 | 140° | 22km/h | 20349m | -7.9m/s | -52.1°C | 3.8% | 0hPa | 2.6V | 08:17:42 | 02:17:04 | 00:00:00 | |
| DB0UT-7 | 2026-09-01 01:07:15 | 50.99740 | 1.33073 | 131° | 33km/h | 20334m | -7.0m/s | -52.0°C | 3.8% | 0hPa | 2.6V | 00:00:00 | 00:00:00 | 00:00:00 | |
| BIOWL9-15 | 2026-09-01 01:07:09 | 50.99752 | 1.33044 | 25° | 18km/h | 20397m | -7.1m/s | -52.3°C | 1.0% | -1.0hPa | 2.6V | 00:00:00 | 00:00:00 | 00:00:00 | |
| DM0DOS-11 | 2026-09-01 01:07:06 | 50.99731 | 1.33010 | 59° | 38km/h | 20424m | -7.3m/s | -52.3°C | 3.9% | 0hPa | 2.6V | 08:17:52 | 02:16:54 | 00:00:00 | |
| BIOWL1-15 | 2026-09-01 01:07:06 | 50.99736 | 1.33023 | 51° | 37km/h | 20417m | -6.9m/s | -52.3°C | 0.4% | 0hPa | 2.5V | 08:19:37 | 02:16:55 | 00:00:00 | |
| BIOWL1-15 | 2026-09-01 01:06:53 | 50.99804 | 1.32787 | 183° | 27km/h | 20560m | -7.4m/s | -51.9°C | 0.3% | 0hPa | 2.5V | 08:19:37 | 02:16:36 | 00:00:00 | |
| DM0DOS-11 | 2026-09-01 01:06:53 | 50.99740 | 1.32846 | 125° | 46km/h | 20499m | -7.8m/s | -51.7°C | 3.7% | 0hPa | 2.6V | 08:18:02 | 02:16:44 | 00:00:00 | |
| DJ2DS-15 | 2026-09-01 01:06:52 | 50.99755 | 1.32820 | 138° | 42km/h | 20515m | -7.8m/s | -51.7°C | 0.9% | -1.0hPa | 2.5V | 00:00:00 | 00:00:00 | 00:00:00 | |
| HTAHTA | 2026-09-01 01:06:51 | 50.99763 | 1.32809 | 144° | 40km/h | 20523m | -7.7m/s | -51.8°C | 0.9% | -1.0hPa | 2.5V | 00:00:00 | 00:00:00 | 00:00:00 | |
| WEDDY | 2026-09-01 01:06:49 | 50.99763 | 1.32809 | 146° | 42km/h | 20523m | -7.7m/s | -51.8°C | 1.0% | 0hPa | 2.5V | 08:18:00 | 00:00:00 | 00:00:00 | |
| DM0DOS-11 | 2026-09-01 01:06:48 | 50.99816 | 1.32791 | 200° | 20km/h | 20575m | -7.8m/s | -52°C | 3.9% | 0hPa | 2.5V | 08:18:12 | 02:16:34 | 00:00:00 | |
| BIOWL1-15 | 2026-09-01 01:06:39 | 50.99824 | 1.32813 | 324° | 11km/h | 20622m | -8m/s | -51.6°C | 0.3% | 0hPa | 2.5V | 08:19:37 | 02:16:28 | 00:00:00 | |
| DM0DOS-11 | 2026-09-01 01:06:38 | 50.99809 | 1.32808 | 35° | 26km/h | 20653m | -7.5m/s | -51.8°C | 3.6% | 0hPa | 2.5V | 08:18:22 | 02:16:24 | 00:00:00 | |
| BIOWL9-15 | 2026-09-01 01:06:38 | 50.99824 | 1.32813 | 324° | 11km/h | 20622m | -8.0m/s | -51.6°C | 0.9% | -1.0hPa | 2.5V | 00:00:00 | 00:00:00 | 00:00:00 | |
| DM0DOS-11 | 2026-09-01 01:06:28 | 50.99810 | 1.32709 | 162° | 22km/h | 20728m | -8m/s | -52°C | 3.8% | 0hPa | 2.5V | 08:18:32 | 02:16:14 | 00:00:00 | |
| BIOWL1-15 | 2026-09-01 01:06:26 | 50.99796 | 1.32730 | 115° | 29km/h | 20706m | -7.4m/s | -51.9°C | 0.2% | 0hPa | 2.5V | 08:19:37 | 02:16:17 | 00:00:00 | |
| BIOWL1-15 | 2026-09-01 01:06:18 | 50.99828 | 1.32740 | 286° | 22km/h | 20783m | -7.8m/s | -52.4°C | 0.2% | 0hPa | 2.5V | 08:19:37 | 02:16:07 | 00:00:00 | |
| DM0DOS-11 | 2026-09-01 01:06:17 | 50.99816 | 1.32764 | 321° | 31km/h | 20808m | -8.2m/s | -52.5°C | 3.8% | 0hPa | 2.5V | 08:18:42 | 02:16:04 | 00:00:00 | |
| BIOWL1-15 | 2026-09-01 01:06:08 | 50.99754 | 1.32766 | 29° | 40km/h | 20863m | -8.4m/s | -52.9°C | 0.4% | 0hPa | 2.5V | 08:19:37 | 02:15:57 | 00:00:00 | |
| DM0DOS-11 | 2026-09-01 01:06:07 | 50.99734 | 1.32736 | 59° | 35km/h | 20887m | -7.9m/s | -53°C | 4% | 0hPa | 2.5V | 08:18:52 | 02:15:54 | 00:00:00 | |
| BIOWL1-15 | 2026-09-01 01:05:57 | 50.99738 | 1.32672 | 198° | 9km/h | 20954m | -7.9m/s | -53°C | 0.4% | 0hPa | 2.6V | 08:19:37 | 02:15:46 | 00:00:00 | |
| DM0DOS-11 | 2026-09-01 01:05:57 | 50.99739 | 1.32679 | 286° | 13km/h | 20969m | -7.8m/s | -52.9°C | 4.1% | 0hPa | 2.5V | 08:19:02 | 02:15:44 | 00:00:00 | |
| WEDDY | 2026-09-01 01:05:48 | 50.99721 | 1.32697 | 350° | 31km/h | 21001m | -8.4m/s | -52.7°C | 1.1% | 0hPa | 2.6V | 08:19:00 | 00:00:00 | 00:00:00 | |
| DM0DOS-11 | 2026-09-01 01:05:45 | 50.99664 | 1.32663 | 46° | 49km/h | 21052m | -8.4m/s | -52.6°C | 3.9% | 0hPa | 2.6V | 08:19:12 | 02:15:34 | 00:00:00 | |
| BIOWL1-15 | 2026-09-01 01:05:44 | 50.99673 | 1.32676 | 39° | 47km/h | 21043m | -8.8m/s | -52.6°C | 0.3% | 0hPa | 2.6V | 08:19:37 | 02:15:35 | 00:00:00 | |
| DJ2DS-15 | 2026-09-01 01:05:39 | 50.99643 | 1.32597 | 84° | 42km/h | 21084m | -8.6m/s | -52.5°C | 0.9% | -1.0hPa | 2.5V | 00:00:00 | 00:00:00 | 00:00:00 | |
| DM0DOS-11 | 2026-09-01 01:05:34 | 50.99654 | 1.32541 | 173° | 7km/h | 21131m | -7.7m/s | -52.8°C | 4% | 0hPa | 2.5V | 08:19:22 | 02:15:24 | 00:00:00 | |
| BIOWL1-15 | 2026-09-01 01:05:33 | 50.99623 | 1.32552 | 11° | 42km/h | 21188m | -8.1m/s | -52.9°C | 0.5% | 0hPa | 2.6V | 08:19:37 | 02:15:17 | 00:00:00 | |
| DB0UT-7 | 2026-09-01 01:05:32 | 50.99655 | 1.32542 | 253° | 31km/h | 21139m | -8.0m/s | -52.8°C | 4.0% | 0hPa | 2.5V | 00:00:00 | 00:00:00 | 00:00:00 | |
| DM0DOS-11 | 2026-09-01 01:05:28 | 50.99593 | 1.32529 | 40° | 49km/h | 21213m | -8.7m/s | -52.9°C | 4.1% | 0hPa | 2.5V | 08:19:32 | 02:15:14 | 00:00:00 | |
| BIOWL1-15 | 2026-09-01 01:05:22 | 50.99584 | 1.32516 | 46° | 49km/h | 21221m | -8.1m/s | -52.8°C | 0.5% | 0hPa | 2.6V | 08:19:37 | 02:15:13 | 00:00:00 | |
| DM0DOS-11 | 2026-09-01 01:05:18 | 50.99577 | 1.32375 | 128° | 33km/h | 21296m | -8.7m/s | -52.6°C | 4% | 0hPa | 2.5V | 08:19:42 | 02:15:04 | 00:00:00 | |
| BIOWL1-15 | 2026-09-01 01:05:14 | 50.99582 | 1.32366 | 136° | 29km/h | 21305m | -9.1m/s | -52.7°C | 0.4% | 0hPa | 2.6V | 08:20:28 | 02:15:03 | 00:00:00 | |
| WEDDY | 2026-09-01 01:05:07 | 50.99601 | 1.32355 | 201° | 9km/h | 21339m | -8.4m/s | -52.5°C | 1.1% | 0hPa | 2.5V | 08:20:00 | 00:00:00 | 00:00:00 | |
| DM0DOS-11 | 2026-09-01 01:05:05 | 50.99588 | 1.32359 | 14° | 26km/h | 21379m | -8.7m/s | -52.1°C | 3.9% | 0hPa | 2.5V | 08:19:52 | 02:14:54 | 00:00:00 | |
| BIOWL1-15 | 2026-09-01 01:05:04 | 50.99548 | 1.32271 | 78° | 53km/h | 21439m | -8.8m/s | -52.1°C | 0.3% | 0hPa | 2.6V | 08:20:28 | 02:14:47 | 00:00:00 | |
| DJ2DS-15 | 2026-09-01 01:05:03 | 50.99588 | 1.32359 | 14° | 26km/h | 21379m | -8.7m/s | -52.1°C | 0.9% | -1.0hPa | 2.5V | 00:00:00 | 00:00:00 | 00:00:00 | |
| DB0UT-7 | 2026-09-01 01:05:02 | 50.99582 | 1.32355 | 30° | 35km/h | 21388m | -8.6m/s | -52.1°C | 3.8% | 0hPa | 2.5V | 00:00:00 | 02:14:53 | 00:00:00 | |
| DM0DOS-11 | 2026-09-01 01:04:58 | 50.99547 | 1.32204 | 98° | 55km/h | 21465m | -9.1m/s | -52.2°C | 3.9% | 0hPa | 2.5V | 08:20:02 | 02:14:44 | 00:00:00 | |
| BIOWL1-15 | 2026-09-01 01:04:51 | 50.99601 | 1.32090 | 82° | 2km/h | 21561m | -9.2m/s | -52.3°C | 0.3% | 0hPa | 2.6V | 08:20:28 | 02:14:33 | 00:00:00 | |
| WEDDY | 2026-09-01 01:04:47 | 50.99575 | 1.32114 | 138° | 40km/h | 21509m | -8.2m/s | -52.3°C | 1.0% | 0hPa | 2.5V | 08:20:00 | 00:00:00 | 00:00:00 | |
| DM0DOS-11 | 2026-09-01 01:04:45 | 50.99600 | 1.32091 | 160° | 5km/h | 21551m | -9m/s | -52.3°C | 3.9% | 0hPa | 2.5V | 08:20:12 | 02:14:34 | 00:00:00 | |
| DM0DOS-11 | 2026-09-01 01:04:38 | 50.99574 | 1.31985 | 99° | 47km/h | 21637m | -9m/s | -51.9°C | 3.9% | 0hPa | 2.5V | 08:20:22 | 02:14:24 | 00:00:00 | |
| BIOWL1-15 | 2026-09-01 01:04:37 | 50.99577 | 1.32042 | 69° | 44km/h | 21612m | -8.6m/s | -52.1°C | 0.4% | 0hPa | 2.6V | 08:20:28 | 02:14:27 | 00:00:00 | |
| BIOWL9-15 | 2026-09-01 01:04:33 | 50.99574 | 1.31985 | 99° | 47km/h | 21637m | -9.0m/s | -51.9°C | 0.9% | -1.0hPa | 2.5V | 00:00:00 | 00:00:00 | 00:00:00 | |
| DM0DOS-11 | 2026-09-01 01:04:26 | 50.99643 | 1.31910 | 203° | 27km/h | 21722m | -9.7m/s | -51.9°C | 3.8% | 0hPa | 2.5V | 08:20:32 | 02:14:14 | 00:00:00 | |
| BIOWL1-15 | 2026-09-01 01:04:25 | 50.99629 | 1.31904 | 185° | 31km/h | 21704m | -8.4m/s | -51.9°C | 0.3% | 0hPa | 2.5V | 08:21:19 | 02:14:16 | 00:00:00 | |
| DM0DOS-11 | 2026-09-01 01:04:18 | 50.99632 | 1.31968 | 10° | 24km/h | 21811m | -8.7m/s | -51.9°C | 3.8% | 0hPa | 2.5V | 08:20:42 | 02:14:04 | 00:00:00 | |
| BIOWL1-15 | 2026-09-01 01:04:15 | 50.99642 | 1.31967 | 338° | 22km/h | 21793m | -9.4m/s | -51.9°C | 0.3% | 0hPa | 2.5V | 08:21:19 | 02:14:06 | 00:00:00 | |
| DM0DOS-11 | 2026-09-01 01:04:05 | 50.99636 | 1.31885 | 155° | 31km/h | 21900m | -9.3m/s | -51.8°C | 3.8% | 0hPa | 2.5V | 08:20:52 | 02:13:54 | 00:00:00 | |
| BIOWL1-15 | 2026-09-01 01:04:04 | 50.99630 | 1.31891 | 144° | 31km/h | 21891m | -9.3m/s | -51.8°C | 0.3% | 0hPa | 2.5V | 08:21:19 | 02:13:55 | 00:00:00 | |
| DB0UT-7 | 2026-09-01 01:04:02 | 50.99644 | 1.31881 | 166° | 29km/h | 21910m | -9.1m/s | -51.8°C | 3.8% | 0hPa | 2.6V | 00:00:00 | 00:00:00 | 00:00:00 | |
| DM0DOS-11 | 2026-09-01 01:03:58 | 50.99666 | 1.31937 | 321° | 26km/h | 21988m | -9.7m/s | -51.8°C | 3.8% | 0hPa | 2.5V | 08:21:02 | 02:13:44 | 00:00:00 | |
| BIOWL1-15 | 2026-09-01 01:03:54 | 50.99660 | 1.31943 | 336° | 29km/h | 21998m | -9.5m/s | -51.8°C | 0.4% | 0hPa | 2.6V | 08:21:19 | 02:13:43 | 00:00:00 | |
| DM0DOS-11 | 2026-09-01 01:03:48 | 50.99605 | 1.31887 | 86° | 31km/h | 22076m | -8.8m/s | -52.1°C | 3.9% | 0hPa | 2.5V | 08:21:12 | 02:13:34 | 00:00:00 | |
| BIOWL1-15 | 2026-09-01 01:03:43 | 50.99605 | 1.31887 | 87° | 31km/h | 22076m | -8.8m/s | -52.1°C | 0.4% | 0hPa | 2.5V | 08:21:19 | 02:13:34 | 00:00:00 | |
| DM0DOS-11 | 2026-09-01 01:03:38 | 50.99651 | 1.31882 | 267° | 29km/h | 22173m | -9.2m/s | -51.8°C | 3.8% | 0hPa | 2.6V | 08:21:23 | 02:13:23 | 00:00:00 | |
| BIOWL1-15 | 2026-09-01 01:03:33 | 50.99648 | 1.31905 | 298° | 31km/h | 22190m | -8.2m/s | -51.8°C | 0.3% | 0hPa | 2.5V | 08:23:01 | 02:13:21 | 00:00:00 | |
| DB0UT-7 | 2026-09-01 01:03:32 | 50.99651 | 1.31882 | 268° | 33km/h | 22174m | -9.2m/s | -51.7°C | 3.8% | 0hPa | 2.6V | 00:00:00 | 02:13:23 | 00:00:00 | |
| BIOWL9-15 | 2026-09-01 01:03:31 | 50.99650 | 1.31894 | 282° | 29km/h | 22182m | -8.8m/s | -51.8°C | 0.9% | -1.0hPa | 2.6V | 00:00:00 | 00:00:00 | 00:00:00 | |
| DM0DOS-11 | 2026-09-01 01:03:27 | 50.99599 | 1.31913 | 52° | 27km/h | 22262m | -8.9m/s | -51.4°C | 3.6% | 0hPa | 2.6V | 08:21:33 | 02:13:13 | 00:00:00 | |
| BIOWL1-15 | 2026-09-01 01:03:21 | 50.99594 | 1.31894 | 88° | 29km/h | 22280m | -9.1m/s | -51.5°C | 0.2% | 0hPa | 2.5V | 08:23:01 | 02:13:11 | 00:00:00 | |
| DM0DOS-11 | 2026-09-01 01:03:14 | 50.99627 | 1.31881 | 242° | 26km/h | 22347m | -9.5m/s | -51.9°C | 3.8% | 0hPa | 2.6V | 08:21:43 | 02:13:03 | 00:00:00 | |
| BIOWL1-15 | 2026-09-01 01:03:09 | 50.99627 | 1.31915 | 290° | 33km/h | 22375m | -9.6m/s | -52°C | 0.3% | 0hPa | 2.5V | 08:23:01 | 02:13:00 | 00:00:00 | |
| DM0DOS-11 | 2026-09-01 01:03:03 | 50.99568 | 1.31976 | 3° | 46km/h | 22439m | -9.6m/s | -52.3°C | 3.8% | 0hPa | 2.6V | 08:21:53 | 02:12:53 | 00:00:00 | |
| WEDDY | 2026-09-01 01:03:02 | 50.99579 | 1.31975 | 352° | 46km/h | 22430m | -9.4m/s | -52.3°C | 1.0% | 0hPa | 2.6V | 08:22:00 | 00:00:00 | 00:00:00 | |
| DM0DOS-11 | 2026-09-01 01:02:53 | 50.99518 | 1.31900 | 147° | 11km/h | 22531m | -9.1m/s | -52.8°C | 4% | 0hPa | 2.6V | 08:22:03 | 02:12:43 | 00:00:00 | |
| DM0DOS-11 | 2026-09-01 01:02:43 | 50.99481 | 1.31964 | 3° | 44km/h | 22619m | -9.1m/s | -52.5°C | 4% | 0hPa | 2.6V | 08:22:13 | 02:12:33 | 00:00:00 | |
| WEDDY | 2026-09-01 01:02:41 | 50.99481 | 1.31964 | 4° | 44km/h | 22620m | -9.1m/s | -52.5°C | 1.1% | 0hPa | 2.6V | 08:23:00 | 00:00:00 | 00:00:00 | |
| DM0DOS-11 | 2026-09-01 01:02:32 | 50.99438 | 1.31843 | 121° | 35km/h | 22710m | -9.8m/s | -52.3°C | 4% | 0hPa | 2.6V | 08:22:23 | 02:12:23 | 00:00:00 | |
| BIOWL9-15 | 2026-09-01 01:02:29 | 50.99481 | 1.31819 | 202° | 26km/h | 22765m | -10.0m/s | -52.4°C | 1.0% | -1.0hPa | 2.6V | 00:00:00 | 00:00:00 | 00:00:00 | |
| DM0DOS-11 | 2026-09-01 01:02:27 | 50.99493 | 1.31850 | 285° | 24km/h | 22802m | -9m/s | -52°C | 3.9% | 0hPa | 2.6V | 08:22:33 | 02:12:13 | 00:00:00 | |
| BIOWL1-15 | 2026-09-01 01:02:19 | 50.99458 | 1.31835 | 78° | 33km/h | 22876m | -9.6m/s | -51.9°C | 0.3% | 0hPa | 2.5V | 08:23:01 | 02:12:05 | 00:00:00 | |
| DM0DOS-11 | 2026-09-01 01:02:16 | 50.99459 | 1.31807 | 107° | 37km/h | 22894m | -9.9m/s | -51.8°C | 3.8% | 0hPa | 2.6V | 08:22:43 | 02:12:03 | 00:00:00 | |
| HTAHTA | 2026-09-01 01:02:12 | 50.99501 | 1.31763 | 191° | 33km/h | 22950m | -9.1m/s | -51.6°C | 0.9% | -1.0hPa | 2.6V | 00:00:00 | 00:00:00 | 00:00:00 | |
| DM0DOS-11 | 2026-09-01 01:02:05 | 50.99525 | 1.31797 | 249° | 31km/h | 22985m | -10m/s | -51.6°C | 3.8% | 0hPa | 2.6V | 08:22:53 | 02:11:53 | 00:00:00 | |
| BIOWL1-15 | 2026-09-01 01:02:03 | 50.99521 | 1.31785 | 236° | 33km/h | 22976m | -10.2m/s | -51.6°C | 0.3% | 0hPa | 2.5V | 08:23:01 | 02:11:54 | 00:00:00 | |
| BIOWL9-15 | 2026-09-01 01:01:58 | 50.99519 | 1.31850 | 304° | 38km/h | 23024m | -9.9m/s | -51.6°C | 0.9% | -1.0hPa | 2.6V | 00:00:00 | 00:00:00 | 00:00:00 | |
| DM0DOS-11 | 2026-09-01 01:01:55 | 50.99465 | 1.31880 | 20° | 38km/h | 23080m | -9.5m/s | -51.5°C | 3.8% | 0hPa | 2.6V | 08:23:03 | 02:11:43 | 00:00:00 | |
| BIOWL1-15 | 2026-09-01 01:01:51 | 50.99449 | 1.31817 | 159° | 16km/h | 23159m | -10.3m/s | -51.4°C | 0.3% | 0hPa | 2.5V | 08:27:16 | 02:11:35 | 00:00:00 | |
| DM0DOS-11 | 2026-09-01 01:01:45 | 50.99457 | 1.31821 | 218° | 22km/h | 23179m | -9.1m/s | -50.9°C | 3.7% | 0hPa | 2.6V | 08:23:13 | 02:11:33 | 00:00:00 | |
| BIOWL1-15 | 2026-09-01 01:01:40 | 50.99464 | 1.31838 | 251° | 29km/h | 23196m | -9.3m/s | -50.7°C | 0.2% | 0hPa | 2.5V | 08:27:16 | 02:11:31 | 00:00:00 | |
| DM0DOS-11 | 2026-09-01 01:01:35 | 50.99421 | 1.31901 | 12° | 40km/h | 23272m | -10.2m/s | -50.7°C | 3.5% | 0hPa | 2.6V | 08:23:23 | 02:11:23 | 00:00:00 | |
| BIOWL1-15 | 2026-09-01 01:01:29 | 50.99397 | 1.31878 | 57° | 37km/h | 23302m | -9.4m/s | -50.7°C | 0.2% | 0hPa | 2.5V | 08:27:16 | 02:11:20 | 00:00:00 | |
| BIOWL9-15 | 2026-09-01 01:01:27 | 50.99392 | 1.31849 | 85° | 38km/h | 23322m | -10.5m/s | -50.7°C | 0.8% | -1.0hPa | 2.6V | 00:00:00 | 00:00:00 | 00:00:00 | |
| DM0DOS-11 | 2026-09-01 01:01:25 | 50.99414 | 1.31784 | 149° | 42km/h | 23372m | -10.4m/s | -50.9°C | 3.5% | 0hPa | 2.6V | 08:23:33 | 02:11:13 | 00:00:00 | |
| BIOWL1-15 | 2026-09-01 01:01:19 | 50.99472 | 1.31827 | 287° | 26km/h | 23462m | -10.9m/s | -51.3°C | 0.3% | 0hPa | 2.5V | 08:27:16 | 02:11:04 | 00:00:00 | |
| DM0DOS-11 | 2026-09-01 01:01:15 | 50.99469 | 1.31835 | 306° | 26km/h | 23473m | -10.2m/s | -51.4°C | 3.7% | 0hPa | 2.6V | 08:23:43 | 02:11:03 | 00:00:00 | |
| HTAHTA | 2026-09-01 01:01:09 | 50.99446 | 1.31835 | 61° | 24km/h | 23523m | -9.4m/s | -51.4°C | 0.9% | -1.0hPa | 2.6V | 00:00:00 | 00:00:00 | 00:00:00 | |
| DM0DOS-11 | 2026-09-01 01:01:05 | 50.99458 | 1.31787 | 154° | 35km/h | 23570m | -10m/s | -51.1°C | 3.7% | 0hPa | 2.6V | 08:23:53 | 02:10:53 | 00:00:00 | |
| BIOWL9-15 | 2026-09-01 01:00:56 | 50.99518 | 1.31832 | 242° | 49km/h | 23641m | -10.1m/s | -50.9°C | 0.9% | -1.0hPa | 2.6V | 00:00:00 | 00:00:00 | 00:00:00 | |
| DM0DOS-11 | 2026-09-01 01:00:55 | 50.99524 | 1.31889 | 273° | 49km/h | 23671m | -10.3m/s | 0°C | 0% | 0hPa | 2.6V | 08:24:03 | 02:10:43 | 00:00:00 | |
| DJ2DS-15 | 2026-09-01 01:00:51 | 50.99517 | 1.31925 | 300° | 47km/h | 23691m | -10.1m/s | -50.9°C | 0.9% | -1.0hPa | 2.6V | 00:00:00 | 00:00:00 | 00:00:00 | |
| DM0DOS-11 | 2026-09-01 01:00:45 | 50.99463 | 1.31957 | 54° | 18km/h | 23776m | -10.5m/s | -51.1°C | 3.7% | 0hPa | 2.6V | 08:24:13 | 02:10:33 | 00:00:00 | |
| HTAHTA | 2026-09-01 01:00:38 | 50.99474 | 1.31937 | 197° | 22km/h | 23826m | -10.5m/s | -51.0°C | 0.8% | -1.0hPa | 2.5V | 00:00:00 | 00:00:00 | 00:00:00 | |
| BIOWL1-15 | 2026-09-01 01:00:35 | 50.99357 | 1.32072 | 44° | 42km/h | 24012m | -10.3m/s | -51.6°C | 0.4% | 0hPa | 2.5V | 08:27:16 | 02:10:10 | 00:00:00 | |
| DM0DOS-11 | 2026-09-01 01:00:34 | 50.99492 | 1.31995 | 277° | 44km/h | 23875m | -10.3m/s | -51.2°C | 3.7% | 0hPa | 2.6V | 08:24:23 | 02:10:23 | 00:00:00 | |
| DM0DOS-11 | 2026-09-01 01:00:23 | 50.99388 | 1.32097 | 16° | 51km/h | 23981m | -11.4m/s | -51.5°C | 3.8% | 0hPa | 2.6V | 08:24:33 | 02:10:13 | 00:00:00 | |
| DM0DOS-11 | 2026-09-01 01:00:18 | 50.99347 | 1.32022 | 196° | 13km/h | 24086m | -10.7m/s | -50.9°C | 3.6% | 0hPa | 2.6V | 08:24:43 | 02:10:03 | 00:00:00 | |
| WEDDY | 2026-09-01 01:00:18 | 50.99350 | 1.32061 | 51° | 35km/h | 24023m | -10.5m/s | 0°C | 0% | 0hPa | 2.6V | 08:24:00 | 00:00:00 | 00:00:00 | |
| DM0DOS-11 | 2026-09-01 01:00:07 | 50.99305 | 1.32118 | 353° | 47km/h | 24192m | -11.1m/s | -51°C | 3.7% | 0hPa | 2.6V | 08:24:53 | 02:09:53 | 00:00:00 | |
| BIOWL1-15 | 2026-09-01 00:59:58 | 50.99281 | 1.32015 | 174° | 33km/h | 24322m | -11.1m/s | -51.1°C | 0.2% | 0hPa | 2.5V | 08:27:16 | 02:09:41 | 00:00:00 | |
| WEDDY | 2026-09-01 00:59:55 | 50.99258 | 1.32070 | 77° | 35km/h | 24258m | -10.6m/s | 0°C | 0% | 0hPa | 2.5V | 00:00:00 | 00:00:00 | 00:00:00 | |
| DB0UT-7 | 2026-09-01 00:59:54 | 50.99258 | 1.32044 | 109° | 38km/h | 24279m | -11.4m/s | -50.9°C | 3.6% | 0hPa | 2.5V | 00:00:00 | 00:00:00 | 00:00:00 | |
| DM0DOS-11 | 2026-09-01 00:59:51 | 50.99281 | 1.32015 | 174° | 33km/h | 24322m | -11.1m/s | -51.1°C | 3.6% | 0hPa | 2.5V | 08:25:05 | 02:09:41 | 00:00:00 | |
| DM0DOS-11 | 2026-09-01 00:59:46 | 50.99303 | 1.32120 | 318° | 44km/h | 24430m | -10.8m/s | -51.3°C | 3.7% | 0hPa | 2.5V | 08:25:15 | 02:09:31 | 00:00:00 | |
| BIOWL1-15 | 2026-09-01 00:59:43 | 50.99316 | 1.32077 | 278° | 38km/h | 24396m | -11.4m/s | -51.3°C | 0.3% | 0hPa | 2.5V | 08:27:16 | 02:09:34 | 00:00:00 | |
| DJ2DS-15 | 2026-09-01 00:59:38 | 50.99284 | 1.32137 | 342° | 40km/h | 24452m | -11.0m/s | -51.4°C | 0.9% | -1.0hPa | 2.6V | 00:00:00 | 00:00:00 | 00:00:00 | |
| HTAHTA | 2026-09-01 00:59:36 | 50.99264 | 1.32139 | 8° | 38km/h | 24474m | -11.2m/s | -51.4°C | 0.8% | -1.0hPa | 2.6V | 00:00:00 | 00:00:00 | 00:00:00 | |
| DM0DOS-11 | 2026-09-01 00:59:35 | 50.99242 | 1.32088 | 121° | 24km/h | 24540m | -10.7m/s | -51.4°C | 3.7% | 0hPa | 2.6V | 08:25:25 | 02:09:21 | 00:00:00 | |
| BIOWL1-15 | 2026-09-01 00:59:35 | 50.99242 | 1.32118 | 65° | 33km/h | 24506m | -11.2m/s | -51.4°C | 0.3% | 0hPa | 2.5V | 08:27:16 | 02:09:24 | 00:00:00 | |
| BIOWL1-15 | 2026-09-01 00:59:22 | 50.99283 | 1.32126 | 266° | 40km/h | 24626m | -11.7m/s | -51.5°C | 0.3% | 0hPa | 2.5V | 08:27:16 | 02:09:13 | 00:00:00 | |
| DM0DOS-11 | 2026-09-01 00:59:20 | 50.99279 | 1.32160 | 289° | 47km/h | 24649m | -11.2m/s | -51.6°C | 3.8% | 0hPa | 2.6V | 08:25:35 | 02:09:11 | 00:00:00 | |
| DM0DOS-11 | 2026-09-01 00:59:15 | 50.99189 | 1.32189 | 51° | 33km/h | 24762m | -10.6m/s | -51.8°C | 3.8% | 0hPa | 2.6V | 08:25:45 | 02:09:01 | 00:00:00 | |
| DM0DOS-11 | 2026-09-01 00:59:05 | 50.99216 | 1.32183 | 261° | 37km/h | 24874m | -11.8m/s | -51.6°C | 3.8% | 0hPa | 2.6V | 08:25:55 | 02:08:51 | 00:00:00 | |
| HTAHTA | 2026-09-01 00:59:05 | 50.99209 | 1.32159 | 227° | 33km/h | 24851m | -11.2m/s | -51.7°C | 0.9% | -1.0hPa | 2.6V | 00:00:00 | 00:00:00 | 00:00:00 | |
| DM0DOS-11 | 2026-09-01 00:58:55 | 50.99147 | 1.32236 | 50° | 38km/h | 24987m | -12.1m/s | -51.8°C | 3.9% | 0hPa | 2.6V | 08:26:05 | 02:08:41 | 00:00:00 | |
| BIOWL1-15 | 2026-09-01 00:58:45 | 50.99212 | 1.32187 | 251° | 44km/h | 25139m | -11.9m/s | -51.9°C | 0.4% | 0hPa | 2.5V | 08:27:16 | 02:08:28 | 00:00:00 | |
| DM0DOS-11 | 2026-09-01 00:58:45 | 50.99193 | 1.32150 | 206° | 42km/h | 25104m | -10.8m/s | -51.8°C | 3.8% | 0hPa | 2.6V | 08:26:15 | 02:08:31 | 00:00:00 | |
| DM0DOS-11 | 2026-09-01 00:58:34 | 50.99177 | 1.32262 | 2° | 38km/h | 25221m | -11.9m/s | -51.8°C | 4% | 0hPa | 2.5V | 08:26:25 | 02:08:21 | 00:00:00 | |
| BIOWL1-15 | 2026-09-01 00:58:31 | 50.99160 | 1.32253 | 38° | 35km/h | 25244m | -11.5m/s | -51.8°C | 0.5% | 0hPa | 2.6V | 08:27:16 | 02:08:19 | 00:00:00 | |
| DJ2DS-15 | 2026-09-01 00:58:26 | 50.99151 | 1.32235 | 65° | 26km/h | 25269m | -12.0m/s | -51.6°C | 0.9% | -1.0hPa | 2.5V | 00:00:00 | 00:00:00 | 00:00:00 | |
| DM0DOS-11 | 2026-09-01 00:58:24 | 50.99169 | 1.32206 | 213° | 27km/h | 25335m | -11.5m/s | -51.1°C | 3.9% | 0hPa | 2.5V | 08:26:35 | 02:08:11 | 00:00:00 | |
| BIOWL1-15 | 2026-09-01 00:58:20 | 50.99108 | 1.32353 | 350° | 66km/h | 25465m | -11.8m/s | -50.6°C | 0.3% | 0hPa | 2.5V | 08:27:16 | 02:08:00 | 00:00:00 | |
| DB0UT-7 | 2026-09-01 00:58:15 | 50.99175 | 1.32275 | 295° | 53km/h | 25394m | -12.5m/s | -50.8°C | 3.8% | 0hPa | 2.5V | 00:00:00 | 00:00:00 | 00:00:00 | |
| DM0DOS-11 | 2026-09-01 00:58:14 | 50.99123 | 1.32347 | 342° | 64km/h | 25454m | -11.6m/s | -50.7°C | 3.8% | 0hPa | 2.5V | 08:26:45 | 02:08:01 | 00:00:00 | |
| BIOWL1-15 | 2026-09-01 00:58:12 | 50.99092 | 1.32355 | 3° | 62km/h | 25477m | -11.9m/s | -50.5°C | 0.3% | 0hPa | 2.6V | 08:27:16 | 02:07:59 | 00:00:00 | |
| DM0DOS-11 | 2026-09-01 00:58:04 | 50.99016 | 1.32258 | 89° | 38km/h | 25574m | -11.8m/s | -50.3°C | 3.7% | 0hPa | 2.5V | 08:26:55 | 02:07:51 | 00:00:00 | |
| BIOWL1-15 | 2026-09-01 00:57:57 | 50.99043 | 1.32252 | 304° | 33km/h | 25694m | -12.3m/s | -49.7°C | 0.3% | 0hPa | 2.5V | 08:27:16 | 02:07:41 | 00:00:00 | |
| DM0DOS-11 | 2026-09-01 00:57:51 | 50.99043 | 1.32252 | 304° | 33km/h | 25694m | -12.3m/s | -49.7°C | 3.6% | 0hPa | 2.5V | 08:27:05 | 02:07:41 | 00:00:00 | |
| BIOWL9-15 | 2026-09-01 00:57:50 | 50.99019 | 1.32279 | 341° | 47km/h | 25732m | -12.6m/s | -49.4°C | 0.8% | -1.0hPa | 2.5V | 00:00:00 | 00:00:00 | 00:00:00 | |
| DM0DOS-11 | 2026-09-01 00:57:45 | 50.98938 | 1.32224 | 62° | 51km/h | 25819m | -12m/s | -49.1°C | 3.5% | 0hPa | 2.5V | 08:27:15 | 02:07:31 | 00:00:00 | |
| BIOWL1-15 | 2026-09-01 00:57:38 | 50.98937 | 1.32157 | 121° | 37km/h | 25868m | -12.3m/s | -48.9°C | 0.2% | 0hPa | 2.5V | 08:28:07 | 02:07:27 | 00:00:00 | |
| HTAHTA | 2026-09-01 00:57:32 | 50.98962 | 1.32139 | 202° | 24km/h | 25918m | -11.9m/s | -48.6°C | 0.8% | -1.0hPa | 2.6V | 00:00:00 | 00:00:00 | 00:00:00 | |
| DM0DOS-11 | 2026-09-01 00:57:30 | 50.98960 | 1.32204 | 316° | 38km/h | 25992m | -12.8m/s | -48.5°C | 3.4% | 0hPa | 2.6V | 08:27:29 | 02:07:17 | 00:00:00 | |
| BIOWL1-15 | 2026-09-01 00:57:17 | 50.98982 | 1.32115 | 205° | 64km/h | 26209m | -13.2m/s | -48.1°C | 0% | 0hPa | 2.5V | 08:28:07 | 02:07:00 | 00:00:00 | |
| DM0DOS-11 | 2026-09-01 00:57:14 | 50.98953 | 1.32104 | 182° | 58km/h | 26184m | -12.7m/s | -48°C | 3.2% | 0hPa | 2.6V | 08:27:44 | 02:07:02 | 00:00:00 | |
| DM0DOS-11 | 2026-09-01 00:57:03 | 50.99028 | 1.32259 | 292° | 38km/h | 26311m | -13.8m/s | -47.9°C | 3.1% | 0hPa | 2.6V | 08:27:54 | 02:06:52 | 00:00:00 | |
| BIOWL1-15 | 2026-09-01 00:57:02 | 50.99023 | 1.32270 | 312° | 33km/h | 26324m | -13m/s | -48°C | 0% | 0hPa | 2.6V | 08:28:07 | 02:06:51 | 00:00:00 | |
| HTAHTA | 2026-09-01 00:57:01 | 50.99028 | 1.32259 | 292° | 37km/h | 26311m | -13.9m/s | -47.9°C | 0.7% | -1.0hPa | 2.5V | 00:00:00 | 00:00:00 | 00:00:00 | |
| DB0UT-7 | 2026-09-01 00:56:59 | 50.99018 | 1.32278 | 329° | 42km/h | 26338m | -13.3m/s | -47.9°C | 3.2% | 0hPa | 2.5V | 00:00:00 | 02:06:50 | 00:00:00 | |
| DM0DOS-11 | 2026-09-01 00:56:53 | 50.99067 | 1.32233 | 211° | 51km/h | 26494m | -13.9m/s | -48.7°C | 3.2% | 0hPa | 2.5V | 08:28:08 | 02:06:38 | 00:00:00 | |
| BIOWL1-15 | 2026-09-01 00:56:50 | 50.99031 | 1.32222 | 173° | 47km/h | 26456m | -13.5m/s | -48.5°C | 0% | 0hPa | 2.6V | 08:28:07 | 02:06:41 | 00:00:00 | |
| BIOWL9-15 | 2026-09-01 00:56:48 | 50.99067 | 1.32233 | 211° | 51km/h | 26495m | -13.9m/s | -48.7°C | 0.7% | -1.0hPa | 2.5V | 00:00:00 | 00:00:00 | 00:00:00 | |
| DM0DOS-11 | 2026-09-01 00:56:42 | 50.99059 | 1.32395 | 349° | 44km/h | 26628m | -13.6m/s | -49°C | 3.3% | 0hPa | 2.5V | 08:28:18 | 02:06:28 | 00:00:00 | |
| BIOWL1-15 | 2026-09-01 00:56:40 | 50.99070 | 1.32390 | 333° | 47km/h | 26614m | -14.2m/s | -49°C | 0.1% | 0hPa | 2.5V | 18:12:15 | 02:06:29 | 00:00:00 | |
| DJ2DS-15 | 2026-09-01 00:56:38 | 50.99070 | 1.32390 | 333° | 47km/h | 26614m | -14.2m/s | -49.0°C | 0.7% | -1.0hPa | 2.5V | 00:00:00 | 00:00:00 | 00:00:00 | |
| HTAHTA | 2026-09-01 00:56:30 | 50.99020 | 1.32321 | 108° | 40km/h | 26724m | -13.6m/s | -49.2°C | 0.7% | -1.0hPa | 2.5V | 00:00:00 | 00:00:00 | 00:00:00 | |
| DB0UT-7 | 2026-09-01 00:56:29 | 50.99025 | 1.32306 | 126° | 40km/h | 26737m | -13.4m/s | -49.2°C | 3.3% | 0hPa | 2.5V | 00:00:00 | 00:00:00 | 00:00:00 | |
| DM0DOS-11 | 2026-09-01 00:56:27 | 50.99050 | 1.32285 | 179° | 38km/h | 26776m | -12.5m/s | -49.4°C | 3.4% | 0hPa | 2.5V | 08:28:29 | 02:06:17 | 00:00:00 | |
| DM0DOS-11 | 2026-09-01 00:56:16 | 50.99045 | 1.32368 | 12° | 42km/h | 26913m | -13.7m/s | -49.9°C | 3.6% | 0hPa | 2.5V | 08:28:39 | 02:06:07 | 00:00:00 | |
| DM0DOS-11 | 2026-09-01 00:56:11 | 50.99045 | 1.32205 | 152° | 55km/h | 27053m | -14.9m/s | -50°C | 3.5% | 0hPa | 2.5V | 08:28:49 | 02:05:57 | 00:00:00 | |
| DM0DOS-11 | 2026-09-01 00:56:01 | 50.99102 | 1.32299 | 331° | 37km/h | 27209m | -14m/s | -50.4°C | 3.7% | 0hPa | 2.5V | 08:30:00 | 02:05:46 | 00:00:00 | |
| HTAHTA | 2026-09-01 00:55:59 | 50.99116 | 1.32262 | 270° | 40km/h | 27166m | -14.0m/s | -50.3°C | 0.8% | -1.0hPa | 2.5V | 00:00:00 | 00:00:00 | 00:00:00 | |
| DM0DOS-11 | 2026-09-01 00:55:50 | 50.99092 | 1.32222 | 151° | 46km/h | 27335m | -14.2m/s | -50.1°C | 3.6% | 0hPa | 2.5V | 08:30:00 | 02:05:37 | 00:00:00 | |
| BIOWL1-15 | 2026-09-01 00:55:47 | 50.99103 | 1.32215 | 162° | 47km/h | 27349m | -14.2m/s | -50°C | 0.3% | 0hPa | 2.5V | 18:12:15 | 02:05:36 | 00:00:00 | |
| BIOWL9-15 | 2026-09-01 00:55:46 | 50.99103 | 1.32215 | 162° | 47km/h | 27349m | -14.2m/s | -50.0°C | 0.8% | -1.0hPa | 2.5V | 00:00:00 | 00:00:00 | 00:00:00 | |
| BIOWL1-15 | 2026-09-01 00:55:34 | 50.99145 | 1.32361 | 323° | 53km/h | 27506m | -14.5m/s | -49.8°C | 0.3% | 0hPa | 2.5V | 18:12:15 | 02:05:25 | 00:00:00 | |
| BIOWL1-15 | 2026-09-01 00:55:23 | 50.99131 | 1.32338 | 221° | 46km/h | 27694m | -14.5m/s | -49.2°C | 0.2% | 0hPa | 2.6V | 18:12:15 | 02:05:12 | 00:00:00 | |
| DM0DOS-11 | 2026-09-01 00:55:20 | 50.99139 | 1.32463 | 298° | 62km/h | 27784m | -15.7m/s | -49.2°C | 3.6% | 0hPa | 2.5V | 08:30:00 | 02:05:06 | 00:00:00 | |
| BIOWL1-15 | 2026-09-01 00:55:12 | 50.99105 | 1.32511 | 338° | 60km/h | 27828m | -14.8m/s | -49°C | 0.2% | 0hPa | 2.6V | 18:12:15 | 02:05:03 | 00:00:00 | |
| DM0DOS-11 | 2026-09-01 00:55:10 | 50.99041 | 1.32457 | 85° | 44km/h | 27933m | -14.9m/s | -48.6°C | 3.4% | 0hPa | 2.5V | 08:30:00 | 02:04:56 | 00:00:00 | |
| BIOWL1-15 | 2026-09-01 00:55:02 | 50.99101 | 1.32400 | 218° | 40km/h | 28049m | -14.2m/s | -48.8°C | 0.3% | 0hPa | 2.6V | 18:12:15 | 02:04:48 | 00:00:00 | |
| BIOWL1-15 | 2026-09-01 00:54:47 | 50.99062 | 1.32500 | 11° | 40km/h | 28190m | -13.5m/s | -48.1°C | 0.1% | 0hPa | 2.6V | 18:12:15 | 02:04:38 | 00:00:00 | |
| DB0UT-7 | 2026-09-01 00:54:46 | 50.99052 | 1.32495 | 25° | 18km/h | 28204m | -13.3m/s | -48.0°C | 3.4% | 0hPa | 2.5V | 00:00:00 | 00:00:00 | 00:00:00 | |
| BIOWL9-15 | 2026-09-01 00:54:43 | 50.99033 | 1.32467 | 63° | 33km/h | 28245m | -13.6m/s | -47.8°C | 0.8% | -1.0hPa | 2.5V | 00:00:00 | 00:00:00 | 00:00:00 | |
| DM0DOS-11 | 2026-09-01 00:54:38 | 50.99020 | 1.32378 | 63° | 16km/h | 28396m | -26m/s | -46.4°C | 2.9% | 0hPa | 2.5V | 08:30:00 | 02:04:24 | 00:00:00 | |
| BIOWL1-15 | 2026-09-01 00:54:37 | 50.99024 | 1.32391 | 64° | 15km/h | 28355m | -16.2m/s | -47.1°C | 0% | 0hPa | 2.5V | 18:12:15 | 02:04:26 | 00:00:00 | |
| DM0DOS-11 | 2026-09-01 00:54:28 | 50.99032 | 1.32384 | 123° | 4km/h | 28585m | 6.7m/s | -46.5°C | 3.1% | 0hPa | 2.5V | 08:30:00 | 02:04:14 | 00:00:00 | |
| BIOWL1-15 | 2026-09-01 00:54:26 | 50.99029 | 1.32372 | 63° | 15km/h | 28568m | 5m/s | -46.4°C | 0% | 0hPa | 2.5V | 18:12:15 | 02:04:11 | 00:00:00 | |
| HTAHTA | 2026-09-01 00:54:26 | 50.99029 | 1.32383 | 207° | 9km/h | 28595m | 3.0m/s | -46.6°C | 0.7% | -1.0hPa | 2.5V | 00:00:00 | 00:00:00 | 00:00:00 | |
| DM0DOS-11 | 2026-09-01 00:54:18 | 50.99020 | 1.32369 | 322° | 11km/h | 28530m | 4.8m/s | -46.2°C | 2.9% | 0hPa | 2.5V | 08:30:00 | 02:04:04 | 00:00:00 | |
| BIOWL1-15 | 2026-09-01 00:54:14 | 50.99023 | 1.32366 | 322° | 11km/h | 28535m | 5.9m/s | -46.2°C | 0% | 0hPa | 2.5V | 18:12:15 | 02:04:05 | 00:00:00 | |
| BIOWL9-15 | 2026-09-01 00:54:12 | 50.99019 | 1.32372 | 316° | 7km/h | 28525m | 4.8m/s | -46.2°C | 0.7% | -1.0hPa | 2.5V | 00:00:00 | 00:00:00 | 00:00:00 | |
| DM0DOS-11 | 2026-09-01 00:54:04 | 50.99006 | 1.32373 | 26° | 16km/h | 28476m | 6m/s | -46.5°C | 3% | 0hPa | 2.5V | 08:30:00 | 02:03:54 | 00:00:00 | |
| DM0DOS-11 | 2026-09-01 00:53:58 | 50.98978 | 1.32369 | 9° | 16km/h | 28418m | 6.1m/s | -47°C | 3% | 0hPa | 2.5V | 08:30:00 | 02:03:44 | 00:00:00 | |
| HTAHTA | 2026-09-01 00:53:55 | 50.98982 | 1.32370 | 1° | 16km/h | 28424m | 5.9m/s | -47.0°C | 0.7% | -1.0hPa | 2.5V | 00:00:00 | 00:00:00 | 00:00:00 | |
| DM0DOS-11 | 2026-09-01 00:53:44 | 50.98930 | 1.32383 | 326° | 9km/h | 28340m | 6.3m/s | -47.7°C | 3.2% | 0hPa | 2.5V | 08:30:00 | 02:03:30 | 00:00:00 | |
| BIOWL1-15 | 2026-09-01 00:53:24 | 50.98894 | 1.32441 | 327° | 5km/h | 28229m | 5.3m/s | -48.2°C | 0% | 0hPa | 2.5V | 18:12:15 | 02:03:10 | 00:00:00 | |
| HTAHTA | 2026-09-01 00:53:24 | 50.98899 | 1.32432 | 290° | 7km/h | 28251m | 5.6m/s | -48.1°C | 0.7% | -1.0hPa | 2.6V | 00:00:00 | 00:00:00 | 00:00:00 | |
| DM0DOS-11 | 2026-09-01 00:53:17 | 50.98888 | 1.32448 | 313° | 7km/h | 28189m | 5.2m/s | -48.3°C | 3.3% | 0hPa | 2.6V | 08:30:00 | 02:03:03 | 00:00:00 | |
| BIOWL1-15 | 2026-09-01 00:53:09 | 50.98892 | 1.32450 | 185° | 2km/h | 28162m | 6.5m/s | -48.5°C | 0% | 0hPa | 2.6V | 18:12:15 | 02:02:58 | 00:00:00 | |
| DM0DOS-11 | 2026-09-01 00:53:07 | 50.98889 | 1.32450 | 124° | 2km/h | 28133m | 5.5m/s | -48.6°C | 3.3% | 0hPa | 2.6V | 08:30:00 | 02:02:53 | 00:00:00 | |
| BIOWL1-15 | 2026-09-01 00:52:57 | 50.98899 | 1.32443 | 145° | 16km/h | 28089m | 4.3m/s | -49°C | 0.2% | 0hPa | 2.5V | 18:12:15 | 02:02:45 | 00:00:00 | |
| DM0DOS-11 | 2026-09-01 00:52:56 | 50.98904 | 1.32436 | 121° | 11km/h | 28078m | 6.1m/s | -49°C | 3.5% | 0hPa | 2.6V | 08:30:00 | 02:02:43 | 00:00:00 | |
| BIOWL1-15 | 2026-09-01 00:52:45 | 50.98902 | 1.32417 | 18° | 7km/h | 28039m | 6.2m/s | -48.9°C | 0.1% | 0hPa | 2.5V | 18:12:15 | 02:02:36 | 00:00:00 | |
| DM0DOS-11 | 2026-09-01 00:52:45 | 50.98902 | 1.32398 | 101° | 9km/h | 28000m | 6.3m/s | -48.9°C | 3.4% | 0hPa | 2.6V | 08:30:00 | 02:02:29 | 00:00:00 | |
| BIOWL1-15 | 2026-09-01 00:52:34 | 50.98897 | 1.32386 | 23° | 9km/h | 27977m | 4.7m/s | -48.8°C | 0.1% | 0hPa | 2.5V | 18:12:15 | 02:02:25 | 00:00:00 | |
| DM0DOS-11 | 2026-09-01 00:52:24 | 50.98878 | 1.32392 | 65° | 9km/h | 27922m | 5.9m/s | -48.8°C | 3.3% | 0hPa | 2.5V | 08:30:00 | 02:02:15 | 00:00:00 | |
| BIOWL1-15 | 2026-09-01 00:52:23 | 50.98877 | 1.32389 | 38° | 9km/h | 27917m | 5.1m/s | -48.8°C | 0.1% | 0hPa | 2.5V | 18:12:15 | 02:02:14 | 00:00:00 | |
| HTAHTA | 2026-09-01 00:52:21 | 50.98872 | 1.32387 | 6° | 9km/h | 27907m | 5.3m/s | -48.9°C | 0.8% | -1.0hPa | 2.5V | 00:00:00 | 00:00:00 | 00:00:00 | |
| DM0DOS-11 | 2026-09-01 00:52:19 | 50.98844 | 1.32409 | 312° | 22km/h | 27868m | 5.6m/s | -49.1°C | 3.4% | 0hPa | 2.5V | 08:30:00 | 02:02:05 | 00:00:00 | |
| BIOWL1-15 | 2026-09-01 00:52:13 | 50.98841 | 1.32415 | 304° | 16km/h | 27863m | 6.1m/s | -49.1°C | 0.2% | 0hPa | 2.6V | 18:12:15 | 02:02:04 | 00:00:00 | |
| DM0DOS-11 | 2026-09-01 00:52:09 | 50.98814 | 1.32441 | 333° | 20km/h | 27815m | 5.2m/s | -49.4°C | 3.5% | 0hPa | 2.5V | 08:30:00 | 02:01:55 | 00:00:00 | |
| BIOWL1-15 | 2026-09-01 00:52:02 | 50.98802 | 1.32460 | 301° | 27km/h | 27798m | 6m/s | -49.4°C | 0.2% | 0hPa | 2.6V | 18:12:15 | 02:01:52 | 00:00:00 | |
| DM0DOS-11 | 2026-09-01 00:51:58 | 50.98792 | 1.32524 | 320° | 20km/h | 27756m | 4.8m/s | -49.3°C | 3.5% | 0hPa | 2.5V | 08:30:00 | 02:01:44 | 00:00:00 | |
| BIOWL1-15 | 2026-09-01 00:51:52 | 50.98783 | 1.32534 | 325° | 22km/h | 27746m | 5.7m/s | -49.4°C | 0.2% | 0hPa | 2.6V | 18:12:15 | 02:01:42 | 00:00:00 | |
| DM0DOS-11 | 2026-09-01 00:51:48 | 50.98766 | 1.32582 | 278° | 16km/h | 27703m | 6.3m/s | -49.5°C | 3.4% | 0hPa | 2.6V | 08:30:00 | 02:01:34 | 00:00:00 | |
| BIOWL1-15 | 2026-09-01 00:51:40 | 50.98757 | 1.32617 | 305° | 15km/h | 27663m | 6.6m/s | -49.6°C | 0.2% | 0hPa | 2.6V | 18:12:15 | 02:01:27 | 00:00:00 | |
| BIOWL1-15 | 2026-09-01 00:51:30 | 50.98746 | 1.32658 | 288° | 26km/h | 27630m | 4.5m/s | -49.7°C | 0.2% | 0hPa | 2.5V | 18:12:15 | 02:01:21 | 00:00:00 | |
| DM0DOS-11 | 2026-09-01 00:51:28 | 50.98748 | 1.32719 | 279° | 20km/h | 27590m | 4.7m/s | -49.7°C | 3.5% | 0hPa | 2.6V | 08:30:00 | 02:01:14 | 00:00:00 | |
| BIOWL1-15 | 2026-09-01 00:51:19 | 50.98745 | 1.32757 | 273° | 18km/h | 27562m | 6m/s | -49.9°C | 0.2% | 0hPa | 2.6V | 18:12:15 | 02:01:09 | 00:00:00 | |
| BIOWL1-15 | 2026-09-01 00:51:07 | 50.98752 | 1.32831 | 200° | 9km/h | 27449m | 5.1m/s | -50.1°C | 0.3% | 0hPa | 2.6V | 18:12:15 | 02:00:49 | 00:00:00 | |
| DM0DOS-11 | 2026-09-01 00:51:07 | 50.98751 | 1.32827 | 311° | 7km/h | 27466m | 5m/s | -50.1°C | 3.6% | 0hPa | 2.6V | 08:30:00 | 02:00:52 | 00:00:00 | |
| BIOWL9-15 | 2026-09-01 00:51:06 | 50.98751 | 1.32814 | 253° | 9km/h | 27494m | 5.8m/s | -50.1°C | 0.8% | -1.0hPa | 2.6V | 00:00:00 | 00:00:00 | 00:00:00 | |
| DM0DOS-11 | 2026-09-01 00:50:56 | 50.98764 | 1.32846 | 181° | 7km/h | 27412m | 6.2m/s | -50.1°C | 3.6% | 0hPa | 2.6V | 08:30:00 | 02:00:42 | 00:00:00 | |
| BIOWL1-15 | 2026-09-01 00:50:51 | 50.98764 | 1.32846 | 181° | 7km/h | 27412m | 6.2m/s | -50.2°C | 0.3% | 0hPa | 2.6V | 18:12:15 | 02:00:42 | 00:00:00 | |
| HTAHTA | 2026-09-01 00:50:48 | 50.98772 | 1.32846 | 195° | 11km/h | 27394m | 6.6m/s | -50.1°C | 0.8% | -1.0hPa | 2.6V | 00:00:00 | 00:00:00 | 00:00:00 | |
| DM0DOS-11 | 2026-09-01 00:50:46 | 50.98785 | 1.32842 | 118° | 7km/h | 27356m | 5.1m/s | -50.3°C | 3.6% | 0hPa | 2.6V | 08:30:00 | 02:00:32 | 00:00:00 | |
| BIOWL1-15 | 2026-09-01 00:50:39 | 50.98787 | 1.32846 | 249° | 13km/h | 27339m | 5.1m/s | -50.3°C | 0.3% | 0hPa | 2.6V | 18:12:15 | 02:00:29 | 00:00:00 | |
| BIOWL9-15 | 2026-09-01 00:50:35 | 50.98797 | 1.32865 | 212° | 13km/h | 27317m | 5.2m/s | -50.4°C | 0.9% | -1.0hPa | 2.6V | 00:00:00 | 00:00:00 | 00:00:00 | |
| BIOWL1-15 | 2026-09-01 00:50:29 | 50.98841 | 1.32909 | 166° | 13km/h | 27213m | 5.4m/s | -50.4°C | 0.4% | 0hPa | 2.6V | 18:12:15 | 02:00:07 | 00:00:00 | |
| DM0DOS-11 | 2026-09-01 00:50:26 | 50.98822 | 1.32909 | 208° | 13km/h | 27242m | 6.2m/s | -50.5°C | 3.7% | 0hPa | 2.6V | 08:30:00 | 02:00:12 | 00:00:00 | |
| BIOWL1-15 | 2026-09-01 00:50:17 | 50.98844 | 1.32907 | 161° | 13km/h | 27208m | 5.1m/s | -50.4°C | 0.4% | 0hPa | 2.5V | 18:12:15 | 02:00:06 | 00:00:00 | |
| DM0DOS-11 | 2026-09-01 00:50:12 | 50.98861 | 1.32900 | 182° | 9km/h | 27177m | 5.6m/s | -50.2°C | 3.6% | 0hPa | 2.5V | 08:30:00 | 02:00:01 | 00:00:00 | |
| DB0UT-7 | 2026-09-01 00:50:08 | 50.98866 | 1.32900 | 182° | 15km/h | 27167m | 6.3m/s | -50.1°C | 3.6% | 0hPa | 2.6V | 00:00:00 | 01:59:59 | 00:00:00 | |
| DM0DOS-11 | 2026-09-01 00:50:05 | 50.98891 | 1.32883 | 141° | 16km/h | 27119m | 6.2m/s | -50°C | 3.6% | 0hPa | 2.5V | 08:30:00 | 01:59:51 | 00:00:00 | |
| BIOWL1-15 | 2026-09-01 00:50:04 | 50.98881 | 1.32896 | 157° | 15km/h | 27142m | 6.7m/s | -50.1°C | 0.3% | 0hPa | 2.5V | 18:12:15 | 01:59:55 | 00:00:00 | |
| BIOWL1-15 | 2026-09-01 00:49:55 | 50.98917 | 1.32862 | 146° | 15km/h | 27065m | 6.7m/s | -50.1°C | 0.3% | 0hPa | 2.6V | 18:12:15 | 01:59:42 | 00:00:00 | |
| DM0DOS-11 | 2026-09-01 00:49:52 | 50.98920 | 1.32858 | 132° | 15km/h | 27059m | 6.1m/s | -50.1°C | 3.7% | 0hPa | 2.5V | 08:30:00 | 01:59:41 | 00:00:00 | |
| HTAHTA | 2026-09-01 00:49:46 | 50.98930 | 1.32830 | 118° | 24km/h | 27035m | 4.8m/s | -50.0°C | 0.8% | -1.0hPa | 2.6V | 00:00:00 | 00:00:00 | 00:00:00 | |
| BIOWL1-15 | 2026-09-01 00:49:43 | 50.98944 | 1.32777 | 93° | 13km/h | 26976m | 5.6m/s | -49.7°C | 0.2% | 0hPa | 2.6V | 18:12:15 | 01:59:27 | 00:00:00 | |
| DM0DOS-11 | 2026-09-01 00:49:41 | 50.98938 | 1.32794 | 126° | 13km/h | 26999m | 5.8m/s | -49.8°C | 3.6% | 0hPa | 2.5V | 08:30:00 | 01:59:31 | 00:00:00 | |
| DB0UT-7 | 2026-09-01 00:49:38 | 50.98942 | 1.32786 | 126° | 9km/h | 26989m | 5.4m/s | -49.7°C | 3.6% | 0hPa | 2.5V | 00:00:00 | 00:00:00 | 00:00:00 | |
| DM0DOS-11 | 2026-09-01 00:49:35 | 50.98948 | 1.32733 | 98° | 13km/h | 26941m | 6.4m/s | -49.8°C | 3.6% | 0hPa | 2.5V | 08:30:00 | 01:59:21 | 00:00:00 | |
| BIOWL1-15 | 2026-09-01 00:49:25 | 50.98955 | 1.32676 | 67° | 13km/h | 26860m | 6m/s | -49.8°C | 0.3% | 0hPa | 2.6V | 18:12:15 | 01:59:07 | 00:00:00 | |
| DM0DOS-11 | 2026-09-01 00:49:21 | 50.98954 | 1.32700 | 100° | 16km/h | 26882m | 6.1m/s | -49.8°C | 3.6% | 0hPa | 2.5V | 08:30:00 | 01:59:11 | 00:00:00 | |
| HTAHTA | 2026-09-01 00:49:15 | 50.98954 | 1.32671 | 58° | 13km/h | 26854m | 5.8m/s | -49.7°C | 0.8% | -1.0hPa | 2.5V | 00:00:00 | 00:00:00 | 00:00:00 | |
| DM0DOS-11 | 2026-09-01 00:49:14 | 50.98949 | 1.32647 | 76° | 13km/h | 26825m | 6.1m/s | -49.5°C | 3.6% | 0hPa | 2.5V | 08:30:00 | 01:59:01 | 00:00:00 | |
| BIOWL1-15 | 2026-09-01 00:49:09 | 50.98944 | 1.32634 | 52° | 11km/h | 26807m | 5.7m/s | -49.5°C | 0.3% | 0hPa | 2.6V | 18:12:15 | 01:58:58 | 00:00:00 | |
| DM0DOS-11 | 2026-09-01 00:49:03 | 50.98937 | 1.32628 | 28° | 5km/h | 26765m | 6.5m/s | -49.2°C | 3.5% | 0hPa | 2.5V | 08:30:00 | 01:58:51 | 00:00:00 | |
| BIOWL1-15 | 2026-09-01 00:48:57 | 50.98928 | 1.32606 | 65° | 7km/h | 26718m | 5.2m/s | -48.9°C | 0.2% | 0hPa | 2.6V | 18:12:15 | 01:58:43 | 00:00:00 | |
| BIOWL1-15 | 2026-09-01 00:48:47 | 50.98923 | 1.32611 | 260° | 4km/h | 26683m | 5.1m/s | -48.8°C | 0.2% | 0hPa | 2.6V | 18:12:15 | 01:58:37 | 00:00:00 | |
| HTAHTA | 2026-09-01 00:48:44 | 50.98922 | 1.32616 | 302° | 5km/h | 26666m | 6.2m/s | -48.7°C | 0.8% | -1.0hPa | 2.5V | 00:00:00 | 00:00:00 | 00:00:00 | |
| DM0DOS-11 | 2026-09-01 00:48:42 | 50.98920 | 1.32618 | 61° | 4km/h | 26648m | 6.9m/s | -48.7°C | 3.4% | 0hPa | 2.5V | 08:30:00 | 01:58:31 | 00:00:00 | |
| BIOWL1-15 | 2026-09-01 00:48:36 | 50.98916 | 1.32609 | 354° | 11km/h | 26620m | 5.9m/s | -48.7°C | 0.2% | 0hPa | 2.5V | 18:12:15 | 01:58:26 | 00:00:00 | |
| DM0DOS-11 | 2026-09-01 00:48:35 | 50.98911 | 1.32620 | 242° | 11km/h | 26591m | 5.9m/s | -48.7°C | 3.4% | 0hPa | 2.5V | 08:30:00 | 01:58:21 | 00:00:00 | |
| BIOWL9-15 | 2026-09-01 00:48:31 | 50.98910 | 1.32620 | 242° | 11km/h | 26591m | 5.9m/s | -48.7°C | 0.8% | -1.0hPa | 2.6V | 00:00:00 | 00:00:00 | 00:00:00 | |
| DB0UT-7 | 2026-09-01 00:48:26 | 50.98914 | 1.32638 | 261° | 15km/h | 26568m | 6.1m/s | -48.6°C | 3.4% | 0hPa | 2.6V | 00:00:00 | 01:58:17 | 00:00:00 | |
| DM0DOS-11 | 2026-09-01 00:48:25 | 50.98906 | 1.32659 | 262° | 20km/h | 26522m | 6.1m/s | -48.5°C | 3.4% | 0hPa | 2.6V | 08:30:00 | 01:58:09 | 00:00:00 | |
| BIOWL1-15 | 2026-09-01 00:48:24 | 50.98914 | 1.32638 | 54° | 4km/h | 26555m | 5.1m/s | -48.7°C | 0.2% | 0hPa | 2.5V | 18:12:15 | 01:58:15 | 00:00:00 | |
| BIOWL1-15 | 2026-09-01 00:48:14 | 50.98928 | 1.32749 | 230° | 20km/h | 26437m | 4.8m/s | -48.1°C | 0.1% | 0hPa | 2.6V | 18:12:15 | 01:57:54 | 00:00:00 | |
| DM0DOS-11 | 2026-09-01 00:48:13 | 50.98922 | 1.32715 | 216° | 7km/h | 26475m | 5.1m/s | -48.2°C | 3.3% | 0hPa | 2.5V | 08:30:00 | 01:58:01 | 00:00:00 | |
| BIOWL1-15 | 2026-09-01 00:48:04 | 50.98932 | 1.32755 | 231° | 20km/h | 26432m | 5m/s | -48.1°C | 0.1% | 0hPa | 2.6V | 18:12:15 | 01:57:53 | 00:00:00 | |
| DM0DOS-11 | 2026-09-01 00:48:03 | 50.98937 | 1.32767 | 241° | 18km/h | 26421m | 6m/s | -48°C | 3.3% | 0hPa | 2.5V | 08:30:00 | 01:57:51 | 00:00:00 | |
| BIOWL9-15 | 2026-09-01 00:48:00 | 50.98939 | 1.32773 | 248° | 15km/h | 26415m | 5.4m/s | -48.1°C | 0.8% | -1.0hPa | 2.6V | 00:00:00 | 00:00:00 | 00:00:00 | |
| DB0UT-7 | 2026-09-01 00:47:56 | 50.98945 | 1.32788 | 215° | 9km/h | 26399m | 6.4m/s | -48.0°C | 3.3% | 0hPa | 2.6V | 00:00:00 | 00:00:00 | 00:00:00 | |
| DM0DOS-11 | 2026-09-01 00:47:53 | 50.98964 | 1.32803 | 198° | 13km/h | 26365m | 6.3m/s | -48°C | 3.3% | 0hPa | 2.5V | 08:30:00 | 01:57:41 | 00:00:00 | |
| BIOWL1-15 | 2026-09-01 00:47:51 | 50.98961 | 1.32801 | 206° | 11km/h | 26371m | 4.9m/s | -48°C | 0% | 0hPa | 2.6V | 18:12:15 | 01:57:42 | 00:00:00 | |
| DM0DOS-11 | 2026-09-01 00:47:42 | 50.99001 | 1.32838 | 211° | 24km/h | 26308m | 6.5m/s | -48.2°C | 3.3% | 0hPa | 2.5V | 08:30:00 | 01:57:31 | 00:00:00 | |
| BIOWL1-15 | 2026-09-01 00:47:41 | 50.99024 | 1.32859 | 204° | 29km/h | 26285m | 5.9m/s | -48.2°C | 0.1% | 0hPa | 2.6V | 18:12:15 | 01:57:27 | 00:00:00 | |
| DM0DOS-11 | 2026-09-01 00:47:35 | 50.99054 | 1.32890 | 225° | 22km/h | 26252m | 6.3m/s | -48.1°C | 3.3% | 0hPa | 2.5V | 08:30:00 | 01:57:21 | 00:00:00 | |
| BIOWL1-15 | 2026-09-01 00:47:27 | 50.99069 | 1.32908 | 211° | 26km/h | 26236m | 4.6m/s | -48.1°C | 0.1% | 0hPa | 2.6V | 18:12:15 | 01:57:18 | 00:00:00 | |
| DM0DOS-11 | 2026-09-01 00:47:23 | 50.99105 | 1.32921 | 177° | 22km/h | 26198m | 4.2m/s | -48.1°C | 3.3% | 0hPa | 2.5V | 08:30:00 | 01:57:11 | 00:00:00 | |
| BIOWL1-15 | 2026-09-01 00:47:17 | 50.99118 | 1.32927 | 224° | 15km/h | 26182m | 4.9m/s | -48.2°C | 0.1% | 0hPa | 2.6V | 18:12:15 | 01:57:08 | 00:00:00 | |
| DM0DOS-11 | 2026-09-01 00:47:11 | 50.99137 | 1.32937 | 114° | 11km/h | 26146m | 5.3m/s | -48.2°C | 3.3% | 0hPa | 2.5V | 08:30:00 | 01:57:01 | 00:00:00 | |
| BIOWL1-15 | 2026-09-01 00:47:06 | 50.99153 | 1.32929 | 116° | 9km/h | 26088m | 5.2m/s | -48.5°C | 0.1% | 0hPa | 2.5V | 18:12:15 | 01:56:50 | 00:00:00 | |
| DM0DOS-11 | 2026-09-01 00:47:05 | 50.99152 | 1.32931 | 121° | 5km/h | 26094m | 6.2m/s | -48.5°C | 3.3% | 0hPa | 2.5V | 08:30:00 | 01:56:51 | 00:00:00 | |
| BIOWL9-15 | 2026-09-01 00:46:58 | 50.99154 | 1.32921 | 84° | 9km/h | 26077m | 6.6m/s | -48.6°C | 0.8% | -1.0hPa | 2.5V | 00:00:00 | 00:00:00 | 00:00:00 | |
| DM0DOS-11 | 2026-09-01 00:46:53 | 50.99146 | 1.32909 | 357° | 9km/h | 26037m | 5.6m/s | -48.6°C | 3.4% | 0hPa | 2.5V | 08:30:00 | 01:56:41 | 00:00:00 | |
| BIOWL1-15 | 2026-09-01 00:46:52 | 50.99150 | 1.32909 | 10° | 4km/h | 26049m | 4.7m/s | -48.6°C | 0.1% | 0hPa | 2.6V | 18:12:15 | 01:56:43 | 00:00:00 | |
| DB0UT-7 | 2026-09-01 00:46:47 | 50.99141 | 1.32910 | 9° | 16km/h | 26020m | 4.5m/s | -48.6°C | 3.4% | 0hPa | 2.5V | 00:00:00 | 01:56:38 | 00:00:00 | |
| DM0DOS-11 | 2026-09-01 00:46:43 | 50.99126 | 1.32885 | 64° | 11km/h | 25981m | 4.4m/s | -48.5°C | 3.4% | 0hPa | 2.5V | 08:30:00 | 01:56:31 | 00:00:00 | |
| BIOWL1-15 | 2026-09-01 00:46:42 | 50.99129 | 1.32893 | 57° | 15km/h | 25992m | 6.6m/s | -48.5°C | 0.1% | 0hPa | 2.6V | 18:12:15 | 01:56:33 | 00:00:00 | |
| HTAHTA | 2026-09-01 00:46:40 | 50.99123 | 1.32877 | 48° | 13km/h | 25970m | 6.1m/s | -48.5°C | 0.8% | -1.0hPa | 2.5V | 00:00:00 | 00:00:00 | 00:00:00 | |
| DM0DOS-11 | 2026-09-01 00:46:32 | 50.99104 | 1.32843 | 47° | 22km/h | 25927m | 6.1m/s | -48.6°C | 3.3% | 0hPa | 2.5V | 08:30:00 | 01:56:21 | 00:00:00 | |
| BIOWL1-15 | 2026-09-01 00:46:31 | 50.99107 | 1.32849 | 54° | 16km/h | 25933m | 6.3m/s | -48.6°C | 0.1% | 0hPa | 2.6V | 18:12:15 | 01:56:22 | 00:00:00 | |
| BIOWL9-15 | 2026-09-01 00:46:27 | 50.99084 | 1.32822 | 20° | 18km/h | 25906m | 5.6m/s | -48.6°C | 0.8% | -1.0hPa | 2.5V | 00:00:00 | 00:00:00 | 00:00:00 | |
| DM0DOS-11 | 2026-09-01 00:46:23 | 50.99063 | 1.32800 | 52° | 18km/h | 25874m | 5.5m/s | -48.8°C | 3.3% | 0hPa | 2.5V | 08:30:00 | 01:56:11 | 00:00:00 | |
| BIOWL1-15 | 2026-09-01 00:46:21 | 50.99066 | 1.32805 | 47° | 20km/h | 25879m | 5.1m/s | -48.8°C | 0.1% | 0hPa | 2.6V | 18:12:15 | 01:56:12 | 00:00:00 | |
| DB0UT-7 | 2026-09-01 00:46:17 | 50.99054 | 1.32784 | 41° | 26km/h | 25858m | 4.7m/s | -48.9°C | 3.4% | 0hPa | 2.5V | 00:00:00 | 00:00:00 | 00:00:00 | |
| DM0DOS-11 | 2026-09-01 00:46:11 | 50.99025 | 1.32755 | 27° | 16km/h | 25819m | 5.7m/s | -49°C | 3.4% | 0hPa | 2.5V | 08:30:00 | 01:56:01 | 00:00:00 | |
| HTAHTA | 2026-09-01 00:46:09 | 50.99006 | 1.32749 | 358° | 18km/h | 25797m | 5.9m/s | -49.1°C | 0.8% | -1.0hPa | 2.5V | 00:00:00 | 00:00:00 | 00:00:00 | |
| DM0DOS-11 | 2026-09-01 00:46:01 | 50.98981 | 1.32745 | 27° | 26km/h | 25764m | 4.9m/s | -49.3°C | 3.5% | 0hPa | 2.5V | 08:30:00 | 01:55:51 | 00:00:00 | |
| BIOWL9-15 | 2026-09-01 00:45:56 | 50.98939 | 1.32709 | 1° | 13km/h | 25714m | 5.7m/s | -49.5°C | 0.8% | -1.0hPa | 2.5V | 00:00:00 | 00:00:00 | 00:00:00 | |
| DM0DOS-11 | 2026-09-01 00:45:51 | 50.98936 | 1.32709 | 8° | 15km/h | 25709m | 5.2m/s | -49.6°C | 3.5% | 0hPa | 2.5V | 08:30:00 | 01:55:41 | 00:00:00 | |
| BIOWL1-15 | 2026-09-01 00:45:49 | 50.98932 | 1.32707 | 18° | 18km/h | 25703m | 6.5m/s | -49.6°C | 0.2% | 0hPa | 2.5V | 18:12:15 | 01:55:40 | 00:00:00 | |
| DJ2DS-15 | 2026-09-01 00:45:49 | 50.98928 | 1.32704 | 32° | 20km/h | 25697m | 5.3m/s | -49.7°C | 0.8% | -1.0hPa | 2.5V | 00:00:00 | 00:00:00 | 00:00:00 | |
| DM0DOS-11 | 2026-09-01 00:45:41 | 50.98904 | 1.32642 | 44° | 24km/h | 25653m | 5m/s | -49.7°C | 3.5% | 0hPa | 2.5V | 08:30:00 | 01:55:31 | 00:00:00 | |
| HTAHTA | 2026-09-01 00:45:38 | 50.98892 | 1.32624 | 37° | 13km/h | 25630m | 6.1m/s | -49.8°C | 0.8% | -1.0hPa | 2.6V | 00:00:00 | 00:00:00 | 00:00:00 | |
| DM0DOS-11 | 2026-09-01 00:45:35 | 50.98869 | 1.32599 | 29° | 18km/h | 25591m | 6.2m/s | -50°C | 3.6% | 0hPa | 2.6V | 08:30:00 | 01:55:20 | 00:00:00 | |
| DM0DOS-11 | 2026-09-01 00:45:24 | 50.98822 | 1.32566 | 1° | 27km/h | 25541m | 5.4m/s | -50°C | 3.6% | 0hPa | 2.5V | 08:30:00 | 01:55:11 | 00:00:00 | |
| DM0DOS-11 | 2026-09-01 00:45:11 | 50.98756 | 1.32540 | 25° | 27km/h | 25483m | 6.2m/s | -49.9°C | 3.5% | 0hPa | 2.5V | 08:30:00 | 01:55:01 | 00:00:00 | |
| HTAHTA | 2026-09-01 00:45:07 | 50.98727 | 1.32539 | 344° | 27km/h | 25461m | 6.4m/s | -50.0°C | 0.8% | -1.0hPa | 2.5V | 00:00:00 | 00:00:00 | 00:00:00 | |
| DM0DOS-11 | 2026-09-01 00:45:01 | 50.98682 | 1.32557 | 358° | 35km/h | 25428m | 4.6m/s | -50.3°C | 3.5% | 0hPa | 2.5V | 08:30:00 | 01:54:51 | 00:00:00 | |
| DB0UT-7 | 2026-09-01 00:45:00 | 50.98682 | 1.32557 | 359° | 20km/h | 25428m | 4.6m/s | -50.2°C | 3.5% | 0hPa | 2.5V | 00:00:00 | 01:54:51 | 08:30:00 | |
| BIOWL1-15 | 2026-09-01 00:44:56 | 50.98579 | 1.32602 | 332° | 24km/h | 25320m | 5.9m/s | -50.7°C | 0.3% | 0hPa | 2.6V | 18:12:15 | 01:54:32 | 00:00:00 | |
| BIOWL9-15 | 2026-09-01 00:44:53 | 50.98629 | 1.32566 | 341° | 24km/h | 25384m | 6.1m/s | -50.5°C | 0.9% | -1.0hPa | 2.5V | 00:00:00 | 00:00:00 | 00:00:00 | |
| DM0DOS-11 | 2026-09-01 00:44:51 | 50.98619 | 1.32572 | 330° | 16km/h | 25372m | 5.7m/s | -50.6°C | 3.6% | 0hPa | 2.5V | 08:30:00 | 01:54:41 | 00:00:00 | |
| BIOWL1-15 | 2026-09-01 00:44:47 | 50.98574 | 1.32606 | 333° | 24km/h | 25315m | 4.8m/s | -50.7°C | 0.3% | 0hPa | 2.5V | 18:12:15 | 01:54:31 | 00:00:00 | |
| DM0DOS-11 | 2026-09-01 00:44:41 | 50.98574 | 1.32606 | 333° | 24km/h | 25315m | 4.8m/s | -50.7°C | 3.6% | 0hPa | 2.5V | 08:30:00 | 01:54:31 | 00:00:00 | |
| BIOWL1-15 | 2026-09-01 00:44:34 | 50.98557 | 1.32626 | 315° | 15km/h | 25281m | 5.4m/s | -50.6°C | 0.2% | 0hPa | 2.6V | 18:12:15 | 01:54:25 | 00:00:00 | |
| DB0UT-7 | 2026-09-01 00:44:30 | 50.98548 | 1.32645 | 291° | 7km/h | 25260m | 5.5m/s | -50.8°C | 3.6% | 0hPa | 2.6V | 00:00:00 | 00:00:00 | 00:00:00 | |
| DM0DOS-11 | 2026-09-01 00:44:26 | 50.98531 | 1.32688 | 272° | 16km/h | 25208m | 6.1m/s | -51.4°C | 3.8% | 0hPa | 2.6V | 08:30:00 | 01:54:12 | 00:00:00 | |
| BIOWL1-15 | 2026-09-01 00:44:24 | 50.98534 | 1.32671 | 309° | 15km/h | 25226m | 6.5m/s | -51.4°C | 0.4% | 0hPa | 2.6V | 18:12:15 | 01:54:15 | 00:00:00 | |
| BIOWL1-15 | 2026-09-01 00:44:14 | 50.98549 | 1.32741 | 246° | 5km/h | 25136m | 6.3m/s | -51.5°C | 0.4% | 0hPa | 2.6V | 18:12:15 | 01:53:59 | 00:00:00 | |
| DM0DOS-11 | 2026-09-01 00:44:11 | 50.98548 | 1.32739 | 232° | 9km/h | 25141m | 4.9m/s | -51.5°C | 3.8% | 0hPa | 2.6V | 08:30:00 | 01:54:00 | 00:00:00 | |
| BIOWL1-15 | 2026-09-01 00:44:03 | 50.98552 | 1.32744 | 195° | 9km/h | 25107m | 4.2m/s | -51.4°C | 0.4% | 0hPa | 2.6V | 18:12:15 | 01:53:54 | 00:00:00 | |
| BIOWL1-15 | 2026-09-01 00:43:52 | 50.98570 | 1.32762 | 135° | 4km/h | 25046m | 5m/s | -51.5°C | 0.4% | 0hPa | 2.7V | 18:12:15 | 01:53:43 | 00:00:00 | |
| BIOWL9-15 | 2026-09-01 00:43:51 | 50.98571 | 1.32761 | 154° | 4km/h | 25041m | 5.6m/s | -51.5°C | 0.9% | -1.0hPa | 2.7V | 00:00:00 | 00:00:00 | 00:00:00 | |
| BIOWL1-15 | 2026-09-01 00:43:42 | 50.98580 | 1.32766 | 120° | 9km/h | 24995m | 4.5m/s | -51.4°C | 0.5% | 0hPa | 2.7V | 18:12:15 | 01:53:33 | 00:00:00 | |
| BIOWL1-15 | 2026-09-01 00:43:31 | 50.98575 | 1.32768 | 78° | 5km/h | 24925m | 5.5m/s | -51.5°C | 0.5% | 0hPa | 2.6V | 18:12:15 | 01:53:20 | 00:00:00 | |
| DM0DOS-11 | 2026-09-01 00:43:31 | 50.98575 | 1.32770 | 54° | 4km/h | 24931m | 6.2m/s | -51.5°C | 3.8% | 0hPa | 2.5V | 08:30:00 | 01:53:21 | 00:00:00 | |
| DM0DOS-11 | 2026-09-01 00:43:21 | 50.98564 | 1.32770 | 329° | 7km/h | 24876m | 4.5m/s | -51.4°C | 3.8% | 0hPa | 2.5V | 08:30:00 | 01:53:11 | 00:00:00 | |
| BIOWL1-15 | 2026-09-01 00:43:21 | 50.98565 | 1.32768 | 313° | 7km/h | 24881m | 6m/s | -51.5°C | 0.4% | 0hPa | 2.6V | 18:12:15 | 01:53:12 | 00:00:00 | |
| BIOWL9-15 | 2026-09-01 00:43:20 | 50.98562 | 1.32771 | 349° | 5km/h | 24872m | 4.0m/s | -51.4°C | 0.9% | -1.0hPa | 2.6V | 00:00:00 | 00:00:00 | 00:00:00 | |
| DB0UT-7 | 2026-09-01 00:43:18 | 50.98561 | 1.32771 | 33° | 15km/h | 24867m | 6.3m/s | -51.4°C | 3.7% | 0hPa | 2.6V | 00:00:00 | 01:53:09 | 00:00:00 | |
| DM0DOS-11 | 2026-09-01 00:43:11 | 50.98539 | 1.32782 | 317° | 20km/h | 24819m | 5.8m/s | -51.7°C | 3.9% | 0hPa | 2.6V | 08:30:00 | 01:53:00 | 00:00:00 | |
| BIOWL1-15 | 2026-09-01 00:43:10 | 50.98529 | 1.32797 | 304° | 15km/h | 24804m | 5.9m/s | -51.7°C | 0.4% | 0hPa | 2.6V | 18:12:15 | 01:52:57 | 00:00:00 | |
| HTAHTA | 2026-09-01 00:43:02 | 50.98525 | 1.32812 | 318° | 9km/h | 24783m | 5.5m/s | -51.8°C | -1.0% | -1.0hPa | 2.6V | 00:00:00 | 00:00:00 | 00:00:00 | |
| DM0DOS-11 | 2026-09-01 00:43:01 | 50.98515 | 1.32822 | 328° | 20km/h | 24769m | 5.6m/s | -51.8°C | 3.9% | 0hPa | 2.6V | 08:30:00 | 01:52:50 | 00:00:00 | |
| BIOWL1-15 | 2026-09-01 00:42:55 | 50.98461 | 1.32907 | 258° | 5km/h | 24638m | 5.6m/s | -51.6°C | 0.4% | 0hPa | 2.6V | 18:12:15 | 01:52:25 | 00:00:00 | |
| BIOWL9-15 | 2026-09-01 00:42:49 | 50.98483 | 1.32865 | 282° | 11km/h | 24710m | 4.9m/s | -51.8°C | 0.9% | -1.0hPa | 2.6V | 00:00:00 | 00:00:00 | 00:00:00 | |
| DB0UT-7 | 2026-09-01 00:42:48 | 50.98483 | 1.32865 | 283° | 5km/h | 24711m | 4.9m/s | -51.7°C | 3.9% | 0hPa | 2.6V | 00:00:00 | 00:00:00 | 00:00:00 | |
| BIOWL1-15 | 2026-09-01 00:42:29 | 50.98456 | 1.32936 | 289° | 18km/h | 24602m | 5.6m/s | -51.6°C | 0.4% | 0hPa | 2.7V | 18:12:15 | 01:52:18 | 00:00:00 | |
| BIOWL1-15 | 2026-09-01 00:42:16 | 50.98440 | 1.32979 | 298° | 11km/h | 24546m | 4.5m/s | -51.7°C | 0.5% | 0hPa | 2.6V | 18:12:15 | 01:52:07 | 00:00:00 | |
| BIOWL1-15 | 2026-09-01 00:42:06 | 50.98424 | 1.33058 | 302° | 11km/h | 24453m | 5m/s | -51.7°C | 0.5% | 0hPa | 2.6V | 18:12:15 | 01:51:49 | 00:00:00 | |
| BIOWL1-15 | 2026-09-01 00:41:50 | 50.98428 | 1.33065 | 280° | 4km/h | 24414m | 4.2m/s | -51.6°C | 0.4% | 0hPa | 2.6V | 18:12:15 | 01:51:41 | 00:00:00 | |
| BIOWL9-15 | 2026-09-01 00:41:47 | 50.98429 | 1.33072 | 250° | 5km/h | 24399m | 4.6m/s | -51.6°C | 0.9% | -1.0hPa | 2.6V | 00:00:00 | 00:00:00 | 00:00:00 | |
| BIOWL1-15 | 2026-09-01 00:41:40 | 50.98418 | 1.33075 | 307° | 7km/h | 24335m | 4.3m/s | -51.4°C | 0.4% | 0hPa | 2.6V | 18:12:15 | 01:51:26 | 00:00:00 | |
| BIOWL1-15 | 2026-09-01 00:41:30 | 50.98393 | 1.33074 | 294° | 11km/h | 24273m | 6m/s | -51.4°C | 0.4% | 0hPa | 2.6V | 18:12:15 | 01:51:14 | 00:00:00 | |
| BIOWL1-15 | 2026-09-01 00:41:14 | 50.98327 | 1.33119 | 342° | 26km/h | 24177m | 6.3m/s | -51.6°C | 0.4% | 0hPa | 2.6V | 18:12:15 | 01:50:55 | 00:00:00 | |
| BIOWL1-15 | 2026-09-01 00:41:03 | 50.98309 | 1.33123 | 359° | 20km/h | 24161m | 6.3m/s | -51.7°C | 0.4% | 0hPa | 2.6V | 18:12:15 | 01:50:52 | 00:00:00 | |
| BIOWL1-15 | 2026-09-01 00:40:51 | 50.98249 | 1.33147 | 342° | 33km/h | 24109m | 5.9m/s | -52.2°C | 0.5% | 0hPa | 2.7V | 18:12:15 | 01:50:42 | 00:00:00 | |
| BIOWL9-15 | 2026-09-01 00:40:45 | 50.98203 | 1.33171 | 345° | 29km/h | 24075m | 6.2m/s | -52.0°C | 1.0% | -1.0hPa | 2.6V | 00:00:00 | 00:00:00 | 00:00:00 | |
| BIOWL1-15 | 2026-09-01 00:40:40 | 50.98169 | 1.33193 | 334° | 22km/h | 24048m | 6m/s | -51.9°C | 0.5% | 0hPa | 2.6V | 18:12:15 | 01:50:31 | 00:00:00 | |
| BIOWL1-15 | 2026-09-01 00:40:30 | 50.98044 | 1.33375 | 309° | 16km/h | 23863m | 6.1m/s | -51.3°C | 0.4% | 0hPa | 2.7V | 18:12:15 | 01:49:58 | 00:00:00 | |
| HTAHTA | 2026-09-01 00:40:27 | 50.98099 | 1.33256 | 328° | 16km/h | 23976m | 5.9m/s | -51.7°C | -1.0% | -1.0hPa | 2.7V | 00:00:00 | 00:00:00 | 00:00:00 | |
| BIOWL1-15 | 2026-09-01 00:40:22 | 50.98041 | 1.33381 | 313° | 18km/h | 23857m | 5.7m/s | -51.4°C | 0.4% | 0hPa | 2.7V | 18:12:15 | 01:49:57 | 00:00:00 | |
| BIOWL1-15 | 2026-09-01 00:40:07 | 50.98038 | 1.33386 | 311° | 20km/h | 23852m | 4.2m/s | -51.4°C | 0.4% | 0hPa | 2.6V | 18:12:15 | 01:49:56 | 00:00:00 | |
| BIOWL1-15 | 2026-09-01 00:39:55 | 50.98024 | 1.33461 | 273° | 18km/h | 23794m | 5.6m/s | 0°C | 0% | 0hPa | 2.6V | 18:12:15 | 01:49:45 | 00:00:00 | |
| BIOWL1-15 | 2026-09-01 00:39:44 | 50.98025 | 1.33535 | 263° | 18km/h | 23740m | 5.9m/s | 0°C | 0% | 0hPa | 2.6V | 18:12:15 | 01:49:35 | 00:00:00 | |
| BIOWL1-15 | 2026-09-01 00:39:34 | 50.98054 | 1.33595 | 232° | 16km/h | 23679m | 4.9m/s | 0°C | 0% | 0hPa | 2.6V | 18:12:15 | 01:49:24 | 00:00:00 | |
| BIOWL1-15 | 2026-09-01 00:39:24 | 50.98080 | 1.33625 | 199° | 16km/h | 23618m | 5.9m/s | 0°C | 0% | 0hPa | 2.7V | 18:12:15 | 01:49:13 | 00:00:00 | |
| BIOWL1-15 | 2026-09-01 00:39:13 | 50.98104 | 1.33639 | 174° | 11km/h | 23569m | 6.6m/s | 0°C | 0% | 0hPa | 2.6V | 18:12:15 | 01:49:04 | 00:00:00 | |
| DJ2DS-15 | 2026-09-01 00:39:12 | 50.98110 | 1.33635 | 150° | 16km/h | 23557m | 4.9m/s | -51.7°C | 1.0% | -1.0hPa | 2.7V | 00:00:00 | 00:00:00 | 00:00:00 | |
| DM0DOS-11 | 2026-09-01 00:38:23 | 50.98183 | 1.33497 | 313° | 7km/h | 23267m | 4.9m/s | -51°C | 3.7% | 0hPa | 2.7V | 08:30:00 | 01:48:08 | 00:00:00 | |
| DM0DOS-11 | 2026-09-01 00:38:12 | 50.98161 | 1.33514 | 338° | 18km/h | 23207m | 4.6m/s | -51.9°C | 3.9% | 0hPa | 2.7V | 08:30:00 | 01:47:57 | 00:00:00 | |
| DM0DOS-11 | 2026-09-01 00:37:56 | 50.98113 | 1.33560 | 335° | 9km/h | 23134m | 4.8m/s | -51.8°C | 3.9% | 0hPa | 2.7V | 08:30:00 | 01:47:43 | 00:00:00 | |
| DJ2DS-15 | 2026-09-01 00:37:24 | 50.98113 | 1.33608 | 180° | 13km/h | 22985m | 5.6m/s | -51.8°C | 1.0% | -1.0hPa | 2.6V | 00:00:00 | 00:00:00 | 00:00:00 | |
| DM0DOS-11 | 2026-09-01 00:37:16 | 50.98140 | 1.33607 | 149° | 11km/h | 22936m | 3.9m/s | -51.9°C | 3.9% | 0hPa | 2.6V | 08:30:00 | 01:47:04 | 00:00:00 | |
| BIOWL1-15 | 2026-09-01 00:37:12 | 50.98185 | 1.33547 | 139° | 15km/h | 22862m | 5.1m/s | -51.9°C | 0.4% | 0hPa | 2.6V | 18:12:15 | 01:46:50 | 00:00:00 | |
| BIOWL9-15 | 2026-09-01 00:37:08 | 50.98162 | 1.33575 | 138° | 16km/h | 22905m | 4.8m/s | -51.9°C | 1.0% | -1.0hPa | 2.6V | 00:00:00 | 00:00:00 | 00:00:00 | |
| BIOWL1-15 | 2026-09-01 00:36:52 | 50.98222 | 1.33501 | 132° | 15km/h | 22805m | 5.7m/s | -52.4°C | 0.5% | 0hPa | 2.6V | 18:12:15 | 01:46:39 | 00:00:00 | |
| DM0DOS-11 | 2026-09-01 00:36:51 | 50.98217 | 1.33507 | 149° | 13km/h | 22814m | 4.2m/s | -52.3°C | 4% | 0hPa | 2.6V | 08:30:00 | 01:46:41 | 00:00:00 | |
| DJ2DS-15 | 2026-09-01 00:36:48 | 50.98225 | 1.33496 | 124° | 15km/h | 22799m | 4.8m/s | -52.4°C | 1.0% | -1.0hPa | 2.6V | 00:00:00 | 00:00:00 | 00:00:00 | |
| BIOWL1-15 | 2026-09-01 00:36:42 | 50.98234 | 1.33452 | 99° | 18km/h | 22763m | 5.3m/s | -52.4°C | 0.5% | 0hPa | 2.6V | 18:12:15 | 01:46:31 | 00:00:00 | |
| BIOWL1-15 | 2026-09-01 00:36:32 | 50.98242 | 1.33400 | 91° | 9km/h | 22721m | 5.1m/s | -52.2°C | 0.5% | 0hPa | 2.7V | 18:12:15 | 01:46:23 | 00:00:00 | |
| BIOWL1-15 | 2026-09-01 00:36:26 | 50.98232 | 1.33348 | 85° | 20km/h | 22669m | 4.9m/s | -52.3°C | 0.4% | 0hPa | 2.7V | 18:12:15 | 01:46:13 | 00:00:00 | |
| BIOWL1-15 | 2026-09-01 00:36:12 | 50.98197 | 1.33283 | 29° | 18km/h | 22591m | 6m/s | -52.7°C | 0.5% | 0hPa | 2.7V | 18:12:15 | 01:45:58 | 00:00:00 | |
| BIOWL9-15 | 2026-09-01 00:36:06 | 50.98188 | 1.33277 | 19° | 20km/h | 22580m | 5.1m/s | -52.8°C | 1.0% | -1.0hPa | 2.6V | 00:00:00 | 00:00:00 | 00:00:00 | |
| BIOWL1-15 | 2026-09-01 00:35:57 | 50.98093 | 1.33270 | 349° | 16km/h | 22477m | 6.4m/s | -52.5°C | 0.5% | 0hPa | 2.6V | 18:12:15 | 01:45:36 | 00:00:00 | |
| BIOWL1-15 | 2026-09-01 00:35:45 | 50.98086 | 1.33271 | 3° | 15km/h | 22466m | 4.8m/s | -52.5°C | 0.6% | 0hPa | 2.6V | 18:12:15 | 01:45:34 | 00:00:00 | |
| BIOWL1-15 | 2026-09-01 00:35:35 | 50.98054 | 1.33270 | 22° | 11km/h | 22413m | 4.8m/s | -52.4°C | 0.6% | 0hPa | 2.6V | 18:12:15 | 01:45:24 | 00:00:00 | |
| BIOWL9-15 | 2026-09-01 00:35:35 | 50.98057 | 1.33271 | 10° | 11km/h | 22418m | 4.6m/s | -52.5°C | 1.0% | -1.0hPa | 2.7V | 00:00:00 | 00:00:00 | 00:00:00 | |
| BIOWL1-15 | 2026-09-01 00:35:23 | 50.98049 | 1.33236 | 191° | 7km/h | 22294m | 5.1m/s | -52.1°C | 0.5% | 0hPa | 2.7V | 18:12:15 | 01:45:02 | 00:00:00 | |
| BIOWL1-15 | 2026-09-01 00:35:11 | 50.98053 | 1.33237 | 182° | 9km/h | 22285m | 5.8m/s | -52.1°C | 0.5% | 0hPa | 2.7V | 18:12:15 | 01:45:00 | 00:00:00 | |
| BIOWL1-15 | 2026-09-01 00:34:58 | 50.98079 | 1.33220 | 180° | 5km/h | 22227m | 5.3m/s | -52°C | 0.5% | 0hPa | 2.6V | 18:12:15 | 01:44:49 | 00:00:00 | |
| DB0UT-7 | 2026-09-01 00:34:44 | 50.98091 | 1.33185 | 115° | 9km/h | 22157m | 5.8m/s | -51.8°C | 3.9% | 0hPa | 2.6V | 00:00:00 | 01:44:35 | 00:00:00 | |
| BIOWL1-15 | 2026-09-01 00:34:01 | 50.98090 | 1.33040 | 164° | 13km/h | 21916m | 5.7m/s | -52°C | 0.5% | 0hPa | 2.6V | 18:12:15 | 01:43:50 | 00:00:00 | |
| BIOWL1-15 | 2026-09-01 00:33:48 | 50.98105 | 1.33014 | 188° | 9km/h | 21849m | 5.6m/s | -51.9°C | 0.5% | 0hPa | 2.6V | 18:12:15 | 01:43:37 | 00:00:00 | |
| BIOWL1-15 | 2026-09-01 00:33:37 | 50.98128 | 1.32999 | 139° | 15km/h | 21803m | 4m/s | -51.8°C | 0.4% | 0hPa | 2.6V | 18:12:15 | 01:43:28 | 00:00:00 | |
| BIOWL1-15 | 2026-09-01 00:33:27 | 50.98158 | 1.32988 | 145° | 13km/h | 21751m | 4.4m/s | -51.9°C | 0.5% | 0hPa | 2.6V | 18:12:15 | 01:43:18 | 00:00:00 | |
| BIOWL1-15 | 2026-09-01 00:33:19 | 50.98189 | 1.32913 | 131° | 22km/h | 21678m | 5.8m/s | -51.8°C | 0.4% | 0hPa | 2.6V | 18:12:15 | 01:43:04 | 00:00:00 | |
| DM0DOS-11 | 2026-09-01 00:33:08 | 50.98208 | 1.32847 | 101° | 31km/h | 21641m | 4.7m/s | -52°C | 3.8% | 0hPa | 2.6V | 08:30:00 | 01:42:57 | 00:00:00 | |
| BIOWL1-15 | 2026-09-01 00:33:06 | 50.98215 | 1.32809 | 114° | 22km/h | 21620m | 5.7m/s | -52.3°C | 0.5% | 0hPa | 2.6V | 18:12:15 | 01:42:53 | 00:00:00 | |
| BIOWL1-15 | 2026-09-01 00:32:52 | 50.98232 | 1.32691 | 92° | 38km/h | 21569m | 5.6m/s | -52.5°C | 0.5% | 0hPa | 2.6V | 18:12:15 | 01:42:43 | 00:00:00 | |
| BIOWL1-15 | 2026-09-01 00:32:42 | 50.98230 | 1.32546 | 85° | 31km/h | 21517m | 5.7m/s | -52.6°C | 0.6% | 0hPa | 2.6V | 18:12:15 | 01:42:33 | 00:00:00 | |
| BIOWL1-15 | 2026-09-01 00:32:34 | 50.98210 | 1.32306 | 89° | 24km/h | 21402m | 4.2m/s | -52.6°C | 0.5% | 0hPa | 2.6V | 18:12:15 | 01:42:11 | 00:00:00 | |
| DM0DOS-11 | 2026-09-01 00:32:33 | 50.98217 | 1.32382 | 85° | 24km/h | 21442m | 6.2m/s | -52.4°C | 3.9% | 0hPa | 2.6V | 08:30:00 | 01:42:19 | 00:00:00 | |
| BIOWL1-15 | 2026-09-01 00:32:23 | 50.98210 | 1.32296 | 83° | 24km/h | 21396m | 5.7m/s | -52.6°C | 0.5% | 0hPa | 2.6V | 18:12:15 | 01:42:10 | 00:00:00 | |
| DM0DOS-11 | 2026-09-01 00:32:15 | 50.98201 | 1.32236 | 67° | 18km/h | 21359m | 4.4m/s | -52.7°C | 4.1% | 0hPa | 2.6V | 08:30:00 | 01:42:03 | 00:00:00 | |
| BIOWL1-15 | 2026-09-01 00:32:09 | 50.98198 | 1.32217 | 76° | 16km/h | 21345m | 3.8m/s | -52.7°C | 0.5% | 0hPa | 2.7V | 18:12:15 | 01:42:00 | 00:00:00 | |
| BIOWL1-15 | 2026-09-01 00:31:59 | 50.98154 | 1.32078 | 65° | 24km/h | 21256m | 3.6m/s | -53.2°C | 0.6% | 0hPa | 2.6V | 18:12:15 | 01:41:42 | 00:00:00 | |
| BIOWL1-15 | 2026-09-01 00:31:47 | 50.98130 | 1.32030 | 41° | 26km/h | 21226m | 3.5m/s | -53.2°C | 0.6% | 0hPa | 2.6V | 18:12:15 | 01:41:36 | 00:00:00 | |
| BIOWL1-15 | 2026-09-01 00:31:34 | 50.98075 | 1.31938 | 36° | 27km/h | 21170m | 4.2m/s | -53.1°C | 0.6% | 0hPa | 2.6V | 18:12:15 | 01:41:25 | 00:00:00 | |
| BIOWL1-15 | 2026-09-01 00:31:24 | 50.98014 | 1.31868 | 50° | 26km/h | 21116m | 4.3m/s | -52.7°C | 0.5% | 0hPa | 2.6V | 18:12:15 | 01:41:14 | 00:00:00 | |
| DB0UT-7 | 2026-09-01 00:31:19 | 50.97991 | 1.31842 | 21° | 24km/h | 21096m | 5.6m/s | -52.5°C | 4.0% | 0hPa | 2.7V | 00:00:00 | 01:41:10 | 00:00:00 | |
| DB0UT-7 | 2026-09-01 00:30:49 | 50.97858 | 1.31678 | 35° | 20km/h | 20948m | 4.2m/s | -53.0°C | 4.2% | 0hPa | 2.7V | 00:00:00 | 00:00:00 | 00:00:00 | |
| BIOWL1-15 | 2026-09-01 00:30:24 | 50.97714 | 1.31669 | 59° | 7km/h | 20736m | 5.1m/s | -52.1°C | 0.5% | 0hPa | 2.7V | 18:12:15 | 01:39:58 | 00:00:00 | |
| DM0DOS-11 | 2026-09-01 00:30:12 | 50.97715 | 1.31671 | 69° | 4km/h | 20740m | 4.2m/s | -52.1°C | 4% | 0hPa | 2.7V | 08:30:00 | 01:39:59 | 00:00:00 | |
| BIOWL1-15 | 2026-09-01 00:29:57 | 50.97713 | 1.31606 | 119° | 11km/h | 20638m | 5.3m/s | -51.8°C | 0.5% | 0hPa | 2.6V | 18:12:15 | 01:39:38 | 00:00:00 | |
| BIOWL9-15 | 2026-09-01 00:29:53 | 50.97712 | 1.31631 | 93° | 11km/h | 20667m | 5.2m/s | -51.6°C | 1.0% | -1.0hPa | 2.7V | 00:00:00 | 00:00:00 | 00:00:00 | |
| BIOWL1-15 | 2026-09-01 00:29:40 | 50.97727 | 1.31582 | 146° | 15km/h | 20603m | 5.8m/s | 0°C | 0% | 0hPa | 2.7V | 18:12:15 | 01:39:31 | 00:00:00 | |
| BIOWL1-15 | 2026-09-01 00:29:29 | 50.97760 | 1.31516 | 126° | 26km/h | 20546m | 5.9m/s | 0°C | 0% | 0hPa | 2.6V | 18:12:15 | 01:39:20 | 00:00:00 | |
| BIOWL1-15 | 2026-09-01 00:29:20 | 50.97780 | 1.31429 | 106° | 18km/h | 20491m | 4.3m/s | 0°C | 0% | 0hPa | 2.6V | 18:12:15 | 01:39:09 | 00:00:00 | |
| BIOWL1-15 | 2026-09-01 00:29:12 | 50.97788 | 1.31330 | 88° | 24km/h | 20441m | 5m/s | 0°C | 0% | 0hPa | 2.6V | 18:12:15 | 01:38:59 | 00:00:00 | |
| BIOWL1-15 | 2026-09-01 00:28:58 | 50.97770 | 1.31217 | 65° | 29km/h | 20389m | 5.2m/s | 0°C | 0% | 0hPa | 2.7V | 18:12:15 | 01:38:49 | 00:00:00 | |
| BIOWL9-15 | 2026-09-01 00:28:51 | 50.97742 | 1.31149 | 61° | 27km/h | 20355m | 5.3m/s | -52.5°C | 1.0% | -1.0hPa | 2.6V | 00:00:00 | 00:00:00 | 00:00:00 | |
| HTAHTA | 2026-09-01 00:28:02 | 50.97653 | 1.30331 | 59° | 29km/h | 20063m | 5.4m/s | 0°C | -1.0% | -1.0hPa | 2.6V | 00:00:00 | 00:00:00 | 00:00:00 | |
| BIOWL1-15 | 2026-09-01 00:27:28 | 50.97541 | 1.30035 | 61° | 33km/h | 19934m | 6m/s | -53.5°C | 0.6% | 0hPa | 2.6V | 18:12:15 | 01:37:16 | 00:00:00 | |
| BIOWL9-15 | 2026-09-01 00:27:18 | 50.97494 | 1.29952 | 45° | 26km/h | 19897m | 4.2m/s | -53.3°C | 1.1% | -1.0hPa | 2.7V | 00:00:00 | 00:00:00 | 00:00:00 | |
| BIOWL1-15 | 2026-09-01 00:27:16 | 50.97426 | 1.29826 | 66° | 22km/h | 19806m | 4.7m/s | -52.5°C | 0.6% | 0hPa | 2.7V | 18:12:15 | 01:36:50 | 00:00:00 | |
| DM0DOS-11 | 2026-09-01 00:27:16 | 50.97484 | 1.29939 | 39° | 22km/h | 19887m | 5.4m/s | -53.1°C | 4.3% | 0hPa | 2.6V | 08:30:00 | 01:37:06 | 00:00:00 | |
| DM0DOS-11 | 2026-09-01 00:27:11 | 50.97441 | 1.29860 | 47° | 20km/h | 19832m | 5.7m/s | -52.7°C | 4.1% | 0hPa | 2.7V | 08:30:00 | 01:36:55 | 00:00:00 | |
| BIOWL1-15 | 2026-09-01 00:27:10 | 50.97424 | 1.29819 | 60° | 20km/h | 19800m | 6.4m/s | -52.4°C | 0.6% | 0hPa | 2.6V | 18:12:15 | 01:36:49 | 00:00:00 | |
| HTAHTA | 2026-09-01 00:27:00 | 50.97426 | 1.29826 | 66° | 20km/h | 19806m | 4.7m/s | 0°C | -1.0% | -1.0hPa | 2.7V | 00:00:00 | 00:00:00 | 00:00:00 | |
| DM0DOS-11 | 2026-09-01 00:26:54 | 50.97414 | 1.29786 | 67° | 20km/h | 19774m | 4.3m/s | -52.2°C | 4% | 0hPa | 2.7V | 08:30:00 | 01:36:44 | 00:00:00 | |
| BIOWL1-15 | 2026-09-01 00:26:51 | 50.97406 | 1.29765 | 54° | 20km/h | 19759m | 4m/s | -52.2°C | 0.5% | 0hPa | 2.6V | 18:12:15 | 01:36:41 | 00:00:00 | |
| BIOWL1-15 | 2026-09-01 00:26:40 | 50.97390 | 1.29593 | 108° | 24km/h | 19645m | 4.5m/s | -52.5°C | 0.5% | 0hPa | 2.6V | 18:12:15 | 01:36:18 | 00:00:00 | |
| BIOWL1-15 | 2026-09-01 00:26:30 | 50.97395 | 1.29561 | 101° | 27km/h | 19629m | 4.1m/s | -52.5°C | 0.6% | 0hPa | 2.6V | 18:12:15 | 01:36:15 | 00:00:00 | |
| BIOWL1-15 | 2026-09-01 00:26:15 | 50.97411 | 1.29454 | 99° | 24km/h | 19572m | 5.3m/s | 0°C | 0% | 0hPa | 2.6V | 18:12:15 | 01:36:03 | 00:00:00 | |
| BIOWL1-15 | 2026-09-01 00:26:04 | 50.97403 | 1.29361 | 66° | 22km/h | 19525m | 4m/s | 0°C | 0% | 0hPa | 2.7V | 18:12:15 | 01:35:53 | 00:00:00 | |
| BIOWL1-15 | 2026-09-01 00:25:52 | 50.97390 | 1.29269 | 78° | 20km/h | 19480m | 3.6m/s | 0°C | 0% | 0hPa | 2.7V | 18:12:15 | 01:35:43 | 00:00:00 | |
| BIOWL9-15 | 2026-09-01 00:25:45 | 50.97384 | 1.29185 | 87° | 22km/h | 19431m | 4.8m/s | -52.1°C | 1.1% | -1.0hPa | 2.6V | 00:00:00 | 00:00:00 | 00:00:00 | |
| HTAHTA | 2026-09-01 00:25:27 | 50.97375 | 1.28669 | 76° | 24km/h | 19205m | 5.0m/s | 0°C | -1.0% | -1.0hPa | 2.6V | 00:00:00 | 00:00:00 | 00:00:00 | |
| HTAHTA | 2026-09-01 00:24:55 | 50.97365 | 1.28582 | 74° | 27km/h | 19165m | 5.6m/s | 0°C | -1.0% | -1.0hPa | 2.6V | 00:00:00 | 00:00:00 | 00:00:00 | |
| BIOWL9-15 | 2026-09-01 00:24:43 | 50.97277 | 1.28346 | 50° | 26km/h | 19046m | 3.8m/s | -51.1°C | 1.0% | -1.0hPa | 2.6V | 00:00:00 | 00:00:00 | 00:00:00 | |
| DM0DOS-11 | 2026-09-01 00:24:23 | 50.97255 | 1.28300 | 53° | 27km/h | 19021m | 4.2m/s | -51°C | 3.8% | 0hPa | 2.6V | 08:30:00 | 01:34:09 | 00:00:00 | |
| BIOWL1-15 | 2026-09-01 00:24:19 | 50.97259 | 1.28309 | 54° | 29km/h | 19026m | 5.9m/s | -51°C | 0.4% | 0hPa | 2.6V | 18:12:15 | 01:34:10 | 00:00:00 | |
| BIOWL1-15 | 2026-09-01 00:24:08 | 50.97200 | 1.28135 | 80° | 31km/h | 18944m | 4.9m/s | -51.3°C | 0.5% | 0hPa | 2.6V | 18:12:15 | 01:33:53 | 00:00:00 | |
| DM0DOS-11 | 2026-09-01 00:24:08 | 50.97207 | 1.28171 | 69° | 33km/h | 18957m | 4.9m/s | -51.4°C | 3.9% | 0hPa | 2.7V | 08:30:00 | 01:33:56 | 00:00:00 | |
| HTAHTA | 2026-09-01 00:23:53 | 50.97156 | 1.28007 | 70° | 26km/h | 18885m | 4.3m/s | 0°C | -1.0% | -1.0hPa | 2.6V | 00:00:00 | 00:00:00 | 00:00:00 | |
| BIOWL1-15 | 2026-09-01 00:23:52 | 50.97137 | 1.27941 | 57° | 26km/h | 18853m | 4.5m/s | -51.3°C | 0.5% | 0hPa | 2.6V | 18:12:15 | 01:33:34 | 00:00:00 | |
| BIOWL7-15 | 2026-09-01 00:23:51 | 50.97162 | 1.28027 | 61° | 29km/h | 18895m | 5.8m/s | 0°C | 0% | 0hPa | 2.6V | 00:00:00 | 00:00:00 | 00:00:00 | |
| BIOWL1-15 | 2026-09-01 00:23:42 | 50.97102 | 1.27889 | 44° | 18km/h | 18810m | 4.3m/s | -51.2°C | 0.4% | 0hPa | 2.6V | 18:12:15 | 01:33:25 | 00:00:00 | |
| DM0DOS-11 | 2026-09-01 00:23:42 | 50.97121 | 1.27917 | 32° | 20km/h | 18834m | 4.2m/s | -51.1°C | 3.8% | 0hPa | 2.7V | 08:30:00 | 01:33:30 | 00:00:00 | |
| BIOWL9-15 | 2026-09-01 00:23:41 | 50.97125 | 1.27921 | 35° | 20km/h | 18838m | 4.6m/s | -51.2°C | 1.0% | -1.0hPa | 2.6V | 00:00:00 | 00:00:00 | 00:00:00 | |
| DM0DOS-11 | 2026-09-01 00:23:32 | 50.97086 | 1.27856 | 53° | 20km/h | 18786m | 5m/s | -51.3°C | 3.8% | 0hPa | 2.6V | 08:30:00 | 01:33:20 | 00:00:00 | |
| BIOWL1-15 | 2026-09-01 00:23:24 | 50.97065 | 1.27814 | 46° | 22km/h | 18756m | 4.6m/s | -51.2°C | 0.4% | 0hPa | 2.6V | 18:12:15 | 01:33:14 | 00:00:00 | |
| BIOWL1-15 | 2026-09-01 00:23:14 | 50.97003 | 1.27561 | 71° | 38km/h | 18657m | 4.1m/s | -51.2°C | 0.5% | 0hPa | 2.6V | 18:12:15 | 01:32:53 | 00:00:00 | |
| BIOWL1-15 | 2026-09-01 00:23:04 | 50.96997 | 1.27533 | 70° | 35km/h | 18648m | 5.6m/s | -51.1°C | 0.4% | 0hPa | 2.7V | 18:12:15 | 01:32:51 | 00:00:00 | |
| BIOWL1-15 | 2026-09-01 00:22:50 | 50.96969 | 1.27407 | 69° | 31km/h | 18592m | 5.2m/s | -51.1°C | 0.4% | 0hPa | 2.6V | 18:12:15 | 01:32:40 | 00:00:00 | |
| BIOWL1-15 | 2026-09-01 00:22:28 | 50.96922 | 1.27076 | 79° | 38km/h | 18446m | 4.8m/s | -50.8°C | 0.4% | 0hPa | 2.6V | 18:12:15 | 01:32:09 | 00:00:00 | |
| BIOWL1-15 | 2026-09-01 00:22:17 | 50.96917 | 1.27032 | 87° | 37km/h | 18432m | 3.5m/s | -50.9°C | 0.4% | 0hPa | 2.7V | 18:12:15 | 01:32:06 | 00:00:00 | |
| BIOWL1-15 | 2026-09-01 00:22:04 | 50.96916 | 1.26872 | 88° | 44km/h | 18384m | 4.3m/s | -51°C | 0.4% | 0hPa | 2.6V | 18:12:15 | 01:31:55 | 00:00:00 | |
| BIOWL1-15 | 2026-09-01 00:21:56 | 50.96891 | 1.26644 | 78° | 42km/h | 18322m | 4.4m/s | -50.9°C | 0.4% | 0hPa | 2.6V | 18:12:15 | 01:31:42 | 00:00:00 | |
| DM0DOS-11 | 2026-09-01 00:21:50 | 50.96882 | 1.26538 | 79° | 42km/h | 18296m | 4.7m/s | -50.9°C | 3.7% | 0hPa | 2.6V | 08:30:00 | 01:31:36 | 00:00:00 | |
| BIOWL1-15 | 2026-09-01 00:21:42 | 50.96877 | 1.26495 | 77° | 33km/h | 18281m | 4.2m/s | -50.9°C | 0.3% | 0hPa | 2.7V | 18:12:15 | 01:31:33 | 00:00:00 | |
| DM0DOS-11 | 2026-09-01 00:21:40 | 50.96864 | 1.26399 | 78° | 40km/h | 18248m | 4.8m/s | -51.1°C | 3.8% | 0hPa | 2.7V | 08:30:00 | 01:31:26 | 00:00:00 | |
| BIOWL9-15 | 2026-09-01 00:21:36 | 50.96865 | 1.26414 | 79° | 37km/h | 18253m | 4.8m/s | -51.0°C | 1.0% | -1.0hPa | 2.7V | 00:00:00 | 00:00:00 | 00:00:00 | |
| BIOWL1-15 | 2026-09-01 00:21:34 | 50.96808 | 1.26036 | 66° | 33km/h | 18131m | 4.6m/s | -51°C | 0.4% | 0hPa | 2.7V | 18:12:15 | 01:31:00 | 00:00:00 | |
| DM0DOS-11 | 2026-09-01 00:21:30 | 50.96847 | 1.26262 | 78° | 31km/h | 18203m | 5.2m/s | -51.1°C | 3.8% | 0hPa | 2.6V | 08:30:00 | 01:31:16 | 00:00:00 | |
| BIOWL1-15 | 2026-09-01 00:21:23 | 50.96801 | 1.26011 | 70° | 37km/h | 18122m | 4.4m/s | -51°C | 0.4% | 0hPa | 2.6V | 18:12:15 | 01:30:58 | 00:00:00 | |
| BIOWL7-15 | 2026-09-01 00:21:19 | 50.96835 | 1.26175 | 79° | 44km/h | 18177m | 5.4m/s | 0°C | 0% | 0hPa | 2.7V | 00:00:00 | 00:00:00 | 00:00:00 | |
| DM0DOS-11 | 2026-09-01 00:21:07 | 50.96786 | 1.25945 | 67° | 31km/h | 18097m | 4.1m/s | -50.9°C | 3.7% | 0hPa | 2.7V | 08:30:00 | 01:30:53 | 00:00:00 | |
| BIOWL1-15 | 2026-09-01 00:21:02 | 50.96781 | 1.25924 | 70° | 27km/h | 18087m | 4.2m/s | -50.9°C | 0.4% | 0hPa | 2.6V | 18:12:15 | 01:30:51 | 00:00:00 | |
| DM0DOS-11 | 2026-09-01 00:20:53 | 50.96757 | 1.25843 | 67° | 33km/h | 18054m | 3.9m/s | -50.8°C | 3.7% | 0hPa | 2.6V | 08:30:00 | 01:30:43 | 00:00:00 | |
| BIOWL1-15 | 2026-09-01 00:20:50 | 50.96752 | 1.25819 | 77° | 29km/h | 18045m | 4.5m/s | -51°C | 0.4% | 0hPa | 2.7V | 18:12:15 | 01:30:41 | 00:00:00 | |
| DM0DOS-11 | 2026-09-01 00:20:47 | 50.96734 | 1.25720 | 70° | 35km/h | 18008m | 4.2m/s | -51°C | 3.8% | 0hPa | 2.7V | 08:30:00 | 01:30:33 | 00:00:00 | |
| DB0UT-7 | 2026-09-01 00:20:33 | 50.96714 | 1.25599 | 74° | 47km/h | 17969m | 4.3m/s | -51.0°C | 3.8% | 0hPa | 2.6V | 00:00:00 | 00:00:00 | 00:00:00 | |
| BIOWL1-15 | 2026-09-01 00:19:50 | 50.96644 | 1.24963 | 81° | 37km/h | 17776m | 5.1m/s | -51.1°C | 0.4% | 0hPa | 2.7V | 18:12:15 | 01:29:41 | 00:00:00 | |
| BIOWL1-15 | 2026-09-01 00:19:39 | 50.96627 | 1.24672 | 89° | 47km/h | 17709m | 4.2m/s | -51.3°C | 0.4% | 0hPa | 2.6V | 18:12:15 | 01:29:26 | 00:00:00 | |
| BIOWL1-15 | 2026-09-01 00:19:25 | 50.96580 | 1.24372 | 69° | 46km/h | 17643m | 4.4m/s | -51.3°C | 0.4% | 0hPa | 2.6V | 18:12:15 | 01:29:11 | 00:00:00 | |
| BIOWL1-15 | 2026-09-01 00:19:15 | 50.96542 | 1.24218 | 71° | 55km/h | 17608m | 4.7m/s | -51.3°C | 0.4% | 0hPa | 2.6V | 18:12:15 | 01:29:03 | 00:00:00 | |
| BIOWL1-15 | 2026-09-01 00:19:03 | 50.96394 | 1.23726 | 65° | 53km/h | 17485m | 4.8m/s | -51.5°C | 0.4% | 0hPa | 2.6V | 18:12:15 | 01:28:36 | 00:00:00 | |
| BIOWL9-15 | 2026-09-01 00:19:01 | 50.96483 | 1.24013 | 61° | 42km/h | 17557m | 4.0m/s | 0°C | -1.0% | -1.0hPa | 2.7V | 00:00:00 | 00:00:00 | 00:00:00 | |
| BIOWL1-15 | 2026-09-01 00:18:48 | 50.96381 | 1.23688 | 62° | 53km/h | 17476m | 4.8m/s | -51.5°C | 0.4% | 0hPa | 2.7V | 18:12:15 | 01:28:34 | 00:00:00 | |
| BIOWL7-15 | 2026-09-01 00:18:45 | 50.96393 | 1.23726 | 66° | 53km/h | 17485m | 4.8m/s | 0°C | 0% | 0hPa | 2.7V | 00:00:00 | 00:00:00 | 00:00:00 | |
| BIOWL1-15 | 2026-09-01 00:18:35 | 50.96282 | 1.23324 | 73° | 42km/h | 17372m | 4.5m/s | -51.2°C | 0.4% | 0hPa | 2.7V | 18:12:15 | 01:28:12 | 00:00:00 | |
| BIOWL1-15 | 2026-09-01 00:18:27 | 50.96265 | 1.23213 | 69° | 37km/h | 17339m | 5.3m/s | -51.2°C | 0.5% | 0hPa | 2.7V | 18:12:15 | 01:28:05 | 00:00:00 | |
| DM0DOS-11 | 2026-09-01 00:18:14 | 50.96255 | 1.23173 | 74° | 35km/h | 17325m | 5.7m/s | -51.3°C | 3.8% | 0hPa | 2.6V | 08:30:00 | 01:28:02 | 00:00:00 | |
| BIOWL1-15 | 2026-09-01 00:18:09 | 50.96244 | 1.23092 | 81° | 47km/h | 17300m | 6.1m/s | -51.4°C | 0.4% | 0hPa | 2.6V | 18:12:15 | 01:27:57 | 00:00:00 | |
| DM0DOS-11 | 2026-09-01 00:18:03 | 50.96236 | 1.22999 | 81° | 46km/h | 17276m | 5.1m/s | -51.4°C | 3.8% | 0hPa | 2.7V | 08:30:00 | 01:27:52 | 00:00:00 | |
| BIOWL1-15 | 2026-09-01 00:17:55 | 50.96209 | 1.22826 | 78° | 46km/h | 17230m | 4.9m/s | -51.6°C | 0.4% | 0hPa | 2.6V | 18:12:15 | 01:27:42 | 00:00:00 | |
| DM0DOS-11 | 2026-09-01 00:17:53 | 50.96209 | 1.22826 | 77° | 46km/h | 17230m | 4.9m/s | -51.6°C | 3.9% | 0hPa | 2.6V | 08:30:00 | 01:27:42 | 00:00:00 | |
| DM0DOS-11 | 2026-09-01 00:17:43 | 50.96183 | 1.22673 | 72° | 37km/h | 17184m | 4.2m/s | -51.6°C | 3.9% | 0hPa | 2.7V | 08:30:00 | 01:27:32 | 00:00:00 | |
| BIOWL1-15 | 2026-09-01 00:17:41 | 50.96161 | 1.22500 | 87° | 31km/h | 17129m | 4.2m/s | -51.7°C | 0.5% | 0hPa | 2.6V | 18:12:15 | 01:27:20 | 00:00:00 | |
| DB0UT-7 | 2026-09-01 00:17:39 | 50.96179 | 1.22644 | 78° | 37km/h | 17175m | 4.0m/s | -51.5°C | 3.8% | 0hPa | 2.7V | 00:00:00 | 01:27:30 | 08:30:00 | |
| DM0DOS-11 | 2026-09-01 00:17:32 | 50.96162 | 1.22526 | 80° | 35km/h | 17138m | 4.4m/s | -51.7°C | 3.8% | 0hPa | 2.6V | 08:30:00 | 01:27:22 | 00:00:00 | |
| BIOWL9-15 | 2026-09-01 00:17:28 | 50.96160 | 1.22487 | 81° | 29km/h | 17125m | 5.6m/s | -51.7°C | 1.1% | -1.0hPa | 2.6V | 00:00:00 | 00:00:00 | 00:00:00 | |
| DM0DOS-11 | 2026-09-01 00:17:22 | 50.96150 | 1.22387 | 81° | 42km/h | 17090m | 5.1m/s | -51.7°C | 3.9% | 0hPa | 2.6V | 08:30:00 | 01:27:12 | 00:00:00 | |
| BIOWL1-15 | 2026-09-01 00:17:20 | 50.96149 | 1.22371 | 86° | 42km/h | 17085m | 4.9m/s | -51.8°C | 0.5% | 0hPa | 2.7V | 18:12:15 | 01:27:11 | 00:00:00 | |
| DM0DOS-11 | 2026-09-01 00:17:13 | 50.96151 | 1.22237 | 95° | 33km/h | 17045m | 3.4m/s | -52.1°C | 4% | 0hPa | 2.7V | 08:30:00 | 01:27:02 | 00:00:00 | |
| BIOWL1-15 | 2026-09-01 00:17:10 | 50.96150 | 1.22142 | 85° | 46km/h | 17016m | 5.6m/s | -52.1°C | 0.6% | 0hPa | 2.7V | 18:12:15 | 01:26:56 | 00:00:00 | |
| DB0UT-7 | 2026-09-01 00:17:09 | 50.96153 | 1.22208 | 94° | 47km/h | 17036m | 4.5m/s | -52.1°C | 4.0% | 0hPa | 2.7V | 00:00:00 | 00:00:00 | 00:00:00 | |
| BIOWL1-15 | 2026-09-01 00:16:54 | 50.96142 | 1.21900 | 91° | 44km/h | 16947m | 4.6m/s | -52.2°C | 0.5% | 0hPa | 2.7V | 18:12:15 | 01:26:41 | 00:00:00 | |
| BIOWL1-15 | 2026-09-01 00:16:44 | 50.96146 | 1.21803 | 96° | 40km/h | 16917m | 5.6m/s | -52.3°C | 0.6% | 0hPa | 2.7V | 18:12:15 | 01:26:35 | 00:00:00 | |
| BIOWL1-15 | 2026-09-01 00:16:33 | 50.96150 | 1.21588 | 87° | 44km/h | 16862m | 5.3m/s | -52.1°C | 0.5% | 0hPa | 2.6V | 18:12:15 | 01:26:23 | 00:00:00 | |
| BIOWL1-15 | 2026-09-01 00:16:22 | 50.96146 | 1.21352 | 84° | 38km/h | 16801m | 4.6m/s | -52.4°C | 0.6% | 0hPa | 2.6V | 18:12:15 | 01:26:10 | 00:00:00 | |
| BIOWL1-15 | 2026-09-01 00:16:11 | 50.96128 | 1.21173 | 81° | 49km/h | 16757m | 5.2m/s | -52.4°C | 0.6% | 0hPa | 2.7V | 18:12:15 | 01:26:00 | 00:00:00 | |
| BIOWL1-15 | 2026-09-01 00:15:59 | 50.96064 | 1.20861 | 66° | 44km/h | 16677m | 4.4m/s | -52.6°C | 0.6% | 0hPa | 2.6V | 18:12:15 | 01:25:43 | 00:00:00 | |
| BIOWL9-15 | 2026-09-01 00:15:55 | 50.96073 | 1.20894 | 67° | 46km/h | 16687m | 4.4m/s | -52.5°C | -1.0% | -1.0hPa | 2.7V | 00:00:00 | 00:00:00 | 00:00:00 | |
| BIOWL1-15 | 2026-09-01 00:15:48 | 50.96014 | 1.20659 | 60° | 46km/h | 16625m | 5.6m/s | -52.9°C | 0.6% | 0hPa | 2.7V | 18:12:15 | 01:25:32 | 00:00:00 | |
| BIOWL1-15 | 2026-09-01 00:15:36 | 50.95979 | 1.20571 | 62° | 47km/h | 16598m | 4.7m/s | -53.1°C | 0.6% | 0hPa | 2.7V | 18:12:15 | 01:25:26 | 00:00:00 | |
| DM0DOS-11 | 2026-09-01 00:15:35 | 50.95962 | 1.20485 | 71° | 42km/h | 16577m | 4.3m/s | -53.3°C | 4.3% | 0hPa | 2.6V | 08:30:00 | 01:25:21 | 00:00:00 | |
| BIOWL1-15 | 2026-09-01 00:15:25 | 50.95935 | 1.20413 | 51° | 40km/h | 16553m | 3.7m/s | -53.3°C | 0.7% | 0hPa | 2.6V | 18:12:15 | 01:25:16 | 00:00:00 | |
| DM0DOS-11 | 2026-09-01 00:15:25 | 50.95907 | 1.20343 | 66° | 40km/h | 16531m | 3.6m/s | -53.2°C | 4.3% | 0hPa | 2.7V | 08:30:00 | 01:25:11 | 00:00:00 | |
| BIOWL1-15 | 2026-09-01 00:15:17 | 50.95853 | 1.20167 | 77° | 38km/h | 16469m | 5.2m/s | 0°C | 0% | 0hPa | 2.7V | 18:12:15 | 01:24:58 | 00:00:00 | |
| DM0DOS-11 | 2026-09-01 00:15:13 | 50.95863 | 1.20209 | 62° | 35km/h | 16484m | 3.9m/s | -53.1°C | 4.2% | 0hPa | 2.6V | 08:30:00 | 01:25:01 | 00:00:00 | |
| DM0DOS-11 | 2026-09-01 00:15:02 | 50.95835 | 1.20060 | 73° | 37km/h | 16437m | 3.4m/s | -52.9°C | 4.2% | 0hPa | 2.7V | 08:30:00 | 01:24:51 | 00:00:00 | |
| BIOWL1-15 | 2026-09-01 00:15:01 | 50.95838 | 1.20074 | 70° | 37km/h | 16441m | 4.4m/s | 0°C | 0% | 0hPa | 2.6V | 18:12:15 | 01:24:52 | 00:00:00 | |
| BIOWL1-15 | 2026-09-01 00:14:53 | 50.95807 | 1.19923 | 76° | 40km/h | 16395m | 4.1m/s | 0°C | 0% | 0hPa | 2.7V | 18:12:15 | 01:24:42 | 00:00:00 | |
| DM0DOS-11 | 2026-09-01 00:14:51 | 50.95804 | 1.19908 | 74° | 38km/h | 16391m | 4.7m/s | -53.2°C | 4.2% | 0hPa | 2.6V | 08:30:00 | 01:24:41 | 00:00:00 | |
| DM0DOS-11 | 2026-09-01 00:14:41 | 50.95792 | 1.19758 | 98° | 42km/h | 16341m | 5.2m/s | -53.2°C | 4.2% | 0hPa | 2.6V | 08:30:00 | 01:24:31 | 00:00:00 | |
| BIOWL1-15 | 2026-09-01 00:14:40 | 50.95803 | 1.19657 | 97° | 42km/h | 16312m | 5.2m/s | 0°C | 0% | 0hPa | 2.6V | 18:12:15 | 01:24:25 | 00:00:00 | |
| DM0DOS-11 | 2026-09-01 00:14:29 | 50.95810 | 1.19553 | 98° | 38km/h | 16280m | 4.5m/s | -53.2°C | 4.2% | 0hPa | 2.6V | 08:30:00 | 01:24:18 | 00:00:00 | |
| BIOWL1-15 | 2026-09-01 00:14:28 | 50.95810 | 1.19553 | 99° | 38km/h | 16280m | 4.5m/s | 0°C | 0% | 0hPa | 2.6V | 18:12:15 | 01:24:18 | 00:00:00 | |
| DB0UT-7 | 2026-09-01 00:13:58 | 50.95845 | 1.19016 | 96° | 49km/h | 16148m | 4.9m/s | -54.0°C | 4.5% | 0hPa | 2.7V | 00:00:00 | 01:23:49 | 00:00:00 | |
| DM0DOS-11 | 2026-09-01 00:13:09 | 50.95925 | 1.18033 | 100° | 55km/h | 15915m | 5m/s | -54.1°C | 4.5% | 0hPa | 2.7V | 08:30:00 | 01:22:57 | 00:00:00 | |
| DM0DOS-11 | 2026-09-01 00:12:57 | 50.95948 | 1.17828 | 101° | 55km/h | 15867m | 3.9m/s | -54.1°C | 4.5% | 0hPa | 2.6V | 08:30:00 | 01:22:46 | 00:00:00 | |
| DM0DOS-11 | 2026-09-01 00:12:50 | 50.95977 | 1.17614 | 100° | 53km/h | 15822m | 3.5m/s | -54.2°C | 4.5% | 0hPa | 2.6V | 08:30:00 | 01:22:36 | 00:00:00 | |
| DM0DOS-11 | 2026-09-01 00:12:40 | 50.95994 | 1.17410 | 91° | 49km/h | 15779m | 2.7m/s | -54.6°C | 4.7% | 0hPa | 2.6V | 08:30:00 | 01:22:26 | 00:00:00 | |
| DB0UT-7 | 2026-09-01 00:12:30 | 50.95999 | 1.17309 | 95° | 57km/h | 15758m | 3.5m/s | -54.4°C | 4.6% | 0hPa | 2.7V | 00:00:00 | 00:00:00 | 00:00:00 | |
| DM0DOS-11 | 2026-09-01 00:12:29 | 50.96004 | 1.17206 | 95° | 53km/h | 15736m | 4.2m/s | -54.5°C | 4.6% | 0hPa | 2.7V | 08:30:00 | 01:22:16 | 00:00:00 | |
| DM0DOS-11 | 2026-09-01 00:12:18 | 50.96011 | 1.16989 | 93° | 60km/h | 15693m | 4.2m/s | -54.8°C | 4.8% | 0hPa | 2.7V | 08:30:00 | 01:22:06 | 00:00:00 | |
| DM0DOS-11 | 2026-09-01 00:12:10 | 50.96028 | 1.16752 | 92° | 62km/h | 15651m | 4.7m/s | -54.8°C | 4.8% | 0hPa | 2.6V | 08:30:00 | 01:21:56 | 00:00:00 | |
| DM0DOS-11 | 2026-09-01 00:12:00 | 50.96041 | 1.16520 | 93° | 57km/h | 15607m | 4.1m/s | -54.4°C | 4.6% | 0hPa | 2.7V | 08:30:00 | 01:21:46 | 00:00:00 | |
| DB0UT-7 | 2026-09-01 00:12:00 | 50.96034 | 1.16631 | 95° | 57km/h | 15629m | 4.7m/s | -54.5°C | 4.7% | 0hPa | 2.7V | 00:00:00 | 01:21:51 | 00:00:00 | |
| DM0DOS-11 | 2026-09-01 00:11:50 | 50.96054 | 1.16297 | 100° | 57km/h | 15565m | 5.5m/s | -54.3°C | 4.6% | 0hPa | 2.6V | 08:30:00 | 01:21:36 | 00:00:00 | |
| DM0DOS-11 | 2026-09-01 00:11:40 | 50.96077 | 1.16066 | 101° | 60km/h | 15523m | 4.3m/s | -54.1°C | 4.6% | 0hPa | 2.7V | 08:30:00 | 01:21:26 | 00:00:00 | |
| DM0DOS-11 | 2026-09-01 00:11:30 | 50.96100 | 1.15837 | 99° | 58km/h | 15478m | 5.1m/s | -54.1°C | 4.6% | 0hPa | 2.7V | 08:30:00 | 01:21:16 | 00:00:00 | |
| DM0DOS-11 | 2026-09-01 00:11:20 | 50.96115 | 1.15611 | 99° | 55km/h | 15433m | 4.3m/s | -54°C | 4.6% | 0hPa | 2.6V | 08:30:00 | 01:21:06 | 00:00:00 | |
| DM0DOS-11 | 2026-09-01 00:11:08 | 50.96139 | 1.15389 | 96° | 60km/h | 15387m | 3.9m/s | -53.9°C | 4.7% | 0hPa | 2.7V | 08:30:00 | 01:20:56 | 00:00:00 | |
| DM0DOS-11 | 2026-09-01 00:11:00 | 50.96152 | 1.15161 | 96° | 58km/h | 15343m | 4.3m/s | -53.6°C | 4.6% | 0hPa | 2.6V | 08:30:00 | 01:20:46 | 00:00:00 | |
| DM0DOS-11 | 2026-09-01 00:10:50 | 50.96164 | 1.14929 | 92° | 58km/h | 15297m | 5.3m/s | -53.4°C | 4.5% | 0hPa | 2.7V | 08:30:00 | 01:20:36 | 00:00:00 | |
| DB0UT-7 | 2026-09-01 00:10:47 | 50.96162 | 1.14976 | 92° | 62km/h | 15308m | 5.1m/s | -53.4°C | 4.5% | 0hPa | 2.7V | 00:00:00 | 00:00:00 | 00:00:00 | |
| DM0DOS-11 | 2026-09-01 00:10:39 | 50.96177 | 1.14686 | 93° | 57km/h | 15250m | 3.3m/s | -53.2°C | 4.6% | 0hPa | 2.7V | 08:30:00 | 01:20:26 | 00:00:00 | |
| DM0DOS-11 | 2026-09-01 00:10:30 | 50.96186 | 1.14438 | 94° | 62km/h | 15207m | 4.9m/s | -53.1°C | 4.5% | 0hPa | 2.6V | 08:30:00 | 01:20:16 | 00:00:00 | |
| DM0DOS-11 | 2026-09-01 00:10:21 | 50.96191 | 1.14177 | 90° | 64km/h | 15167m | 5.2m/s | -52.8°C | 4.4% | 0hPa | 2.7V | 08:30:00 | 01:20:06 | 00:00:00 | |
| DB0UT-7 | 2026-09-01 00:10:17 | 50.96191 | 1.14229 | 89° | 62km/h | 15176m | 4.0m/s | -52.8°C | 4.4% | 0hPa | 2.6V | 00:00:00 | 01:20:08 | 00:00:00 | |
| BIOWL9-15 | 2026-09-01 00:10:13 | 50.96191 | 1.14126 | 90° | 60km/h | 15159m | 5.1m/s | -52.8°C | 1.5% | -1.0hPa | 2.6V | 00:00:00 | 00:00:00 | 00:00:00 | |
| DM0DOS-11 | 2026-09-01 00:10:10 | 50.96201 | 1.13934 | 94° | 60km/h | 15122m | 4.1m/s | -53.1°C | 4.5% | 0hPa | 2.6V | 08:30:00 | 01:19:56 | 00:00:00 | |
| BIOWL1-15 | 2026-09-01 00:10:10 | 50.96199 | 1.13959 | 97° | 60km/h | 15127m | 5.6m/s | -53.1°C | 1% | 0hPa | 2.6V | 18:12:15 | 01:19:57 | 00:00:00 | |
| DM0DOS-11 | 2026-09-01 00:10:00 | 50.96209 | 1.13689 | 93° | 58km/h | 15076m | 4.2m/s | -52.9°C | 4.4% | 0hPa | 2.6V | 08:30:00 | 01:19:46 | 00:00:00 | |
| BIOWL1-15 | 2026-09-01 00:09:57 | 50.96211 | 1.13642 | 93° | 58km/h | 15067m | 4.7m/s | -52.9°C | 1% | 0hPa | 2.7V | 18:12:15 | 01:19:44 | 00:00:00 | |
| DM0DOS-11 | 2026-09-01 00:09:50 | 50.96222 | 1.13446 | 94° | 58km/h | 15033m | 4.8m/s | -52.7°C | 4.5% | 0hPa | 2.7V | 08:30:00 | 01:19:36 | 00:00:00 | |
| BIOWL1-15 | 2026-09-01 00:09:43 | 50.96223 | 1.13400 | 94° | 57km/h | 15025m | 4.1m/s | -52.7°C | 1% | 0hPa | 2.6V | 18:12:15 | 01:19:34 | 00:00:00 | |
| BIOWL9-15 | 2026-09-01 00:09:42 | 50.96224 | 1.13377 | 91° | 58km/h | 15021m | 4.5m/s | -52.6°C | 1.6% | -1.0hPa | 2.8V | 00:00:00 | 00:00:00 | 00:00:00 | |
| DM0DOS-11 | 2026-09-01 00:09:40 | 50.96230 | 1.13203 | 97° | 66km/h | 14988m | 4.8m/s | -52.5°C | 4.3% | 0hPa | 2.8V | 08:30:00 | 01:19:26 | 00:00:00 | |
| BIOWL1-15 | 2026-09-01 00:09:32 | 50.96231 | 1.13000 | 86° | 62km/h | 14954m | 5.2m/s | -52.4°C | 1% | 0hPa | 2.7V | 18:12:15 | 01:19:18 | 00:00:00 | |
| DM0DOS-11 | 2026-09-01 00:09:31 | 50.96230 | 1.12950 | 89° | 62km/h | 14945m | 4.9m/s | -52.5°C | 4.3% | 0hPa | 2.6V | 08:30:00 | 01:19:16 | 00:00:00 | |
| DM0DOS-11 | 2026-09-01 00:09:20 | 50.96224 | 1.12694 | 86° | 62km/h | 14901m | 4.3m/s | -52.5°C | 4.4% | 0hPa | 2.7V | 08:30:00 | 01:19:06 | 00:00:00 | |
| BIOWL1-15 | 2026-09-01 00:09:20 | 50.96229 | 1.12769 | 83° | 64km/h | 14916m | 5.3m/s | -52.4°C | 1% | 0hPa | 2.6V | 18:12:15 | 01:19:09 | 00:00:00 | |
| BIOWL7-15 | 2026-09-01 00:09:14 | 50.96224 | 1.12694 | 87° | 62km/h | 14902m | 4.3m/s | 0°C | 0% | 0hPa | 2.6V | 00:00:00 | 00:00:00 | 00:00:00 | |
| DM0DOS-11 | 2026-09-01 00:09:11 | 50.96219 | 1.12422 | 87° | 69km/h | 14860m | 4.6m/s | -52.6°C | 4.4% | 0hPa | 2.6V | 08:30:00 | 01:18:56 | 00:00:00 | |
| BIOWL1-15 | 2026-09-01 00:09:08 | 50.96220 | 1.12507 | 90° | 69km/h | 14873m | 3.3m/s | -52.6°C | 1% | 0hPa | 2.7V | 18:12:15 | 01:18:59 | 00:00:00 | |
| DM0DOS-11 | 2026-09-01 00:08:59 | 50.96210 | 1.12132 | 84° | 64km/h | 14812m | 4.2m/s | -52.5°C | 4.3% | 0hPa | 2.6V | 08:30:00 | 01:18:45 | 00:00:00 | |
| BIOWL1-15 | 2026-09-01 00:08:57 | 50.96212 | 1.12209 | 88° | 64km/h | 14825m | 4.7m/s | -52.5°C | 1.1% | 0hPa | 2.7V | 18:12:15 | 01:18:48 | 00:00:00 | |
| BIOWL1-15 | 2026-09-01 00:08:49 | 50.96198 | 1.11891 | 89° | 57km/h | 14770m | 4.4m/s | -52.4°C | 1% | 0hPa | 2.6V | 18:12:15 | 01:18:35 | 00:00:00 | |
| DM0DOS-11 | 2026-09-01 00:08:47 | 50.96198 | 1.11891 | 88° | 57km/h | 14770m | 4.4m/s | -52.4°C | 4.4% | 0hPa | 2.6V | 08:30:00 | 01:18:35 | 00:00:00 | |
| BIOWL9-15 | 2026-09-01 00:08:40 | 50.96194 | 1.11797 | 84° | 60km/h | 14752m | 5.0m/s | -52.4°C | 1.6% | -1.0hPa | 2.8V | 00:00:00 | 00:00:00 | 00:00:00 | |
| DM0DOS-11 | 2026-09-01 00:08:39 | 50.96188 | 1.11653 | 87° | 58km/h | 14727m | 3.9m/s | -52.4°C | 4.3% | 0hPa | 2.8V | 08:30:00 | 01:18:25 | 00:00:00 | |
| BIOWL1-15 | 2026-09-01 00:08:38 | 50.96189 | 1.11700 | 89° | 60km/h | 14736m | 3.2m/s | -52.5°C | 1.1% | 0hPa | 2.6V | 18:12:15 | 01:18:27 | 00:00:00 | |
| BIOWL1-15 | 2026-09-01 00:08:28 | 50.96188 | 1.11459 | 86° | 60km/h | 14694m | 3.9m/s | -52.4°C | 1% | 0hPa | 2.6V | 18:12:15 | 01:18:17 | 00:00:00 | |
| DM0DOS-11 | 2026-09-01 00:08:25 | 50.96185 | 1.11412 | 83° | 60km/h | 14686m | 3.4m/s | -52.4°C | 4.4% | 0hPa | 2.7V | 08:30:00 | 01:18:15 | 00:00:00 | |
| DM0DOS-11 | 2026-09-01 00:08:19 | 50.96176 | 1.11140 | 84° | 66km/h | 14643m | 4.6m/s | -52.6°C | 4.4% | 0hPa | 2.7V | 08:30:00 | 01:18:05 | 00:00:00 | |
| BIOWL1-15 | 2026-09-01 00:08:15 | 50.96177 | 1.11167 | 86° | 69km/h | 14647m | 4.2m/s | -52.6°C | 1% | 0hPa | 2.7V | 18:12:15 | 01:18:06 | 00:00:00 | |
| DM0DOS-11 | 2026-09-01 00:08:09 | 50.96161 | 1.10883 | 83° | 64km/h | 14600m | 4.8m/s | -52.5°C | 4.4% | 0hPa | 2.8V | 08:30:00 | 01:17:55 | 00:00:00 | |
| BIOWL1-15 | 2026-09-01 00:08:05 | 50.96147 | 1.10736 | 83° | 60km/h | 14574m | 3.6m/s | -52.3°C | 1.1% | 0hPa | 2.8V | 18:12:15 | 01:17:49 | 00:00:00 | |
| DM0DOS-11 | 2026-09-01 00:07:55 | 50.96138 | 1.10638 | 82° | 60km/h | 14558m | 3.8m/s | -52.3°C | 4.4% | 0hPa | 2.6V | 08:30:00 | 01:17:45 | 00:00:00 | |
| BIOWL1-15 | 2026-09-01 00:07:54 | 50.96138 | 1.10638 | 83° | 60km/h | 14558m | 3.8m/s | -52.3°C | 1% | 0hPa | 2.6V | 18:12:15 | 01:17:45 | 00:00:00 | |
| DM0DOS-11 | 2026-09-01 00:07:49 | 50.96123 | 1.10393 | 86° | 60km/h | 14515m | 4.3m/s | -52.1°C | 4.3% | 0hPa | 2.6V | 08:30:00 | 01:17:35 | 00:00:00 | |
| BIOWL1-15 | 2026-09-01 00:07:43 | 50.96120 | 1.10320 | 88° | 62km/h | 14501m | 4.5m/s | -52.1°C | 1% | 0hPa | 2.8V | 18:12:15 | 01:17:32 | 00:00:00 | |
| DM0DOS-11 | 2026-09-01 00:07:39 | 50.96109 | 1.10149 | 81° | 62km/h | 14470m | 5.2m/s | -52.1°C | 4.3% | 0hPa | 2.7V | 08:30:00 | 01:17:25 | 00:00:00 | |
| BIOWL1-15 | 2026-09-01 00:07:32 | 50.96104 | 1.10100 | 84° | 60km/h | 14461m | 5.3m/s | -52.1°C | 1% | 0hPa | 2.7V | 18:12:15 | 01:17:23 | 00:00:00 | |
| DM0DOS-11 | 2026-09-01 00:07:29 | 50.96093 | 1.09903 | 85° | 64km/h | 14426m | 4.5m/s | -52.1°C | 4.3% | 0hPa | 2.7V | 08:30:00 | 01:17:15 | 00:00:00 | |
| BIOWL1-15 | 2026-09-01 00:07:23 | 50.96086 | 1.09829 | 78° | 60km/h | 14414m | 4.4m/s | -52°C | 1.1% | 0hPa | 2.6V | 18:12:15 | 01:17:12 | 00:00:00 | |
| DB0UT-7 | 2026-09-01 00:07:20 | 50.96082 | 1.09806 | 80° | 66km/h | 14410m | 3.6m/s | -52.0°C | 4.3% | 0hPa | 2.6V | 00:00:00 | 01:17:11 | 00:00:00 | |
| DM0DOS-11 | 2026-09-01 00:07:19 | 50.96066 | 1.09664 | 80° | 60km/h | 14383m | 4.9m/s | -51.9°C | 4.3% | 0hPa | 2.6V | 08:30:00 | 01:17:05 | 00:00:00 | |
| BIOWL1-15 | 2026-09-01 00:07:11 | 50.96059 | 1.09593 | 81° | 58km/h | 14369m | 3.7m/s | -52°C | 1% | 0hPa | 2.8V | 18:12:15 | 01:17:02 | 00:00:00 | |
| DM0DOS-11 | 2026-09-01 00:07:09 | 50.96041 | 1.09432 | 79° | 60km/h | 14338m | 4.9m/s | -52.1°C | 4.3% | 0hPa | 2.8V | 08:30:00 | 01:16:55 | 00:00:00 | |
| BIOWL1-15 | 2026-09-01 00:07:00 | 50.96029 | 1.09293 | 83° | 58km/h | 14314m | 3.9m/s | -52.2°C | 1% | 0hPa | 2.7V | 18:12:15 | 01:16:49 | 00:00:00 | |
| BIOWL1-15 | 2026-09-01 00:06:48 | 50.96004 | 1.09063 | 83° | 58km/h | 14271m | 3.6m/s | -52.2°C | 1.1% | 0hPa | 2.8V | 18:12:15 | 01:16:39 | 00:00:00 | |
| BIOWL1-15 | 2026-09-01 00:06:38 | 50.95972 | 1.08763 | 80° | 57km/h | 14215m | 4.6m/s | -52.1°C | 1.1% | 0hPa | 2.7V | 18:12:15 | 01:16:26 | 00:00:00 | |
| BIOWL1-15 | 2026-09-01 00:06:27 | 50.95928 | 1.08390 | 78° | 60km/h | 14144m | 4.7m/s | -52.4°C | 1.2% | 0hPa | 2.8V | 18:12:15 | 01:16:10 | 00:00:00 | |
| BIOWL1-15 | 2026-09-01 00:06:16 | 50.95915 | 1.08273 | 83° | 58km/h | 14124m | 3.9m/s | -52.3°C | 1.1% | 0hPa | 2.7V | 18:12:15 | 01:16:05 | 00:00:00 | |
| BIOWL1-15 | 2026-09-01 00:06:05 | 50.95850 | 1.07620 | 81° | 60km/h | 14004m | 4.4m/s | 0°C | 0% | 0hPa | 2.7V | 18:12:15 | 01:15:38 | 00:00:00 | |
| DM0DOS-11 | 2026-09-01 00:06:02 | 50.95852 | 1.07645 | 81° | 62km/h | 14009m | 4.6m/s | -52.2°C | 4.3% | 0hPa | 2.7V | 08:30:00 | 01:15:39 | 00:00:00 | |
| DM0DOS-11 | 2026-09-01 00:05:43 | 50.95839 | 1.07386 | 88° | 69km/h | 13964m | 4.6m/s | -52.5°C | 4.4% | 0hPa | 2.8V | 08:30:00 | 01:15:29 | 00:00:00 | |
| BIOWL1-15 | 2026-09-01 00:05:37 | 50.95838 | 1.07332 | 87° | 66km/h | 13955m | 3.8m/s | 0°C | 0% | 0hPa | 2.7V | 18:12:15 | 01:15:27 | 00:00:00 | |
| DM0DOS-11 | 2026-09-01 00:05:34 | 50.95821 | 1.07107 | 81° | 64km/h | 13916m | 4.7m/s | -52.6°C | 4.5% | 0hPa | 2.8V | 08:30:00 | 01:15:18 | 00:00:00 | |
| BIOWL1-15 | 2026-09-01 00:05:25 | 50.95812 | 1.06972 | 87° | 69km/h | 13895m | 4.9m/s | 0°C | 0% | 0hPa | 2.8V | 18:12:15 | 01:15:13 | 00:00:00 | |
| DM0DOS-11 | 2026-09-01 00:05:22 | 50.95809 | 1.06861 | 88° | 69km/h | 13878m | 3.9m/s | -52.5°C | 4.4% | 0hPa | 2.7V | 08:30:00 | 01:15:09 | 00:00:00 | |
| BIOWL1-15 | 2026-09-01 00:05:11 | 50.95803 | 1.06558 | 91° | 69km/h | 13829m | 4.3m/s | 0°C | 0% | 0hPa | 2.7V | 18:12:15 | 01:14:58 | 00:00:00 | |
| DB0UT-7 | 2026-09-01 00:05:11 | 50.95805 | 1.06670 | 88° | 73km/h | 13847m | 3.4m/s | -52.7°C | 4.5% | 0hPa | 2.7V | 00:00:00 | 00:00:00 | 00:00:00 | |
| DM0DOS-11 | 2026-09-01 00:05:10 | 50.95803 | 1.06586 | 87° | 69km/h | 13834m | 5m/s | -52.7°C | 4.5% | 0hPa | 2.7V | 08:30:00 | 01:14:59 | 00:00:00 | |
| DM0DOS-11 | 2026-09-01 00:05:04 | 50.95805 | 1.06264 | 86° | 71km/h | 13785m | 4.2m/s | -52.5°C | 4.5% | 0hPa | 2.7V | 08:30:00 | 01:14:48 | 00:00:00 | |
| DM0DOS-11 | 2026-09-01 00:04:52 | 50.95798 | 1.05943 | 87° | 71km/h | 13738m | 4m/s | -53°C | 4.6% | 0hPa | 2.7V | 08:30:00 | 01:14:37 | 00:00:00 | |
| DM0DOS-11 | 2026-09-01 00:04:41 | 50.95774 | 1.05593 | 83° | 78km/h | 13687m | 3.3m/s | -53.1°C | 4.8% | 0hPa | 2.7V | 08:30:00 | 01:14:25 | 00:00:00 | |
| DM0DOS-11 | 2026-09-01 00:04:27 | 50.95756 | 1.05357 | 82° | 73km/h | 13652m | 3.4m/s | -53.1°C | 4.8% | 0hPa | 2.8V | 08:30:00 | 01:14:17 | 00:00:00 | |
| DM0DOS-11 | 2026-09-01 00:04:22 | 50.95732 | 1.05059 | 83° | 77km/h | 13611m | 3.9m/s | -53.3°C | 4.9% | 0hPa | 2.8V | 08:30:00 | 01:14:07 | 00:00:00 | |
| DM0DOS-11 | 2026-09-01 00:04:09 | 50.95705 | 1.04754 | 79° | 77km/h | 13570m | 4.9m/s | -53.3°C | 4.8% | 0hPa | 2.7V | 08:30:00 | 01:13:57 | 00:00:00 | |
| DM0DOS-11 | 2026-09-01 00:03:57 | 50.95680 | 1.04453 | 81° | 75km/h | 13527m | 3.8m/s | -53.3°C | 4.9% | 0hPa | 2.7V | 08:30:00 | 01:13:47 | 00:00:00 | |
| DB0UT-7 | 2026-09-01 00:03:53 | 50.95671 | 1.04365 | 81° | 77km/h | 13515m | 3.2m/s | -53.2°C | 4.9% | 0hPa | 2.7V | 00:00:00 | 01:13:44 | 00:00:00 | |
| DM0DOS-11 | 2026-09-01 00:03:51 | 50.95649 | 1.04149 | 81° | 77km/h | 13485m | 3.8m/s | -53.3°C | 4.9% | 0hPa | 2.7V | 08:30:00 | 01:13:37 | 00:00:00 | |
| DM0DOS-11 | 2026-09-01 00:03:38 | 50.95617 | 1.03850 | 78° | 80km/h | 13444m | 3.1m/s | -53.5°C | 5.1% | 0hPa | 2.8V | 08:30:00 | 01:13:27 | 00:00:00 | |
| DM0DOS-11 | 2026-09-01 00:03:32 | 50.95573 | 1.03560 | 77° | 73km/h | 13403m | 3.3m/s | -53.3°C | 0% | 0hPa | 2.8V | 08:30:00 | 01:13:17 | 00:00:00 | |
| DM0DOS-11 | 2026-09-01 00:03:18 | 50.95539 | 1.03277 | 79° | 69km/h | 13361m | 3.1m/s | 0°C | 0% | 0hPa | 2.8V | 08:30:00 | 01:13:07 | 00:00:00 | |
| DM0DOS-11 | 2026-09-01 00:03:12 | 50.95512 | 1.03003 | 82° | 68km/h | 13319m | 5.1m/s | 0°C | 0% | 0hPa | 2.7V | 00:00:00 | 01:12:57 | 00:00:00 | |
| DM0DOS-11 | 2026-09-01 00:02:58 | 50.95504 | 1.02723 | 93° | 73km/h | 13278m | 3.9m/s | 0°C | 0% | 0hPa | 2.8V | 00:00:00 | 01:12:47 | 00:00:00 | |
| DM0DOS-11 | 2026-09-01 00:02:52 | 50.95502 | 1.02427 | 88° | 75km/h | 13235m | 4.4m/s | 0°C | 0% | 0hPa | 2.7V | 00:00:00 | 01:12:37 | 00:00:00 | |
| DB0UT-7 | 2026-08-31 23:58:49 | 50.95064 | 0.94714 | 89° | 84km/h | 12262m | 3.3m/s | 0°C | 0% | 0hPa | 0V | 00:00:00 | 01:08:40 | 00:00:00 | |
| DB0UT-7 | 2026-08-31 23:58:19 | 50.95054 | 0.93702 | 88° | 99km/h | 12139m | 4.5m/s | 0°C | 0% | 0hPa | 0V | 00:00:00 | 00:00:00 | 00:00:00 | |
| DB0UT-7 | 2026-08-31 23:53:20 | 50.94027 | 0.82078 | 82° | 97km/h | 10934m | 4.1m/s | 0°C | 0% | 0hPa | 0V | 00:00:00 | 01:03:11 | 00:00:00 |